Darstellungsparameter: Aktuell verwendete Einstellungen:
Skalierung der Graphiken ... ?
xyx+y,   Skalierungsfaktor:      Skalierung: Modus: x, Faktor: 1
Darstellungszeitraum ... ?
Vom - - bis: - -   Zeitraum: 15.10.2016 - 14.11.2016
Min/Max/Avg-Anzeige ... ?
Zeige MMA aktuell
Zeige MMA Monat
Zeige MMA alles
Zeige --A aktuell
Zeige --A Monat
Zeige --A alles
Keine MMA-Anzeige
MMA:
Keine MMA-Graphiken
MMA-Basis: 15.10.2016 - 14.11.2016
Quicknavigation für Darstellung... ?
Tage:      1T, 2T, 3T, 5T -1T -2T -3T -5T +1T +2T +3T +5T
Wochen: 1W, 2W, 3W -1W -2W -3W +1W +2W +3W
Monate: 1M, 3M, 6M -1M -3M -6M +1M +3M +6M
Jahre:    1J, 3J, 5J, 10J -1J -3J -5J -10J +1J +3J +5J +10J
Nutze für die Darstellung ... ?
Originaldaten oder Mittelwerte auf ...
Stundenbasis Tagesbasis Wochenbasis
Monatsbasis Jahresbasis      Datenbasis: Original-Daten
Darstellen als:
Statistik (Auto) Statistik J:M      Darstellung:
Zur Graphik,    zurück zur Übersicht aller Sensoren.
 
Tabellarische Datenbersicht: ?
 
Sensor: Nr:Datum:Temp:Feuchte:Taupunkt:
Aussen-T/F 1 15-10-2016 00:00:00 10.2 C 95 % 9.44 C
2 15-10-2016 00:05:00 10.1 C 95 % 9.34 C
3 15-10-2016 00:10:00 10.1 C 95 % 9.34 C
4 15-10-2016 00:15:00 10 C 95 % 9.24 C
5 15-10-2016 00:20:00 9.9 C 95 % 9.14 C
6 15-10-2016 00:25:00 9.9 C 95 % 9.14 C
7 15-10-2016 00:30:00 9.9 C 95 % 9.14 C
8 15-10-2016 00:35:00 9.9 C 95 % 9.14 C
9 15-10-2016 00:40:00 9.9 C 95 % 9.14 C
10 15-10-2016 00:45:00 9.9 C 95 % 9.14 C
11 15-10-2016 00:50:00 9.9 C 95 % 9.14 C
12 15-10-2016 00:55:00 9.9 C 95 % 9.14 C
13 15-10-2016 01:00:00 9.9 C 95 % 9.14 C
14 15-10-2016 01:05:00 9.8 C 95 % 9.04 C
15 15-10-2016 01:10:00 9.7 C 95 % 8.94 C
16 15-10-2016 01:15:00 9.6 C 95 % 8.84 C
17 15-10-2016 01:20:00 9.6 C 95 % 8.84 C
18 15-10-2016 01:25:00 9.4 C 95 % 8.64 C
19 15-10-2016 01:30:00 9.3 C 95 % 8.54 C
20 15-10-2016 01:35:00 9.3 C 95 % 8.54 C
21 15-10-2016 01:40:00 9.2 C 95 % 8.44 C
22 15-10-2016 01:45:00 9.1 C 95 % 8.34 C
23 15-10-2016 01:50:00 9.1 C 95 % 8.34 C
24 15-10-2016 01:55:00 9 C 95 % 8.24 C
25 15-10-2016 02:00:00 9 C 95 % 8.24 C
Sensor: Nr:Datum:Temp:Feuchte:Taupunkt:
Aussen-T/F 26 15-10-2016 02:05:00 9 C 95 % 8.24 C
27 15-10-2016 02:10:00 8.9 C 95 % 8.14 C
28 15-10-2016 02:15:00 8.8 C 95 % 8.04 C
29 15-10-2016 02:20:00 8.7 C 95 % 7.94 C
30 15-10-2016 02:25:00 8.6 C 95 % 7.85 C
31 15-10-2016 02:30:00 8.6 C 95 % 7.85 C
32 15-10-2016 02:35:00 8.6 C 95 % 7.85 C
33 15-10-2016 02:40:00 8.5 C 95 % 7.75 C
34 15-10-2016 02:45:00 8.5 C 95 % 7.75 C
35 15-10-2016 02:50:00 8.5 C 95 % 7.75 C
36 15-10-2016 02:55:00 8.5 C 95 % 7.75 C
37 15-10-2016 03:00:00 8.4 C 95 % 7.65 C
38 15-10-2016 03:05:00 8.4 C 95 % 7.65 C
39 15-10-2016 03:10:00 8.3 C 95 % 7.55 C
40 15-10-2016 03:15:00 8.3 C 95 % 7.55 C
41 15-10-2016 03:20:00 8.3 C 95 % 7.55 C
42 15-10-2016 03:25:00 8.2 C 95 % 7.45 C
43 15-10-2016 03:30:00 8.2 C 95 % 7.45 C
44 15-10-2016 03:35:00 8.1 C 95 % 7.35 C
45 15-10-2016 03:40:00 8.1 C 95 % 7.35 C
46 15-10-2016 03:45:00 8 C 95 % 7.25 C
47 15-10-2016 03:50:00 8 C 95 % 7.25 C
48 15-10-2016 03:55:00 7.9 C 95 % 7.15 C
49 15-10-2016 04:00:00 7.9 C 95 % 7.15 C
50 15-10-2016 04:05:00 7.8 C 95 % 7.05 C
Sensor: Nr:Datum:Temp:Feuchte:Taupunkt:
Aussen-T/F 51 15-10-2016 04:10:00 7.8 C 96 % 7.2 C
52 15-10-2016 04:15:00 7.8 C 96 % 7.2 C
53 15-10-2016 04:20:00 7.9 C 96 % 7.3 C
54 15-10-2016 04:25:00 8 C 96 % 7.4 C
55 15-10-2016 04:30:00 7.9 C 96 % 7.3 C
56 15-10-2016 04:35:00 7.8 C 96 % 7.2 C
57 15-10-2016 04:40:00 7.8 C 96 % 7.2 C
58 15-10-2016 04:45:00 7.9 C 96 % 7.3 C
59 15-10-2016 04:50:00 7.9 C 96 % 7.3 C
60 15-10-2016 04:55:00 8.1 C 96 % 7.5 C
61 15-10-2016 05:00:00 8.2 C 96 % 7.6 C
62 15-10-2016 05:05:00 8.2 C 96 % 7.6 C
63 15-10-2016 05:10:00 8.3 C 96 % 7.7 C
64 15-10-2016 05:15:00 8.3 C 96 % 7.7 C
65 15-10-2016 05:20:00 8.3 C 96 % 7.7 C
66 15-10-2016 05:25:00 8.4 C 96 % 7.8 C
67 15-10-2016 05:30:00 8.4 C 96 % 7.8 C
68 15-10-2016 05:35:00 8.6 C 96 % 8 C
69 15-10-2016 05:40:00 8.7 C 96 % 8.1 C
70 15-10-2016 05:45:00 8.8 C 97 % 8.35 C
71 15-10-2016 05:50:00 8.8 C 96 % 8.2 C
72 15-10-2016 05:55:00 8.8 C 96 % 8.2 C
73 15-10-2016 06:00:00 8.8 C 96 % 8.2 C
74 15-10-2016 06:05:00 8.9 C 96 % 8.3 C
75 15-10-2016 06:10:00 8.9 C 96 % 8.3 C
Sensor: Nr:Datum:Temp:Feuchte:Taupunkt:
Aussen-T/F 76 15-10-2016 06:15:00 8.9 C 96 % 8.3 C
77 15-10-2016 06:20:00 8.9 C 96 % 8.3 C
78 15-10-2016 06:25:00 8.8 C 96 % 8.2 C
79 15-10-2016 06:30:00 8.8 C 96 % 8.2 C
80 15-10-2016 06:35:00 8.9 C 96 % 8.3 C
81 15-10-2016 06:40:00 8.9 C 97 % 8.45 C
82 15-10-2016 06:45:00 9 C 97 % 8.55 C
83 15-10-2016 06:50:00 9.1 C 97 % 8.65 C
84 15-10-2016 06:55:00 9.1 C 97 % 8.65 C
85 15-10-2016 07:00:00 9.1 C 97 % 8.65 C
86 15-10-2016 07:05:00 9.2 C 97 % 8.75 C
87 15-10-2016 07:10:00 9.2 C 96 % 8.6 C
88 15-10-2016 07:15:00 9.2 C 96 % 8.6 C
89 15-10-2016 07:20:00 9.2 C 96 % 8.6 C
90 15-10-2016 07:25:00 9.3 C 96 % 8.7 C
91 15-10-2016 07:30:00 9.3 C 96 % 8.7 C
92 15-10-2016 07:35:00 9.3 C 97 % 8.85 C
93 15-10-2016 07:40:00 9.3 C 97 % 8.85 C
94 15-10-2016 07:45:00 9.4 C 97 % 8.95 C
95 15-10-2016 07:50:00 9.5 C 97 % 9.05 C
96 15-10-2016 07:55:00 9.7 C 97 % 9.25 C
97 15-10-2016 08:00:00 9.8 C 97 % 9.35 C
98 15-10-2016 08:05:00 9.9 C 97 % 9.45 C
99 15-10-2016 08:10:00 10.1 C 97 % 9.65 C
100 15-10-2016 08:15:00 10.2 C 97 % 9.75 C
Sensor: Nr:Datum:Temp:Feuchte:Taupunkt:
Aussen-T/F 101 15-10-2016 08:20:00 10.3 C 97 % 9.85 C
102 15-10-2016 08:25:00 10.4 C 97 % 9.94 C
103 15-10-2016 08:30:00 10.6 C 97 % 10.14 C
104 15-10-2016 08:35:00 10.7 C 97 % 10.24 C
105 15-10-2016 08:40:00 10.9 C 97 % 10.44 C
106 15-10-2016 08:45:00 11.2 C 97 % 10.74 C
107 15-10-2016 08:50:00 11.4 C 97 % 10.94 C
108 15-10-2016 08:55:00 11.7 C 97 % 11.24 C
109 15-10-2016 09:00:00 11.8 C 97 % 11.34 C
110 15-10-2016 09:05:00 12 C 97 % 11.54 C
111 15-10-2016 09:10:00 12.2 C 97 % 11.74 C
112 15-10-2016 09:15:00 12.3 C 97 % 11.84 C
113 15-10-2016 09:20:00 12.4 C 97 % 11.94 C
114 15-10-2016 09:25:00 12.4 C 97 % 11.94 C
115 15-10-2016 09:30:00 12.6 C 96 % 11.98 C
116 15-10-2016 09:35:00 12.7 C 96 % 12.08 C
117 15-10-2016 09:40:00 12.8 C 95 % 12.02 C
118 15-10-2016 09:45:00 12.8 C 95 % 12.02 C
119 15-10-2016 09:50:00 12.9 C 94 % 11.96 C
120 15-10-2016 09:55:00 13.1 C 94 % 12.16 C
121 15-10-2016 10:00:00 13.1 C 93 % 11.99 C
122 15-10-2016 10:05:00 13.2 C 93 % 12.09 C
123 15-10-2016 10:10:00 13.2 C 92 % 11.93 C
124 15-10-2016 10:15:00 13.2 C 92 % 11.93 C
125 15-10-2016 10:20:00 13.3 C 92 % 12.03 C
Sensor: Nr:Datum:Temp:Feuchte:Taupunkt:
Aussen-T/F 126 15-10-2016 10:25:00 13.3 C 91 % 11.86 C
127 15-10-2016 10:30:00 13.2 C 91 % 11.76 C
128 15-10-2016 10:35:00 13.2 C 91 % 11.76 C
129 15-10-2016 10:40:00 13.3 C 91 % 11.86 C
130 15-10-2016 10:45:00 13.3 C 91 % 11.86 C
131 15-10-2016 10:50:00 13.3 C 91 % 11.86 C
132 15-10-2016 10:55:00 13.4 C 90 % 11.79 C
133 15-10-2016 11:00:00 13.5 C 90 % 11.89 C
134 15-10-2016 11:05:00 13.6 C 90 % 11.99 C
135 15-10-2016 11:10:00 13.6 C 90 % 11.99 C
136 15-10-2016 11:15:00 13.6 C 89 % 11.82 C
137 15-10-2016 11:20:00 13.7 C 89 % 11.92 C
138 15-10-2016 11:25:00 13.7 C 89 % 11.92 C
139 15-10-2016 11:30:00 13.8 C 88 % 11.85 C
140 15-10-2016 11:35:00 13.9 C 88 % 11.95 C
141 15-10-2016 11:40:00 14 C 88 % 12.05 C
142 15-10-2016 11:45:00 14.1 C 87 % 11.97 C
143 15-10-2016 11:50:00 14.2 C 87 % 12.07 C
144 15-10-2016 11:55:00 14.3 C 86 % 11.99 C
145 15-10-2016 12:00:00 14.3 C 85 % 11.81 C
146 15-10-2016 12:05:00 14.3 C 86 % 11.99 C
147 15-10-2016 12:10:00 14.3 C 86 % 11.99 C
148 15-10-2016 12:15:00 14.2 C 85 % 11.72 C
149 15-10-2016 12:20:00 14.2 C 86 % 11.89 C
150 15-10-2016 12:25:00 14.2 C 85 % 11.72 C
Sensor: Nr:Datum:Temp:Feuchte:Taupunkt:
Aussen-T/F 151 15-10-2016 12:30:00 14.2 C 86 % 11.89 C
152 15-10-2016 12:35:00 14.1 C 86 % 11.8 C
153 15-10-2016 12:40:00 14.2 C 86 % 11.89 C
154 15-10-2016 12:45:00 14.1 C 86 % 11.8 C
155 15-10-2016 12:50:00 14.1 C 86 % 11.8 C
156 15-10-2016 12:55:00 14.1 C 86 % 11.8 C
157 15-10-2016 13:00:00 14 C 87 % 11.87 C
158 15-10-2016 13:05:00 13.9 C 87 % 11.77 C
159 15-10-2016 13:10:00 13.8 C 87 % 11.68 C
160 15-10-2016 13:15:00 13.8 C 87 % 11.68 C
161 15-10-2016 13:20:00 13.9 C 87 % 11.77 C
162 15-10-2016 13:25:00 14 C 87 % 11.87 C
163 15-10-2016 13:30:00 14.2 C 87 % 12.07 C
164 15-10-2016 13:35:00 14.3 C 86 % 11.99 C
165 15-10-2016 13:40:00 14.4 C 86 % 12.09 C
166 15-10-2016 13:45:00 14.5 C 84 % 11.83 C
167 15-10-2016 13:50:00 14.6 C 85 % 12.11 C
168 15-10-2016 13:55:00 14.7 C 85 % 12.21 C
169 15-10-2016 14:00:00 14.8 C 84 % 12.12 C
170 15-10-2016 14:05:00 14.8 C 84 % 12.12 C
171 15-10-2016 14:10:00 14.9 C 83 % 12.04 C
172 15-10-2016 14:15:00 14.9 C 83 % 12.04 C
173 15-10-2016 14:20:00 14.9 C 83 % 12.04 C
174 15-10-2016 14:25:00 15 C 83 % 12.14 C
175 15-10-2016 14:30:00 15.1 C 84 % 12.42 C
Sensor: Nr:Datum:Temp:Feuchte:Taupunkt:
Aussen-T/F 176 15-10-2016 14:35:00 15.1 C 83 % 12.24 C
177 15-10-2016 14:40:00 15.2 C 82 % 12.15 C
178 15-10-2016 14:45:00 15.2 C 82 % 12.15 C
179 15-10-2016 14:50:00 15.3 C 82 % 12.25 C
180 15-10-2016 14:55:00 15.3 C 82 % 12.25 C
181 15-10-2016 15:00:00 15.3 C 80 % 11.87 C
182 15-10-2016 15:05:00 15.4 C 80 % 11.97 C
183 15-10-2016 15:10:00 15.4 C 81 % 12.16 C
184 15-10-2016 15:15:00 15.3 C 81 % 12.06 C
185 15-10-2016 15:20:00 15.3 C 81 % 12.06 C
186 15-10-2016 15:25:00 15.3 C 81 % 12.06 C
187 15-10-2016 15:30:00 15.2 C 80 % 11.78 C
188 15-10-2016 15:35:00 15.1 C 80 % 11.68 C
189 15-10-2016 15:40:00 15 C 80 % 11.58 C
190 15-10-2016 15:45:00 14.9 C 80 % 11.48 C
191 15-10-2016 15:50:00 14.8 C 82 % 11.76 C
192 15-10-2016 15:55:00 14.7 C 81 % 11.48 C
193 15-10-2016 16:00:00 14.7 C 82 % 11.66 C
194 15-10-2016 16:05:00 14.7 C 81 % 11.48 C
195 15-10-2016 16:10:00 14.8 C 82 % 11.76 C
196 15-10-2016 16:15:00 14.8 C 83 % 11.94 C
197 15-10-2016 16:20:00 14.8 C 82 % 11.76 C
198 15-10-2016 16:25:00 14.8 C 82 % 11.76 C
199 15-10-2016 16:30:00 14.8 C 81 % 11.57 C
200 15-10-2016 16:35:00 14.8 C 81 % 11.57 C
Sensor: Nr:Datum:Temp:Feuchte:Taupunkt:
Aussen-T/F 201 15-10-2016 16:40:00 14.8 C 81 % 11.57 C
202 15-10-2016 16:45:00 14.9 C 83 % 12.04 C
203 15-10-2016 16:50:00 15 C 85 % 12.5 C
204 15-10-2016 16:55:00 15 C 85 % 12.5 C
205 15-10-2016 17:00:00 14.8 C 83 % 11.94 C
206 15-10-2016 17:05:00 14.7 C 83 % 11.85 C
207 15-10-2016 17:10:00 14.6 C 83 % 11.75 C
208 15-10-2016 17:15:00 14.4 C 84 % 11.73 C
209 15-10-2016 17:20:00 14.3 C 85 % 11.81 C
210 15-10-2016 17:25:00 14.2 C 85 % 11.72 C
211 15-10-2016 17:30:00 14.2 C 85 % 11.72 C
212 15-10-2016 17:35:00 14.2 C 85 % 11.72 C
213 15-10-2016 17:40:00 14.2 C 84 % 11.54 C
214 15-10-2016 17:45:00 14.1 C 85 % 11.62 C
215 15-10-2016 17:50:00 14.1 C 86 % 11.8 C
216 15-10-2016 17:55:00 14 C 86 % 11.7 C
217 15-10-2016 18:00:00 13.9 C 86 % 11.6 C
218 15-10-2016 18:05:00 13.8 C 85 % 11.32 C
219 15-10-2016 18:10:00 13.7 C 86 % 11.4 C
220 15-10-2016 18:15:00 13.6 C 86 % 11.3 C
221 15-10-2016 18:20:00 13.4 C 87 % 11.28 C
222 15-10-2016 18:25:00 13.3 C 87 % 11.18 C
223 15-10-2016 18:30:00 13.2 C 87 % 11.09 C
224 15-10-2016 18:35:00 13.1 C 87 % 10.99 C
225 15-10-2016 18:40:00 12.8 C 87 % 10.69 C
Sensor: Nr:Datum:Temp:Feuchte:Taupunkt:
Aussen-T/F 226 15-10-2016 18:45:00 12.7 C 87 % 10.59 C
227 15-10-2016 18:50:00 12.4 C 87 % 10.3 C
228 15-10-2016 18:55:00 12.2 C 87 % 10.1 C
229 15-10-2016 19:00:00 12.1 C 88 % 10.17 C
230 15-10-2016 19:05:00 11.9 C 87 % 9.81 C
231 15-10-2016 19:10:00 11.8 C 88 % 9.88 C
232 15-10-2016 19:15:00 11.7 C 88 % 9.78 C
233 15-10-2016 19:20:00 11.6 C 88 % 9.68 C
234 15-10-2016 19:25:00 11.5 C 88 % 9.58 C
235 15-10-2016 19:30:00 11.4 C 88 % 9.49 C
236 15-10-2016 19:35:00 11.4 C 88 % 9.49 C
237 15-10-2016 19:40:00 11.3 C 88 % 9.39 C
238 15-10-2016 19:45:00 11.2 C 88 % 9.29 C
239 15-10-2016 19:50:00 11.1 C 89 % 9.36 C
240 15-10-2016 19:55:00 11.1 C 89 % 9.36 C
241 15-10-2016 20:00:00 11 C 89 % 9.26 C
242 15-10-2016 20:05:00 11 C 89 % 9.26 C
243 15-10-2016 20:10:00 10.9 C 89 % 9.16 C
244 15-10-2016 20:15:00 10.8 C 89 % 9.06 C
245 15-10-2016 20:20:00 10.8 C 90 % 9.23 C
246 15-10-2016 20:25:00 10.7 C 89 % 8.96 C
247 15-10-2016 20:30:00 10.6 C 89 % 8.86 C
248 15-10-2016 20:35:00 10.6 C 89 % 8.86 C
249 15-10-2016 20:40:00 10.5 C 89 % 8.77 C
250 15-10-2016 20:45:00 10.5 C 90 % 8.93 C
Sensor: Nr:Datum:Temp:Feuchte:Taupunkt:
Aussen-T/F 251 15-10-2016 20:50:00 10.4 C 90 % 8.83 C
252 15-10-2016 20:55:00 10.4 C 89 % 8.67 C
253 15-10-2016 21:00:00 10.3 C 90 % 8.73 C
254 15-10-2016 21:05:00 10.2 C 90 % 8.64 C
255 15-10-2016 21:10:00 10.1 C 90 % 8.54 C
256 15-10-2016 21:15:00 9.9 C 90 % 8.34 C
257 15-10-2016 21:20:00 9.7 C 90 % 8.14 C
258 15-10-2016 21:25:00 9.5 C 90 % 7.94 C
259 15-10-2016 21:30:00 9.3 C 91 % 7.91 C
260 15-10-2016 21:35:00 9.2 C 91 % 7.81 C
261 15-10-2016 21:40:00 9.2 C 92 % 7.97 C
262 15-10-2016 21:45:00 9.1 C 92 % 7.87 C
263 15-10-2016 21:50:00 8.9 C 92 % 7.67 C
264 15-10-2016 21:55:00 8.8 C 92 % 7.57 C
265 15-10-2016 22:00:00 8.6 C 92 % 7.38 C
266 15-10-2016 22:05:00 8.6 C 93 % 7.53 C
267 15-10-2016 22:10:00 8.6 C 93 % 7.53 C
268 15-10-2016 22:15:00 8.5 C 93 % 7.43 C
269 15-10-2016 22:20:00 8.4 C 93 % 7.34 C
270 15-10-2016 22:25:00 8.3 C 93 % 7.24 C
271 15-10-2016 22:30:00 8.2 C 93 % 7.14 C
272 15-10-2016 22:35:00 8.1 C 93 % 7.04 C
273 15-10-2016 22:40:00 8 C 93 % 6.94 C
274 15-10-2016 22:45:00 7.9 C 93 % 6.84 C
275 15-10-2016 22:50:00 7.8 C 93 % 6.74 C
Sensor: Nr:Datum:Temp:Feuchte:Taupunkt:
Aussen-T/F 276 15-10-2016 22:55:00 7.7 C 93 % 6.64 C
277 15-10-2016 23:00:00 7.6 C 94 % 6.7 C
278 15-10-2016 23:05:00 7.5 C 93 % 6.44 C
279 15-10-2016 23:10:00 7.5 C 94 % 6.6 C
280 15-10-2016 23:15:00 7.5 C 94 % 6.6 C
281 15-10-2016 23:20:00 7.4 C 94 % 6.5 C
282 15-10-2016 23:25:00 7.4 C 94 % 6.5 C
283 15-10-2016 23:30:00 7.4 C 94 % 6.5 C
284 15-10-2016 23:35:00 7.3 C 94 % 6.4 C
285 15-10-2016 23:40:00 7.3 C 94 % 6.4 C
286 15-10-2016 23:45:00 7.3 C 94 % 6.4 C
287 15-10-2016 23:50:00 7.2 C 94 % 6.3 C
288 15-10-2016 23:55:00 7.1 C 94 % 6.2 C
289 16-10-2016 00:00:00 6.9 C 94 % 6 C
290 16-10-2016 00:05:00 6.8 C 94 % 5.9 C
291 16-10-2016 00:10:00 6.8 C 94 % 5.9 C
292 16-10-2016 00:15:00 6.7 C 94 % 5.8 C
293 16-10-2016 00:20:00 6.7 C 95 % 5.96 C
294 16-10-2016 00:25:00 6.7 C 95 % 5.96 C
295 16-10-2016 00:30:00 6.7 C 95 % 5.96 C
296 16-10-2016 00:35:00 6.7 C 95 % 5.96 C
297 16-10-2016 00:40:00 6.7 C 95 % 5.96 C
298 16-10-2016 00:45:00 6.6 C 95 % 5.86 C
299 16-10-2016 00:50:00 6.5 C 95 % 5.76 C
300 16-10-2016 00:55:00 6.4 C 95 % 5.66 C
Sensor: Nr:Datum:Temp:Feuchte:Taupunkt:
Aussen-T/F 301 16-10-2016 01:00:00 6.4 C 95 % 5.66 C
302 16-10-2016 01:05:00 6.4 C 95 % 5.66 C
303 16-10-2016 01:10:00 6.5 C 95 % 5.76 C
304 16-10-2016 01:15:00 6.4 C 95 % 5.66 C
305 16-10-2016 01:20:00 6.3 C 95 % 5.56 C
306 16-10-2016 01:25:00 6.2 C 95 % 5.46 C
307 16-10-2016 01:30:00 6.3 C 95 % 5.56 C
308 16-10-2016 01:35:00 6.4 C 96 % 5.81 C
309 16-10-2016 01:40:00 6.4 C 96 % 5.81 C
310 16-10-2016 01:45:00 6.3 C 95 % 5.56 C
311 16-10-2016 01:50:00 6.3 C 95 % 5.56 C
312 16-10-2016 01:55:00 6.1 C 95 % 5.36 C
313 16-10-2016 02:00:00 6.1 C 95 % 5.36 C
314 16-10-2016 02:05:00 6 C 95 % 5.26 C
315 16-10-2016 02:10:00 5.9 C 95 % 5.16 C
316 16-10-2016 02:15:00 5.8 C 95 % 5.06 C
317 16-10-2016 02:20:00 5.9 C 95 % 5.16 C
318 16-10-2016 02:25:00 5.8 C 95 % 5.06 C
319 16-10-2016 02:30:00 5.8 C 95 % 5.06 C
320 16-10-2016 02:35:00 5.7 C 95 % 4.96 C
321 16-10-2016 02:40:00 5.6 C 95 % 4.86 C
322 16-10-2016 02:45:00 5.4 C 95 % 4.66 C
323 16-10-2016 02:50:00 5.4 C 95 % 4.66 C
324 16-10-2016 02:55:00 5.4 C 95 % 4.66 C
325 16-10-2016 03:00:00 5.4 C 95 % 4.66 C
Sensor: Nr:Datum:Temp:Feuchte:Taupunkt:
Aussen-T/F 326 16-10-2016 03:05:00 5.3 C 96 % 4.72 C
327 16-10-2016 03:10:00 5.3 C 95 % 4.57 C
328 16-10-2016 03:15:00 5.3 C 95 % 4.57 C
329 16-10-2016 03:20:00 5.3 C 95 % 4.57 C
330 16-10-2016 03:25:00 5.2 C 96 % 4.62 C
331 16-10-2016 03:30:00 5.3 C 96 % 4.72 C
332 16-10-2016 03:35:00 5.3 C 96 % 4.72 C
333 16-10-2016 03:40:00 5.2 C 96 % 4.62 C
334 16-10-2016 03:45:00 5.2 C 96 % 4.62 C
335 16-10-2016 03:50:00 5.1 C 96 % 4.52 C
336 16-10-2016 03:55:00 5.1 C 96 % 4.52 C
337 16-10-2016 04:00:00 5.2 C 96 % 4.62 C
338 16-10-2016 04:05:00 5.3 C 96 % 4.72 C
339 16-10-2016 04:10:00 5.3 C 96 % 4.72 C
340 16-10-2016 04:15:00 5.2 C 96 % 4.62 C
341 16-10-2016 04:20:00 5.2 C 96 % 4.62 C
342 16-10-2016 04:25:00 5.1 C 96 % 4.52 C
343 16-10-2016 04:30:00 5.1 C 96 % 4.52 C
344 16-10-2016 04:35:00 5.2 C 96 % 4.62 C
345 16-10-2016 04:40:00 5.4 C 96 % 4.81 C
346 16-10-2016 04:45:00 5.4 C 96 % 4.81 C
347 16-10-2016 04:50:00 5.5 C 96 % 4.91 C
348 16-10-2016 04:55:00 5.5 C 96 % 4.91 C
349 16-10-2016 05:00:00 5.4 C 96 % 4.81 C
350 16-10-2016 05:05:00 5.4 C 96 % 4.81 C
Sensor: Nr:Datum:Temp:Feuchte:Taupunkt:
Aussen-T/F 351 16-10-2016 05:10:00 5.3 C 96 % 4.72 C
352 16-10-2016 05:15:00 5.3 C 96 % 4.72 C
353 16-10-2016 05:20:00 5.3 C 96 % 4.72 C
354 16-10-2016 05:25:00 5.2 C 96 % 4.62 C
355 16-10-2016 05:30:00 5.3 C 96 % 4.72 C
356 16-10-2016 05:35:00 5.2 C 96 % 4.62 C
357 16-10-2016 05:40:00 5.2 C 96 % 4.62 C
358 16-10-2016 05:45:00 5.2 C 96 % 4.62 C
359 16-10-2016 05:50:00 5.2 C 96 % 4.62 C
360 16-10-2016 05:55:00 5.2 C 96 % 4.62 C
361 16-10-2016 06:00:00 5.2 C 96 % 4.62 C
362 16-10-2016 06:05:00 5.2 C 96 % 4.62 C
363 16-10-2016 06:10:00 5.2 C 96 % 4.62 C
364 16-10-2016 06:15:00 5.2 C 96 % 4.62 C
365 16-10-2016 06:20:00 5.2 C 96 % 4.62 C
366 16-10-2016 06:25:00 5.2 C 96 % 4.62 C
367 16-10-2016 06:30:00 5.2 C 96 % 4.62 C
368 16-10-2016 06:35:00 5.2 C 96 % 4.62 C
369 16-10-2016 06:40:00 5.2 C 96 % 4.62 C
370 16-10-2016 06:45:00 5.2 C 96 % 4.62 C
371 16-10-2016 06:50:00 5.2 C 96 % 4.62 C
372 16-10-2016 06:55:00 5.2 C 96 % 4.62 C
373 16-10-2016 07:00:00 5.2 C 96 % 4.62 C
374 16-10-2016 07:05:00 5.2 C 96 % 4.62 C
375 16-10-2016 07:10:00 5.3 C 96 % 4.72 C
Sensor: Nr:Datum:Temp:Feuchte:Taupunkt:
Aussen-T/F 376 16-10-2016 07:15:00 5.3 C 96 % 4.72 C
377 16-10-2016 07:20:00 5.3 C 96 % 4.72 C
378 16-10-2016 07:25:00 5.3 C 96 % 4.72 C
379 16-10-2016 07:30:00 5.3 C 96 % 4.72 C
380 16-10-2016 07:35:00 5.2 C 96 % 4.62 C
381 16-10-2016 07:40:00 5.2 C 96 % 4.62 C
382 16-10-2016 07:45:00 5.2 C 96 % 4.62 C
383 16-10-2016 07:50:00 5.1 C 96 % 4.52 C
384 16-10-2016 07:55:00 5.1 C 96 % 4.52 C
385 16-10-2016 08:00:00 5.1 C 96 % 4.52 C
386 16-10-2016 08:05:00 5 C 96 % 4.42 C
387 16-10-2016 08:10:00 5 C 96 % 4.42 C
388 16-10-2016 08:15:00 4.9 C 96 % 4.32 C
389 16-10-2016 08:20:00 4.9 C 96 % 4.32 C
390 16-10-2016 08:25:00 4.9 C 96 % 4.32 C
391 16-10-2016 08:30:00 4.8 C 96 % 4.22 C
392 16-10-2016 08:35:00 4.8 C 96 % 4.22 C
393 16-10-2016 08:40:00 4.8 C 96 % 4.22 C
394 16-10-2016 08:45:00 4.8 C 96 % 4.22 C
395 16-10-2016 08:50:00 4.8 C 96 % 4.22 C
396 16-10-2016 08:55:00 4.8 C 96 % 4.22 C
397 16-10-2016 09:00:00 4.8 C 96 % 4.22 C
398 16-10-2016 09:05:00 4.9 C 96 % 4.32 C
399 16-10-2016 09:10:00 4.9 C 97 % 4.46 C
400 16-10-2016 09:15:00 4.9 C 97 % 4.46 C
Sensor: Nr:Datum:Temp:Feuchte:Taupunkt:
Aussen-T/F 401 16-10-2016 09:20:00 5 C 97 % 4.56 C
402 16-10-2016 09:25:00 5.1 C 97 % 4.66 C
403 16-10-2016 09:30:00 5.1 C 97 % 4.66 C
404 16-10-2016 09:35:00 5.1 C 97 % 4.66 C
405 16-10-2016 09:40:00 5.2 C 97 % 4.76 C
406 16-10-2016 09:45:00 5.3 C 97 % 4.86 C
407 16-10-2016 09:50:00 5.4 C 97 % 4.96 C
408 16-10-2016 09:55:00 5.4 C 97 % 4.96 C
409 16-10-2016 10:00:00 5.6 C 97 % 5.16 C
410 16-10-2016 10:05:00 5.6 C 97 % 5.16 C
411 16-10-2016 10:10:00 5.7 C 97 % 5.26 C
412 16-10-2016 10:15:00 5.7 C 97 % 5.26 C
413 16-10-2016 10:20:00 5.8 C 97 % 5.36 C
414 16-10-2016 10:25:00 5.9 C 97 % 5.46 C
415 16-10-2016 10:30:00 6.1 C 97 % 5.66 C
416 16-10-2016 10:35:00 6.2 C 97 % 5.76 C
417 16-10-2016 10:40:00 6.3 C 97 % 5.86 C
418 16-10-2016 10:45:00 6.4 C 97 % 5.96 C
419 16-10-2016 10:50:00 6.6 C 97 % 6.16 C
420 16-10-2016 10:55:00 6.6 C 97 % 6.16 C
421 16-10-2016 11:00:00 6.7 C 97 % 6.26 C
422 16-10-2016 11:05:00 6.7 C 97 % 6.26 C
423 16-10-2016 11:10:00 6.8 C 97 % 6.36 C
424 16-10-2016 11:15:00 6.9 C 97 % 6.46 C
425 16-10-2016 11:20:00 7.1 C 97 % 6.66 C
Sensor: Nr:Datum:Temp:Feuchte:Taupunkt:
Aussen-T/F 426 16-10-2016 11:25:00 7.1 C 97 % 6.66 C
427 16-10-2016 11:30:00 7.2 C 97 % 6.76 C
428 16-10-2016 11:35:00 7.3 C 97 % 6.86 C
429 16-10-2016 11:40:00 7.4 C 97 % 6.96 C
430 16-10-2016 11:45:00 7.5 C 97 % 7.06 C
431 16-10-2016 11:50:00 7.7 C 97 % 7.25 C
432 16-10-2016 11:55:00 7.8 C 97 % 7.35 C
433 16-10-2016 12:00:00 7.9 C 97 % 7.45 C
434 16-10-2016 12:05:00 8 C 97 % 7.55 C
435 16-10-2016 12:10:00 8.1 C 97 % 7.65 C
436 16-10-2016 12:15:00 8.2 C 97 % 7.75 C
437 16-10-2016 12:20:00 8.3 C 97 % 7.85 C
438 16-10-2016 12:25:00 8.4 C 97 % 7.95 C
439 16-10-2016 12:30:00 8.5 C 97 % 8.05 C
440 16-10-2016 12:35:00 8.7 C 97 % 8.25 C
441 16-10-2016 12:40:00 8.7 C 97 % 8.25 C
442 16-10-2016 12:45:00 8.8 C 97 % 8.35 C
443 16-10-2016 12:50:00 9.1 C 97 % 8.65 C
444 16-10-2016 12:55:00 9.3 C 98 % 9 C
445 16-10-2016 13:00:00 9.7 C 98 % 9.4 C
446 16-10-2016 13:05:00 9.9 C 98 % 9.6 C
447 16-10-2016 13:10:00 10.2 C 97 % 9.75 C
448 16-10-2016 13:15:00 10.5 C 98 % 10.2 C
449 16-10-2016 13:20:00 10.8 C 98 % 10.5 C
450 16-10-2016 13:25:00 11.1 C 98 % 10.8 C
Sensor: Nr:Datum:Temp:Feuchte:Taupunkt:
Aussen-T/F 451 16-10-2016 13:30:00 11.3 C 98 % 11 C
452 16-10-2016 13:35:00 11.6 C 98 % 11.29 C
453 16-10-2016 13:40:00 11.8 C 98 % 11.49 C
454 16-10-2016 13:45:00 12.1 C 98 % 11.79 C
455 16-10-2016 13:50:00 12.2 C 98 % 11.89 C
456 16-10-2016 13:55:00 12.4 C 98 % 12.09 C
457 16-10-2016 14:00:00 12.6 C 98 % 12.29 C
458 16-10-2016 14:05:00 12.7 C 98 % 12.39 C
459 16-10-2016 14:10:00 12.9 C 98 % 12.59 C
460 16-10-2016 14:15:00 12.9 C 98 % 12.59 C
461 16-10-2016 14:20:00 13.1 C 98 % 12.79 C
462 16-10-2016 14:25:00 13.2 C 98 % 12.89 C
463 16-10-2016 14:30:00 13.3 C 98 % 12.99 C
464 16-10-2016 14:35:00 13.3 C 98 % 12.99 C
465 16-10-2016 14:40:00 13.3 C 98 % 12.99 C
466 16-10-2016 14:45:00 13.3 C 98 % 12.99 C
467 16-10-2016 14:50:00 13.3 C 98 % 12.99 C
468 16-10-2016 14:55:00 13.3 C 98 % 12.99 C
469 16-10-2016 15:00:00 13.3 C 98 % 12.99 C
470 16-10-2016 15:05:00 13.4 C 97 % 12.93 C
471 16-10-2016 15:10:00 13.4 C 97 % 12.93 C
472 16-10-2016 15:15:00 13.4 C 97 % 12.93 C
473 16-10-2016 15:20:00 13.5 C 97 % 13.03 C
474 16-10-2016 15:25:00 13.6 C 97 % 13.13 C
475 16-10-2016 15:30:00 13.6 C 97 % 13.13 C
Sensor: Nr:Datum:Temp:Feuchte:Taupunkt:
Aussen-T/F 476 16-10-2016 15:35:00 13.6 C 97 % 13.13 C
477 16-10-2016 15:40:00 13.7 C 97 % 13.23 C
478 16-10-2016 15:45:00 13.8 C 97 % 13.33 C
479 16-10-2016 15:50:00 13.8 C 96 % 13.17 C
480 16-10-2016 15:55:00 13.8 C 96 % 13.17 C
481 16-10-2016 16:00:00 13.9 C 95 % 13.11 C
482 16-10-2016 16:05:00 13.9 C 95 % 13.11 C
483 16-10-2016 16:10:00 14 C 95 % 13.21 C
484 16-10-2016 16:15:00 14 C 95 % 13.21 C
485 16-10-2016 16:20:00 14 C 94 % 13.05 C
486 16-10-2016 16:25:00 14.1 C 94 % 13.15 C
487 16-10-2016 16:30:00 14.1 C 94 % 13.15 C
488 16-10-2016 16:35:00 14.1 C 94 % 13.15 C
489 16-10-2016 16:40:00 14.1 C 93 % 12.99 C
490 16-10-2016 16:45:00 14.1 C 93 % 12.99 C
491 16-10-2016 16:50:00 14.1 C 93 % 12.99 C
492 16-10-2016 16:55:00 14.1 C 93 % 12.99 C
493 16-10-2016 17:00:00 14.1 C 93 % 12.99 C
494 16-10-2016 17:05:00 14 C 92 % 12.72 C
495 16-10-2016 17:10:00 14 C 92 % 12.72 C
496 16-10-2016 17:15:00 13.9 C 92 % 12.62 C
497 16-10-2016 17:20:00 13.9 C 92 % 12.62 C
498 16-10-2016 17:25:00 13.8 C 92 % 12.52 C
499 16-10-2016 17:30:00 13.8 C 92 % 12.52 C
500 16-10-2016 17:35:00 13.8 C 92 % 12.52 C
Sensor: Nr:Datum:Temp:Feuchte:Taupunkt:
Aussen-T/F 501 16-10-2016 17:40:00 13.8 C 92 % 12.52 C
502 16-10-2016 17:45:00 13.8 C 92 % 12.52 C
503 16-10-2016 17:50:00 13.8 C 92 % 12.52 C
504 16-10-2016 17:55:00 13.8 C 92 % 12.52 C
505 16-10-2016 18:00:00 13.8 C 92 % 12.52 C
506 16-10-2016 18:05:00 13.9 C 92 % 12.62 C
507 16-10-2016 18:10:00 13.9 C 91 % 12.46 C
508 16-10-2016 18:15:00 13.9 C 91 % 12.46 C
509 16-10-2016 18:20:00 13.8 C 91 % 12.36 C
510 16-10-2016 18:25:00 13.7 C 91 % 12.26 C
511 16-10-2016 18:30:00 13.5 C 90 % 11.89 C
512 16-10-2016 18:35:00 13.3 C 91 % 11.86 C
513 16-10-2016 18:40:00 13.2 C 91 % 11.76 C
514 16-10-2016 18:45:00 13 C 91 % 11.57 C
515 16-10-2016 18:50:00 12.8 C 91 % 11.37 C
516 16-10-2016 18:55:00 12.7 C 92 % 11.43 C
517 16-10-2016 19:00:00 12.6 C 92 % 11.34 C
518 16-10-2016 19:05:00 12.4 C 92 % 11.14 C
519 16-10-2016 19:10:00 12.3 C 92 % 11.04 C
520 16-10-2016 19:15:00 12.3 C 92 % 11.04 C
521 16-10-2016 19:20:00 12.2 C 92 % 10.94 C
522 16-10-2016 19:25:00 12.2 C 93 % 11.1 C
523 16-10-2016 19:30:00 12.1 C 93 % 11 C
524 16-10-2016 19:35:00 12.1 C 92 % 10.84 C
525 16-10-2016 19:40:00 11.9 C 92 % 10.64 C
Sensor: Nr:Datum:Temp:Feuchte:Taupunkt:
Aussen-T/F 526 16-10-2016 19:45:00 11.9 C 92 % 10.64 C
527 16-10-2016 19:50:00 11.8 C 93 % 10.71 C
528 16-10-2016 19:55:00 11.8 C 93 % 10.71 C
529 16-10-2016 20:00:00 11.7 C 93 % 10.61 C
530 16-10-2016 20:05:00 11.6 C 93 % 10.51 C
531 16-10-2016 20:10:00 11.6 C 93 % 10.51 C
532 16-10-2016 20:15:00 11.5 C 93 % 10.41 C
533 16-10-2016 20:20:00 11.4 C 93 % 10.31 C
534 16-10-2016 20:25:00 11.3 C 93 % 10.21 C
535 16-10-2016 20:30:00 11.2 C 93 % 10.11 C
536 16-10-2016 20:35:00 11.1 C 93 % 10.01 C
537 16-10-2016 20:40:00 11.1 C 93 % 10.01 C
538 16-10-2016 20:45:00 11.1 C 94 % 10.17 C
539 16-10-2016 20:50:00 11.1 C 94 % 10.17 C
540 16-10-2016 20:55:00 11 C 94 % 10.07 C
541 16-10-2016 21:00:00 10.9 C 94 % 9.97 C
542 16-10-2016 21:05:00 10.8 C 94 % 9.87 C
543 16-10-2016 21:10:00 10.6 C 93 % 9.52 C
544 16-10-2016 21:15:00 10.5 C 94 % 9.58 C
545 16-10-2016 21:20:00 10.4 C 94 % 9.48 C
546 16-10-2016 21:25:00 10.4 C 94 % 9.48 C
547 16-10-2016 21:30:00 10.4 C 94 % 9.48 C
548 16-10-2016 21:35:00 10.5 C 95 % 9.73 C
549 16-10-2016 21:40:00 10.5 C 95 % 9.73 C
550 16-10-2016 21:45:00 10.6 C 95 % 9.83 C
Sensor: Nr:Datum:Temp:Feuchte:Taupunkt:
Aussen-T/F 551 16-10-2016 21:50:00 10.7 C 95 % 9.93 C
552 16-10-2016 21:55:00 10.6 C 95 % 9.83 C
553 16-10-2016 22:00:00 10.6 C 95 % 9.83 C
554 16-10-2016 22:05:00 10.4 C 95 % 9.63 C
555 16-10-2016 22:10:00 10.3 C 95 % 9.54 C
556 16-10-2016 22:15:00 10.2 C 94 % 9.28 C
557 16-10-2016 22:20:00 10.1 C 95 % 9.34 C
558 16-10-2016 22:25:00 10.1 C 95 % 9.34 C
559 16-10-2016 22:30:00 10.1 C 95 % 9.34 C
560 16-10-2016 22:35:00 10 C 95 % 9.24 C
561 16-10-2016 22:40:00 9.8 C 95 % 9.04 C
562 16-10-2016 22:45:00 9.7 C 95 % 8.94 C
563 16-10-2016 22:50:00 9.7 C 95 % 8.94 C
564 16-10-2016 22:55:00 9.8 C 95 % 9.04 C
565 16-10-2016 23:00:00 9.8 C 96 % 9.19 C
566 16-10-2016 23:05:00 9.8 C 95 % 9.04 C
567 16-10-2016 23:10:00 9.6 C 95 % 8.84 C
568 16-10-2016 23:15:00 9.4 C 95 % 8.64 C
569 16-10-2016 23:20:00 9.3 C 95 % 8.54 C
570 16-10-2016 23:25:00 9.3 C 95 % 8.54 C
571 16-10-2016 23:30:00 9.3 C 95 % 8.54 C
572 16-10-2016 23:35:00 9.3 C 95 % 8.54 C
573 16-10-2016 23:40:00 9.3 C 96 % 8.7 C
574 16-10-2016 23:45:00 9.2 C 96 % 8.6 C
575 16-10-2016 23:50:00 9.2 C 96 % 8.6 C
Sensor: Nr:Datum:Temp:Feuchte:Taupunkt:
Aussen-T/F 576 16-10-2016 23:55:00 9.2 C 96 % 8.6 C
577 17-10-2016 00:00:00 9.2 C 96 % 8.6 C
578 17-10-2016 00:05:00 9.3 C 96 % 8.7 C
579 17-10-2016 00:10:00 9.2 C 96 % 8.6 C
580 17-10-2016 00:15:00 9.1 C 96 % 8.5 C
581 17-10-2016 00:20:00 9 C 96 % 8.4 C
582 17-10-2016 00:25:00 9 C 96 % 8.4 C
583 17-10-2016 00:30:00 8.9 C 96 % 8.3 C
584 17-10-2016 00:35:00 8.8 C 96 % 8.2 C
585 17-10-2016 00:40:00 8.8 C 96 % 8.2 C
586 17-10-2016 00:45:00 8.7 C 96 % 8.1 C
587 17-10-2016 00:50:00 8.5 C 96 % 7.9 C
588 17-10-2016 00:55:00 8.4 C 95 % 7.65 C
589 17-10-2016 01:00:00 8.3 C 96 % 7.7 C
590 17-10-2016 01:05:00 8.3 C 96 % 7.7 C
591 17-10-2016 01:10:00 8.2 C 96 % 7.6 C
592 17-10-2016 01:15:00 8.3 C 96 % 7.7 C
593 17-10-2016 01:20:00 8.3 C 96 % 7.7 C
594 17-10-2016 01:25:00 8.3 C 96 % 7.7 C
595 17-10-2016 01:30:00 8.3 C 96 % 7.7 C
596 17-10-2016 01:35:00 8.2 C 96 % 7.6 C
597 17-10-2016 01:40:00 8.1 C 96 % 7.5 C
598 17-10-2016 01:45:00 7.9 C 96 % 7.3 C
599 17-10-2016 01:50:00 7.9 C 96 % 7.3 C
600 17-10-2016 01:55:00 7.9 C 96 % 7.3 C
Sensor: Nr:Datum:Temp:Feuchte:Taupunkt:
Aussen-T/F 601 17-10-2016 02:00:00 8 C 96 % 7.4 C
602 17-10-2016 02:05:00 8.2 C 96 % 7.6 C
603 17-10-2016 02:10:00 8.1 C 96 % 7.5 C
604 17-10-2016 02:15:00 7.9 C 96 % 7.3 C
605 17-10-2016 02:20:00 7.9 C 96 % 7.3 C
606 17-10-2016 02:25:00 7.8 C 96 % 7.2 C
607 17-10-2016 02:30:00 7.7 C 96 % 7.1 C
608 17-10-2016 02:35:00 7.7 C 96 % 7.1 C
609 17-10-2016 02:40:00 7.7 C 96 % 7.1 C
610 17-10-2016 02:45:00 7.8 C 96 % 7.2 C
611 17-10-2016 02:50:00 7.8 C 96 % 7.2 C
612 17-10-2016 02:55:00 7.8 C 96 % 7.2 C
613 17-10-2016 03:00:00 7.8 C 96 % 7.2 C
614 17-10-2016 03:05:00 7.8 C 96 % 7.2 C
615 17-10-2016 03:10:00 7.8 C 96 % 7.2 C
616 17-10-2016 03:15:00 7.8 C 96 % 7.2 C
617 17-10-2016 03:20:00 7.8 C 96 % 7.2 C
618 17-10-2016 03:25:00 7.8 C 96 % 7.2 C
619 17-10-2016 03:30:00 7.7 C 96 % 7.1 C
620 17-10-2016 03:35:00 7.7 C 96 % 7.1 C
621 17-10-2016 03:40:00 7.7 C 96 % 7.1 C
622 17-10-2016 03:45:00 7.6 C 96 % 7 C
623 17-10-2016 03:50:00 7.6 C 96 % 7 C
624 17-10-2016 03:55:00 7.6 C 97 % 7.16 C
625 17-10-2016 04:00:00 7.6 C 96 % 7 C
Sensor: Nr:Datum:Temp:Feuchte:Taupunkt:
Aussen-T/F 626 17-10-2016 04:05:00 7.6 C 96 % 7 C
627 17-10-2016 04:10:00 7.6 C 96 % 7 C
628 17-10-2016 04:15:00 7.7 C 97 % 7.25 C
629 17-10-2016 04:20:00 7.8 C 97 % 7.35 C
630 17-10-2016 04:25:00 7.8 C 97 % 7.35 C
631 17-10-2016 04:30:00 7.9 C 97 % 7.45 C
632 17-10-2016 04:35:00 8 C 97 % 7.55 C
633 17-10-2016 04:40:00 8 C 97 % 7.55 C
634 17-10-2016 04:45:00 8 C 97 % 7.55 C
635 17-10-2016 04:50:00 8.1 C 97 % 7.65 C
636 17-10-2016 04:55:00 8.1 C 97 % 7.65 C
637 17-10-2016 05:00:00 8.1 C 97 % 7.65 C
638 17-10-2016 05:05:00 8.1 C 97 % 7.65 C
639 17-10-2016 05:10:00 8.2 C 97 % 7.75 C
640 17-10-2016 05:15:00 8.2 C 97 % 7.75 C
641 17-10-2016 05:20:00 8.1 C 97 % 7.65 C
642 17-10-2016 05:25:00 8.1 C 97 % 7.65 C
643 17-10-2016 05:30:00 8.1 C 97 % 7.65 C
644 17-10-2016 05:35:00 8.1 C 97 % 7.65 C
645 17-10-2016 05:40:00 8.1 C 97 % 7.65 C
646 17-10-2016 05:45:00 8.1 C 97 % 7.65 C
647 17-10-2016 05:50:00 8 C 97 % 7.55 C
648 17-10-2016 05:55:00 7.9 C 97 % 7.45 C
649 17-10-2016 06:00:00 7.9 C 97 % 7.45 C
650 17-10-2016 06:05:00 7.8 C 97 % 7.35 C
Sensor: Nr:Datum:Temp:Feuchte:Taupunkt:
Aussen-T/F 651 17-10-2016 06:10:00 7.8 C 97 % 7.35 C
652 17-10-2016 06:15:00 7.8 C 97 % 7.35 C
653 17-10-2016 06:20:00 7.8 C 97 % 7.35 C
654 17-10-2016 06:25:00 7.8 C 97 % 7.35 C
655 17-10-2016 06:30:00 7.8 C 97 % 7.35 C
656 17-10-2016 06:35:00 7.8 C 97 % 7.35 C
657 17-10-2016 06:40:00 7.8 C 97 % 7.35 C
658 17-10-2016 06:45:00 7.8 C 97 % 7.35 C
659 17-10-2016 06:50:00 7.7 C 97 % 7.25 C
660 17-10-2016 06:55:00 7.8 C 97 % 7.35 C
661 17-10-2016 07:00:00 7.8 C 97 % 7.35 C
662 17-10-2016 07:05:00 7.9 C 97 % 7.45 C
663 17-10-2016 07:10:00 7.9 C 97 % 7.45 C
664 17-10-2016 07:15:00 7.9 C 97 % 7.45 C
665 17-10-2016 07:20:00 7.8 C 97 % 7.35 C
666 17-10-2016 07:25:00 7.8 C 97 % 7.35 C
667 17-10-2016 07:30:00 7.7 C 97 % 7.25 C
668 17-10-2016 07:35:00 7.7 C 97 % 7.25 C
669 17-10-2016 07:40:00 7.6 C 97 % 7.16 C
670 17-10-2016 07:45:00 7.6 C 97 % 7.16 C
671 17-10-2016 07:50:00 7.6 C 97 % 7.16 C
672 17-10-2016 07:55:00 7.5 C 97 % 7.06 C
673 17-10-2016 08:00:00 7.4 C 97 % 6.96 C
674 17-10-2016 08:05:00 7.4 C 97 % 6.96 C
675 17-10-2016 08:10:00 7.4 C 97 % 6.96 C
Sensor: Nr:Datum:Temp:Feuchte:Taupunkt:
Aussen-T/F 676 17-10-2016 08:15:00 7.5 C 97 % 7.06 C
677 17-10-2016 08:20:00 7.6 C 97 % 7.16 C
678 17-10-2016 08:25:00 7.6 C 97 % 7.16 C
679 17-10-2016 08:30:00 7.7 C 97 % 7.25 C
680 17-10-2016 08:35:00 7.8 C 97 % 7.35 C
681 17-10-2016 08:40:00 7.9 C 97 % 7.45 C
682 17-10-2016 08:45:00 7.9 C 97 % 7.45 C
683 17-10-2016 08:50:00 8.1 C 97 % 7.65 C
684 17-10-2016 08:55:00 8.1 C 97 % 7.65 C
685 17-10-2016 09:00:00 8.2 C 97 % 7.75 C
686 17-10-2016 09:05:00 8.3 C 97 % 7.85 C
687 17-10-2016 09:10:00 8.4 C 97 % 7.95 C
688 17-10-2016 09:15:00 8.5 C 97 % 8.05 C
689 17-10-2016 09:20:00 8.6 C 97 % 8.15 C
690 17-10-2016 09:25:00 8.7 C 97 % 8.25 C
691 17-10-2016 09:30:00 8.8 C 97 % 8.35 C
692 17-10-2016 09:35:00 8.8 C 97 % 8.35 C
693 17-10-2016 09:40:00 8.9 C 97 % 8.45 C
694 17-10-2016 09:45:00 9 C 97 % 8.55 C
695 17-10-2016 09:50:00 9.2 C 97 % 8.75 C
696 17-10-2016 09:55:00 9.3 C 97 % 8.85 C
697 17-10-2016 10:00:00 9.4 C 97 % 8.95 C
698 17-10-2016 10:05:00 9.5 C 98 % 9.2 C
699 17-10-2016 10:10:00 9.7 C 97 % 9.25 C
700 17-10-2016 10:15:00 9.8 C 97 % 9.35 C
Sensor: Nr:Datum:Temp:Feuchte:Taupunkt:
Aussen-T/F 701 17-10-2016 10:20:00 9.9 C 98 % 9.6 C
702 17-10-2016 10:25:00 10.1 C 97 % 9.65 C
703 17-10-2016 10:30:00 10.2 C 98 % 9.9 C
704 17-10-2016 10:35:00 10.4 C 97 % 9.94 C
705 17-10-2016 10:40:00 10.6 C 98 % 10.3 C
706 17-10-2016 10:45:00 10.7 C 98 % 10.4 C
707 17-10-2016 10:50:00 10.8 C 98 % 10.5 C
708 17-10-2016 10:55:00 10.9 C 98 % 10.6 C
709 17-10-2016 11:00:00 11.1 C 98 % 10.8 C
710 17-10-2016 11:05:00 11.3 C 98 % 11 C
711 17-10-2016 11:10:00 11.4 C 98 % 11.1 C
712 17-10-2016 11:15:00 11.7 C 98 % 11.39 C
713 17-10-2016 11:20:00 11.8 C 98 % 11.49 C
714 17-10-2016 11:25:00 11.9 C 98 % 11.59 C
715 17-10-2016 11:30:00 12.1 C 98 % 11.79 C
716 17-10-2016 11:35:00 12.1 C 98 % 11.79 C
717 17-10-2016 11:40:00 12 C 98 % 11.69 C
718 17-10-2016 11:45:00 12.1 C 97 % 11.64 C
719 17-10-2016 11:50:00 12.1 C 97 % 11.64 C
720 17-10-2016 11:55:00 12.1 C 97 % 11.64 C
721 17-10-2016 12:00:00 12.2 C 97 % 11.74 C
722 17-10-2016 12:05:00 12.3 C 97 % 11.84 C
723 17-10-2016 12:10:00 12.4 C 97 % 11.94 C
724 17-10-2016 12:15:00 12.6 C 98 % 12.29 C
725 17-10-2016 12:20:00 12.7 C 97 % 12.24 C
Sensor: Nr:Datum:Temp:Feuchte:Taupunkt:
Aussen-T/F 726 17-10-2016 12:25:00 12.7 C 97 % 12.24 C
727 17-10-2016 12:30:00 12.7 C 97 % 12.24 C
728 17-10-2016 12:35:00 12.8 C 97 % 12.34 C
729 17-10-2016 12:40:00 12.9 C 97 % 12.44 C
730 17-10-2016 12:45:00 13 C 97 % 12.54 C
731 17-10-2016 12:50:00 13.1 C 97 % 12.63 C
732 17-10-2016 12:55:00 13.3 C 97 % 12.83 C
733 17-10-2016 13:00:00 13.5 C 97 % 13.03 C
734 17-10-2016 13:05:00 13.6 C 98 % 13.29 C
735 17-10-2016 13:10:00 13.6 C 97 % 13.13 C
736 17-10-2016 13:15:00 13.6 C 97 % 13.13 C
737 17-10-2016 13:20:00 13.7 C 97 % 13.23 C
738 17-10-2016 13:25:00 13.6 C 97 % 13.13 C
739 17-10-2016 13:30:00 13.6 C 97 % 13.13 C
740 17-10-2016 13:35:00 13.6 C 97 % 13.13 C
741 17-10-2016 13:40:00 13.5 C 97 % 13.03 C
742 17-10-2016 13:45:00 13.5 C 97 % 13.03 C
743 17-10-2016 13:50:00 13.6 C 97 % 13.13 C
744 17-10-2016 13:55:00 13.5 C 97 % 13.03 C
745 17-10-2016 14:00:00 13.5 C 97 % 13.03 C
746 17-10-2016 14:05:00 13.5 C 97 % 13.03 C
747 17-10-2016 14:10:00 13.4 C 97 % 12.93 C
748 17-10-2016 14:15:00 13.4 C 96 % 12.78 C
749 17-10-2016 14:20:00 13.3 C 96 % 12.68 C
750 17-10-2016 14:25:00 13.3 C 96 % 12.68 C
Sensor: Nr:Datum:Temp:Feuchte:Taupunkt:
Aussen-T/F 751 17-10-2016 14:30:00 13.3 C 96 % 12.68 C
752 17-10-2016 14:35:00 13.3 C 96 % 12.68 C
753 17-10-2016 14:40:00 13.2 C 96 % 12.58 C
754 17-10-2016 14:45:00 13.2 C 96 % 12.58 C
755 17-10-2016 14:50:00 13.2 C 96 % 12.58 C
756 17-10-2016 14:55:00 13.2 C 96 % 12.58 C
757 17-10-2016 15:00:00 13.3 C 96 % 12.68 C
758 17-10-2016 15:05:00 13.3 C 96 % 12.68 C
759 17-10-2016 15:10:00 13.3 C 96 % 12.68 C
760 17-10-2016 15:15:00 13.3 C 96 % 12.68 C
761 17-10-2016 15:20:00 13.3 C 96 % 12.68 C
762 17-10-2016 15:25:00 13.4 C 97 % 12.93 C
763 17-10-2016 15:30:00 13.4 C 97 % 12.93 C
764 17-10-2016 15:35:00 13.4 C 97 % 12.93 C
765 17-10-2016 15:40:00 13.5 C 97 % 13.03 C
766 17-10-2016 15:45:00 13.7 C 97 % 13.23 C
767 17-10-2016 15:50:00 13.7 C 97 % 13.23 C
768 17-10-2016 15:55:00 13.7 C 97 % 13.23 C
769 17-10-2016 16:00:00 13.7 C 96 % 13.07 C
770 17-10-2016 16:05:00 13.7 C 96 % 13.07 C
771 17-10-2016 16:10:00 13.8 C 97 % 13.33 C
772 17-10-2016 16:15:00 13.9 C 97 % 13.43 C
773 17-10-2016 16:20:00 14 C 97 % 13.53 C
774 17-10-2016 16:25:00 14 C 97 % 13.53 C
775 17-10-2016 16:30:00 14 C 96 % 13.37 C
Sensor: Nr:Datum:Temp:Feuchte:Taupunkt:
Aussen-T/F 776 17-10-2016 16:35:00 13.9 C 96 % 13.27 C
777 17-10-2016 16:40:00 13.9 C 96 % 13.27 C
778 17-10-2016 16:45:00 13.9 C 96 % 13.27 C
779 17-10-2016 16:50:00 13.8 C 96 % 13.17 C
780 17-10-2016 16:55:00 13.8 C 96 % 13.17 C
781 17-10-2016 17:00:00 13.8 C 96 % 13.17 C
782 17-10-2016 17:05:00 13.8 C 96 % 13.17 C
783 17-10-2016 17:10:00 13.8 C 96 % 13.17 C
784 17-10-2016 17:15:00 13.8 C 96 % 13.17 C
785 17-10-2016 17:20:00 13.8 C 96 % 13.17 C
786 17-10-2016 17:25:00 13.8 C 96 % 13.17 C
787 17-10-2016 17:30:00 13.8 C 96 % 13.17 C
788 17-10-2016 17:35:00 13.8 C 96 % 13.17 C
789 17-10-2016 17:40:00 13.7 C 96 % 13.07 C
790 17-10-2016 17:45:00 13.7 C 96 % 13.07 C
791 17-10-2016 17:50:00 13.7 C 96 % 13.07 C
792 17-10-2016 17:55:00 13.6 C 96 % 12.97 C
793 17-10-2016 18:00:00 13.6 C 96 % 12.97 C
794 17-10-2016 18:05:00 13.4 C 96 % 12.78 C
795 17-10-2016 18:10:00 13.4 C 96 % 12.78 C
796 17-10-2016 18:15:00 13.3 C 96 % 12.68 C
797 17-10-2016 18:20:00 13.2 C 96 % 12.58 C
798 17-10-2016 18:25:00 13.2 C 96 % 12.58 C
799 17-10-2016 18:30:00 13.1 C 96 % 12.48 C
800 17-10-2016 18:35:00 12.9 C 96 % 12.28 C
Sensor: Nr:Datum:Temp:Feuchte:Taupunkt:
Aussen-T/F 801 17-10-2016 18:40:00 12.9 C 96 % 12.28 C
802 17-10-2016 18:45:00 12.8 C 96 % 12.18 C
803 17-10-2016 18:50:00 12.7 C 96 % 12.08 C
804 17-10-2016 18:55:00 12.7 C 96 % 12.08 C
805 17-10-2016 19:00:00 12.6 C 96 % 11.98 C
806 17-10-2016 19:05:00 12.6 C 96 % 11.98 C
807 17-10-2016 19:10:00 12.6 C 96 % 11.98 C
808 17-10-2016 19:15:00 12.5 C 96 % 11.88 C
809 17-10-2016 19:20:00 12.6 C 96 % 11.98 C
810 17-10-2016 19:25:00 12.5 C 96 % 11.88 C
811 17-10-2016 19:30:00 12.5 C 96 % 11.88 C
812 17-10-2016 19:35:00 12.5 C 96 % 11.88 C
813 17-10-2016 19:40:00 12.4 C 96 % 11.78 C
814 17-10-2016 19:45:00 12.4 C 96 % 11.78 C
815 17-10-2016 19:50:00 12.4 C 96 % 11.78 C
816 17-10-2016 19:55:00 12.3 C 96 % 11.68 C
817 17-10-2016 20:00:00 12.3 C 96 % 11.68 C
818 17-10-2016 20:05:00 12.3 C 96 % 11.68 C
819 17-10-2016 20:10:00 12.3 C 96 % 11.68 C
820 17-10-2016 20:15:00 12.3 C 96 % 11.68 C
821 17-10-2016 20:20:00 12.3 C 96 % 11.68 C
822 17-10-2016 20:25:00 12.3 C 96 % 11.68 C
823 17-10-2016 20:30:00 12.2 C 96 % 11.58 C
824 17-10-2016 20:35:00 12.2 C 96 % 11.58 C
825 17-10-2016 20:40:00 12.2 C 96 % 11.58 C
Sensor: Nr:Datum:Temp:Feuchte:Taupunkt:
Aussen-T/F 826 17-10-2016 20:45:00 12.2 C 96 % 11.58 C
827 17-10-2016 20:50:00 12.2 C 96 % 11.58 C
828 17-10-2016 20:55:00 12.1 C 96 % 11.48 C
829 17-10-2016 21:00:00 12.1 C 96 % 11.48 C
830 17-10-2016 21:05:00 12 C 96 % 11.38 C
831 17-10-2016 21:10:00 12 C 96 % 11.38 C
832 17-10-2016 21:15:00 11.9 C 96 % 11.28 C
833 17-10-2016 21:20:00 11.9 C 96 % 11.28 C
834 17-10-2016 21:25:00 11.9 C 96 % 11.28 C
835 17-10-2016 21:30:00 11.9 C 96 % 11.28 C
836 17-10-2016 21:35:00 11.9 C 97 % 11.44 C
837 17-10-2016 21:40:00 11.9 C 97 % 11.44 C
838 17-10-2016 21:45:00 11.9 C 97 % 11.44 C
839 17-10-2016 21:50:00 11.9 C 97 % 11.44 C
840 17-10-2016 21:55:00 11.9 C 97 % 11.44 C
841 17-10-2016 22:00:00 11.9 C 97 % 11.44 C
842 17-10-2016 22:05:00 11.9 C 97 % 11.44 C
843 17-10-2016 22:10:00 11.9 C 97 % 11.44 C
844 17-10-2016 22:15:00 11.9 C 97 % 11.44 C
845 17-10-2016 22:20:00 11.9 C 97 % 11.44 C
846 17-10-2016 22:25:00 11.9 C 97 % 11.44 C
847 17-10-2016 22:30:00 11.9 C 97 % 11.44 C
848 17-10-2016 22:35:00 11.8 C 97 % 11.34 C
849 17-10-2016 22:40:00 11.7 C 97 % 11.24 C
850 17-10-2016 22:45:00 11.6 C 96 % 10.98 C
Sensor: Nr:Datum:Temp:Feuchte:Taupunkt:
Aussen-T/F 851 17-10-2016 22:50:00 11.5 C 96 % 10.88 C
852 17-10-2016 22:55:00 11.3 C 96 % 10.69 C
853 17-10-2016 23:00:00 11.2 C 96 % 10.59 C
854 17-10-2016 23:05:00 11.1 C 96 % 10.49 C
855 17-10-2016 23:10:00 10.9 C 96 % 10.29 C
856 17-10-2016 23:15:00 10.8 C 96 % 10.19 C
857 17-10-2016 23:20:00 10.7 C 96 % 10.09 C
858 17-10-2016 23:25:00 10.5 C 96 % 9.89 C
859 17-10-2016 23:30:00 10.4 C 96 % 9.79 C
860 17-10-2016 23:35:00 10.4 C 97 % 9.94 C
861 17-10-2016 23:40:00 10.4 C 97 % 9.94 C
862 17-10-2016 23:45:00 10.4 C 97 % 9.94 C
863 17-10-2016 23:50:00 10.4 C 97 % 9.94 C
864 17-10-2016 23:55:00 10.4 C 97 % 9.94 C
865 18-10-2016 00:00:00 10.6 C 97 % 10.14 C
866 18-10-2016 00:05:00 10.7 C 97 % 10.24 C
867 18-10-2016 00:10:00 10.8 C 97 % 10.34 C
868 18-10-2016 00:15:00 10.9 C 97 % 10.44 C
869 18-10-2016 00:20:00 10.9 C 97 % 10.44 C
870 18-10-2016 00:25:00 10.8 C 97 % 10.34 C
871 18-10-2016 00:30:00 10.7 C 97 % 10.24 C
872 18-10-2016 00:35:00 10.6 C 97 % 10.14 C
873 18-10-2016 00:40:00 10.6 C 97 % 10.14 C
874 18-10-2016 00:45:00 10.6 C 97 % 10.14 C
875 18-10-2016 00:50:00 10.6 C 97 % 10.14 C
Sensor: Nr:Datum:Temp:Feuchte:Taupunkt:
Aussen-T/F 876 18-10-2016 00:55:00 10.6 C 97 % 10.14 C
877 18-10-2016 01:00:00 10.7 C 97 % 10.24 C
878 18-10-2016 01:05:00 10.6 C 97 % 10.14 C
879 18-10-2016 01:10:00 10.6 C 97 % 10.14 C
880 18-10-2016 01:15:00 10.6 C 97 % 10.14 C
881 18-10-2016 01:20:00 10.6 C 97 % 10.14 C
882 18-10-2016 01:25:00 10.6 C 97 % 10.14 C
883 18-10-2016 01:30:00 10.6 C 97 % 10.14 C
884 18-10-2016 01:35:00 10.4 C 97 % 9.94 C
885 18-10-2016 01:40:00 10.3 C 97 % 9.85 C
886 18-10-2016 01:45:00 10.3 C 97 % 9.85 C
887 18-10-2016 01:50:00 10.3 C 97 % 9.85 C
888 18-10-2016 01:55:00 10.2 C 97 % 9.75 C
889 18-10-2016 02:00:00 10.2 C 97 % 9.75 C
890 18-10-2016 02:05:00 10.2 C 97 % 9.75 C
891 18-10-2016 02:10:00 10.2 C 97 % 9.75 C
892 18-10-2016 02:15:00 10.3 C 97 % 9.85 C
893 18-10-2016 02:20:00 10.3 C 97 % 9.85 C
894 18-10-2016 02:25:00 10.3 C 97 % 9.85 C
895 18-10-2016 02:30:00 10.3 C 97 % 9.85 C
896 18-10-2016 02:35:00 10.4 C 97 % 9.94 C
897 18-10-2016 02:40:00 10.5 C 97 % 10.04 C
898 18-10-2016 02:45:00 10.5 C 97 % 10.04 C
899 18-10-2016 02:50:00 10.5 C 97 % 10.04 C
900 18-10-2016 02:55:00 10.5 C 97 % 10.04 C
Sensor: Nr:Datum:Temp:Feuchte:Taupunkt:
Aussen-T/F 901 18-10-2016 03:00:00 10.5 C 97 % 10.04 C
902 18-10-2016 03:05:00 10.5 C 97 % 10.04 C
903 18-10-2016 03:10:00 10.5 C 97 % 10.04 C
904 18-10-2016 03:15:00 10.5 C 97 % 10.04 C
905 18-10-2016 03:20:00 10.6 C 97 % 10.14 C
906 18-10-2016 03:25:00 10.6 C 97 % 10.14 C
907 18-10-2016 03:30:00 10.7 C 97 % 10.24 C
908 18-10-2016 03:35:00 10.7 C 97 % 10.24 C
909 18-10-2016 03:40:00 10.8 C 97 % 10.34 C
910 18-10-2016 03:45:00 10.8 C 97 % 10.34 C
911 18-10-2016 03:50:00 10.8 C 97 % 10.34 C
912 18-10-2016 03:55:00 10.8 C 97 % 10.34 C
913 18-10-2016 04:00:00 10.9 C 97 % 10.44 C
914 18-10-2016 04:05:00 10.9 C 97 % 10.44 C
915 18-10-2016 04:10:00 10.9 C 97 % 10.44 C
916 18-10-2016 04:15:00 10.9 C 97 % 10.44 C
917 18-10-2016 04:20:00 10.9 C 97 % 10.44 C
918 18-10-2016 04:25:00 10.8 C 97 % 10.34 C
919 18-10-2016 04:30:00 10.8 C 97 % 10.34 C
920 18-10-2016 04:35:00 10.7 C 97 % 10.24 C
921 18-10-2016 04:40:00 10.6 C 97 % 10.14 C
922 18-10-2016 04:45:00 10.5 C 97 % 10.04 C
923 18-10-2016 04:50:00 10.5 C 97 % 10.04 C
924 18-10-2016 04:55:00 10.4 C 97 % 9.94 C
925 18-10-2016 05:00:00 10.3 C 97 % 9.85 C
Sensor: Nr:Datum:Temp:Feuchte:Taupunkt:
Aussen-T/F 926 18-10-2016 05:05:00 10.3 C 97 % 9.85 C
927 18-10-2016 05:10:00 10.2 C 97 % 9.75 C
928 18-10-2016 05:15:00 10.2 C 97 % 9.75 C
929 18-10-2016 05:20:00 10.2 C 97 % 9.75 C
930 18-10-2016 05:25:00 10.2 C 97 % 9.75 C
931 18-10-2016 05:30:00 10.2 C 97 % 9.75 C
932 18-10-2016 05:35:00 10.1 C 97 % 9.65 C
933 18-10-2016 05:40:00 9.9 C 97 % 9.45 C
934 18-10-2016 05:45:00 9.8 C 97 % 9.35 C
935 18-10-2016 05:50:00 9.8 C 97 % 9.35 C
936 18-10-2016 05:55:00 9.7 C 97 % 9.25 C
937 18-10-2016 06:00:00 9.7 C 97 % 9.25 C
938 18-10-2016 06:05:00 9.7 C 97 % 9.25 C
939 18-10-2016 06:10:00 9.7 C 97 % 9.25 C
940 18-10-2016 06:15:00 9.7 C 97 % 9.25 C
941 18-10-2016 06:20:00 9.6 C 97 % 9.15 C
942 18-10-2016 06:25:00 9.6 C 97 % 9.15 C
943 18-10-2016 06:30:00 9.7 C 97 % 9.25 C
944 18-10-2016 06:35:00 9.7 C 97 % 9.25 C
945 18-10-2016 06:40:00 9.7 C 97 % 9.25 C
946 18-10-2016 06:45:00 9.6 C 97 % 9.15 C
947 18-10-2016 06:50:00 9.6 C 97 % 9.15 C
948 18-10-2016 06:55:00 9.6 C 97 % 9.15 C
949 18-10-2016 07:00:00 9.7 C 97 % 9.25 C
950 18-10-2016 07:05:00 9.7 C 97 % 9.25 C
Sensor: Nr:Datum:Temp:Feuchte:Taupunkt:
Aussen-T/F 951 18-10-2016 07:10:00 9.8 C 97 % 9.35 C
952 18-10-2016 07:15:00 9.8 C 97 % 9.35 C
953 18-10-2016 07:20:00 9.8 C 97 % 9.35 C
954 18-10-2016 07:25:00 9.9 C 97 % 9.45 C
955 18-10-2016 07:30:00 9.9 C 97 % 9.45 C
956 18-10-2016 07:35:00 10 C 97 % 9.55 C
957 18-10-2016 07:40:00 10.1 C 97 % 9.65 C
958 18-10-2016 07:45:00 10.1 C 97 % 9.65 C
959 18-10-2016 07:50:00 10.2 C 98 % 9.9 C
960 18-10-2016 07:55:00 10.2 C 98 % 9.9 C
961 18-10-2016 08:00:00 10.2 C 98 % 9.9 C
962 18-10-2016 08:05:00 10.2 C 98 % 9.9 C
963 18-10-2016 08:10:00 10.3 C 98 % 10 C
964 18-10-2016 08:15:00 10.3 C 98 % 10 C
965 18-10-2016 08:20:00 10.3 C 98 % 10 C
966 18-10-2016 08:25:00 10.3 C 97 % 9.85 C
967 18-10-2016 08:30:00 10.4 C 97 % 9.94 C
968 18-10-2016 08:35:00 10.4 C 97 % 9.94 C
969 18-10-2016 08:40:00 10.6 C 98 % 10.3 C
970 18-10-2016 08:45:00 10.6 C 98 % 10.3 C
971 18-10-2016 08:50:00 10.6 C 98 % 10.3 C
972 18-10-2016 08:55:00 10.6 C 98 % 10.3 C
973 18-10-2016 09:00:00 10.5 C 98 % 10.2 C
974 18-10-2016 09:05:00 10.4 C 97 % 9.94 C
975 18-10-2016 09:10:00 10.4 C 97 % 9.94 C
Sensor: Nr:Datum:Temp:Feuchte:Taupunkt:
Aussen-T/F 976 18-10-2016 09:15:00 10.3 C 97 % 9.85 C
977 18-10-2016 09:20:00 10.4 C 97 % 9.94 C
978 18-10-2016 09:25:00 10.4 C 97 % 9.94 C
979 18-10-2016 09:30:00 10.5 C 98 % 10.2 C
980 18-10-2016 09:35:00 10.6 C 98 % 10.3 C
981 18-10-2016 09:40:00 10.6 C 98 % 10.3 C
982 18-10-2016 09:45:00 10.5 C 98 % 10.2 C
983 18-10-2016 09:50:00 10.4 C 97 % 9.94 C
984 18-10-2016 09:55:00 10.4 C 97 % 9.94 C
985 18-10-2016 10:00:00 10.3 C 97 % 9.85 C
986 18-10-2016 10:05:00 10.3 C 97 % 9.85 C
987 18-10-2016 10:10:00 10.3 C 97 % 9.85 C
988 18-10-2016 10:15:00 10.2 C 97 % 9.75 C
989 18-10-2016 10:20:00 10.2 C 97 % 9.75 C
990 18-10-2016 10:25:00 10.2 C 97 % 9.75 C
991 18-10-2016 10:30:00 10.1 C 97 % 9.65 C
992 18-10-2016 10:35:00 10.1 C 97 % 9.65 C
993 18-10-2016 10:40:00 10.1 C 97 % 9.65 C
994 18-10-2016 10:45:00 10.1 C 97 % 9.65 C
995 18-10-2016 10:50:00 10.2 C 97 % 9.75 C
996 18-10-2016 10:55:00 10.3 C 97 % 9.85 C
997 18-10-2016 11:00:00 10.4 C 97 % 9.94 C
998 18-10-2016 11:05:00 10.5 C 98 % 10.2 C
999 18-10-2016 11:10:00 10.6 C 98 % 10.3 C
1000 18-10-2016 11:15:00 10.6 C 98 % 10.3 C
Sensor: Nr:Datum:Temp:Feuchte:Taupunkt:
Aussen-T/F 1001 18-10-2016 11:20:00 10.7 C 97 % 10.24 C
1002 18-10-2016 11:25:00 10.8 C 97 % 10.34 C
1003 18-10-2016 11:30:00 10.8 C 98 % 10.5 C
1004 18-10-2016 11:35:00 10.9 C 98 % 10.6 C
1005 18-10-2016 11:40:00 10.9 C 98 % 10.6 C
1006 18-10-2016 11:45:00 11 C 97 % 10.54 C
1007 18-10-2016 11:50:00 11.1 C 97 % 10.64 C
1008 18-10-2016 11:55:00 11.2 C 97 % 10.74 C
1009 18-10-2016 12:00:00 11.2 C 98 % 10.9 C
1010 18-10-2016 12:05:00 11.2 C 98 % 10.9 C
1011 18-10-2016 12:10:00 11.3 C 97 % 10.84 C
1012 18-10-2016 12:15:00 11.4 C 97 % 10.94 C
1013 18-10-2016 12:20:00 11.4 C 97 % 10.94 C
1014 18-10-2016 12:25:00 11.4 C 97 % 10.94 C
1015 18-10-2016 12:30:00 11.6 C 97 % 11.14 C
1016 18-10-2016 12:35:00 11.7 C 97 % 11.24 C
1017 18-10-2016 12:40:00 11.7 C 97 % 11.24 C
1018 18-10-2016 12:45:00 11.7 C 97 % 11.24 C
1019 18-10-2016 12:50:00 11.7 C 97 % 11.24 C
1020 18-10-2016 12:55:00 11.7 C 97 % 11.24 C
1021 18-10-2016 13:00:00 11.7 C 96 % 11.08 C
1022 18-10-2016 13:05:00 11.9 C 96 % 11.28 C
1023 18-10-2016 13:10:00 11.9 C 96 % 11.28 C
1024 18-10-2016 13:15:00 12 C 95 % 11.22 C
1025 18-10-2016 13:20:00 12.1 C 95 % 11.32 C
Sensor: Nr:Datum:Temp:Feuchte:Taupunkt:
Aussen-T/F 1026 18-10-2016 13:25:00 12.2 C 93 % 11.1 C
1027 18-10-2016 13:30:00 12.3 C 93 % 11.2 C
1028 18-10-2016 13:35:00 12.5 C 92 % 11.24 C
1029 18-10-2016 13:40:00 12.7 C 91 % 11.27 C
1030 18-10-2016 13:45:00 12.8 C 89 % 11.03 C
1031 18-10-2016 13:50:00 13 C 87 % 10.89 C
1032 18-10-2016 13:55:00 13.2 C 87 % 11.09 C
1033 18-10-2016 14:00:00 13.4 C 87 % 11.28 C
1034 18-10-2016 14:05:00 13.4 C 86 % 11.11 C
1035 18-10-2016 14:10:00 13.4 C 85 % 10.93 C
1036 18-10-2016 14:15:00 13.5 C 85 % 11.03 C
1037 18-10-2016 14:20:00 13.4 C 83 % 10.57 C
1038 18-10-2016 14:25:00 13.4 C 83 % 10.57 C
1039 18-10-2016 14:30:00 13.4 C 85 % 10.93 C
1040 18-10-2016 14:35:00 13.5 C 84 % 10.85 C
1041 18-10-2016 14:40:00 13.6 C 84 % 10.95 C
1042 18-10-2016 14:45:00 13.7 C 83 % 10.87 C
1043 18-10-2016 14:50:00 13.7 C 81 % 10.5 C
1044 18-10-2016 14:55:00 13.8 C 81 % 10.6 C
1045 18-10-2016 15:00:00 13.9 C 83 % 11.06 C
1046 18-10-2016 15:05:00 13.9 C 83 % 11.06 C
1047 18-10-2016 15:10:00 13.9 C 83 % 11.06 C
1048 18-10-2016 15:15:00 14.1 C 84 % 11.44 C
1049 18-10-2016 15:20:00 14.1 C 83 % 11.26 C
1050 18-10-2016 15:25:00 14 C 82 % 10.98 C
Sensor: Nr:Datum:Temp:Feuchte:Taupunkt:
Aussen-T/F 1051 18-10-2016 15:30:00 14 C 84 % 11.34 C
1052 18-10-2016 15:35:00 14 C 85 % 11.52 C
1053 18-10-2016 15:40:00 13.9 C 84 % 11.24 C
1054 18-10-2016 15:45:00 13.8 C 85 % 11.32 C
1055 18-10-2016 15:50:00 13.8 C 86 % 11.5 C
1056 18-10-2016 15:55:00 13.7 C 86 % 11.4 C
1057 18-10-2016 16:00:00 13.7 C 87 % 11.58 C
1058 18-10-2016 16:05:00 13.6 C 87 % 11.48 C
1059 18-10-2016 16:10:00 13.4 C 87 % 11.28 C
1060 18-10-2016 16:15:00 13.4 C 88 % 11.45 C
1061 18-10-2016 16:20:00 13.3 C 88 % 11.36 C
1062 18-10-2016 16:25:00 13.2 C 88 % 11.26 C
1063 18-10-2016 16:30:00 13.1 C 88 % 11.16 C
1064 18-10-2016 16:35:00 13.1 C 88 % 11.16 C
1065 18-10-2016 16:40:00 13.1 C 88 % 11.16 C
1066 18-10-2016 16:45:00 13 C 87 % 10.89 C
1067 18-10-2016 16:50:00 13.1 C 88 % 11.16 C
1068 18-10-2016 16:55:00 13.1 C 88 % 11.16 C
1069 18-10-2016 17:00:00 13.2 C 87 % 11.09 C
1070 18-10-2016 17:05:00 13.2 C 87 % 11.09 C
1071 18-10-2016 17:10:00 13.3 C 87 % 11.18 C
1072 18-10-2016 17:15:00 13.2 C 87 % 11.09 C
1073 18-10-2016 17:20:00 13.2 C 88 % 11.26 C
1074 18-10-2016 17:25:00 13.2 C 88 % 11.26 C
1075 18-10-2016 17:30:00 13.1 C 88 % 11.16 C
Sensor: Nr:Datum:Temp:Feuchte:Taupunkt:
Aussen-T/F 1076 18-10-2016 17:35:00 13.1 C 89 % 11.33 C
1077 18-10-2016 17:40:00 12.9 C 89 % 11.13 C
1078 18-10-2016 17:45:00 12.9 C 89 % 11.13 C
1079 18-10-2016 17:50:00 12.8 C 89 % 11.03 C
1080 18-10-2016 17:55:00 12.7 C 90 % 11.1 C
1081 18-10-2016 18:00:00 12.6 C 90 % 11 C
1082 18-10-2016 18:05:00 12.5 C 89 % 10.74 C
1083 18-10-2016 18:10:00 12.3 C 88 % 10.37 C
1084 18-10-2016 18:15:00 12.2 C 87 % 10.1 C
1085 18-10-2016 18:20:00 12.2 C 86 % 9.93 C
1086 18-10-2016 18:25:00 12.2 C 86 % 9.93 C
1087 18-10-2016 18:30:00 12.2 C 86 % 9.93 C
1088 18-10-2016 18:35:00 12.2 C 85 % 9.76 C
1089 18-10-2016 18:40:00 12.2 C 86 % 9.93 C
1090 18-10-2016 18:45:00 12.1 C 86 % 9.83 C
1091 18-10-2016 18:50:00 12.1 C 87 % 10 C
1092 18-10-2016 18:55:00 12 C 87 % 9.91 C
1093 18-10-2016 19:00:00 11.9 C 87 % 9.81 C
1094 18-10-2016 19:05:00 11.9 C 87 % 9.81 C
1095 18-10-2016 19:10:00 11.9 C 87 % 9.81 C
1096 18-10-2016 19:15:00 11.8 C 85 % 9.36 C
1097 18-10-2016 19:20:00 11.9 C 84 % 9.29 C
1098 18-10-2016 19:25:00 12 C 84 % 9.38 C
1099 18-10-2016 19:30:00 12 C 84 % 9.38 C
1100 18-10-2016 19:35:00 12 C 84 % 9.38 C
Sensor: Nr:Datum:Temp:Feuchte:Taupunkt:
Aussen-T/F 1101 18-10-2016 19:40:00 11.9 C 84 % 9.29 C
1102 18-10-2016 19:45:00 12 C 83 % 9.21 C
1103 18-10-2016 19:50:00 12 C 84 % 9.38 C
1104 18-10-2016 19:55:00 11.9 C 84 % 9.29 C
1105 18-10-2016 20:00:00 11.9 C 85 % 9.46 C
1106 18-10-2016 20:05:00 11.8 C 85 % 9.36 C
1107 18-10-2016 20:10:00 11.8 C 86 % 9.54 C
1108 18-10-2016 20:15:00 11.8 C 86 % 9.54 C
1109 18-10-2016 20:20:00 11.7 C 87 % 9.61 C
1110 18-10-2016 20:25:00 11.6 C 87 % 9.51 C
1111 18-10-2016 20:30:00 11.5 C 87 % 9.41 C
1112 18-10-2016 20:35:00 11.4 C 88 % 9.49 C
1113 18-10-2016 20:40:00 11.4 C 88 % 9.49 C
1114 18-10-2016 20:45:00 11.4 C 87 % 9.32 C
1115 18-10-2016 20:50:00 11.4 C 87 % 9.32 C
1116 18-10-2016 20:55:00 11.5 C 87 % 9.41 C
1117 18-10-2016 21:00:00 11.6 C 87 % 9.51 C
1118 18-10-2016 21:05:00 11.6 C 87 % 9.51 C
1119 18-10-2016 21:10:00 11.7 C 87 % 9.61 C
1120 18-10-2016 21:15:00 11.8 C 87 % 9.71 C
1121 18-10-2016 21:20:00 11.8 C 87 % 9.71 C
1122 18-10-2016 21:25:00 11.9 C 87 % 9.81 C
1123 18-10-2016 21:30:00 11.9 C 86 % 9.64 C
1124 18-10-2016 21:35:00 12.1 C 86 % 9.83 C
1125 18-10-2016 21:40:00 12.1 C 86 % 9.83 C
Sensor: Nr:Datum:Temp:Feuchte:Taupunkt:
Aussen-T/F 1126 18-10-2016 21:45:00 12.1 C 87 % 10 C
1127 18-10-2016 21:50:00 12.2 C 87 % 10.1 C
1128 18-10-2016 21:55:00 12.1 C 89 % 10.34 C
1129 18-10-2016 22:00:00 12 C 88 % 10.08 C
1130 18-10-2016 22:05:00 11.9 C 88 % 9.98 C
1131 18-10-2016 22:10:00 11.7 C 88 % 9.78 C
1132 18-10-2016 22:15:00 11.7 C 88 % 9.78 C
1133 18-10-2016 22:20:00 11.6 C 88 % 9.68 C
1134 18-10-2016 22:25:00 11.5 C 88 % 9.58 C
1135 18-10-2016 22:30:00 11.4 C 87 % 9.32 C
1136 18-10-2016 22:35:00 11.4 C 88 % 9.49 C
1137 18-10-2016 22:40:00 11.4 C 88 % 9.49 C
1138 18-10-2016 22:45:00 11.3 C 88 % 9.39 C
1139 18-10-2016 22:50:00 11.3 C 88 % 9.39 C
1140 18-10-2016 22:55:00 11.3 C 88 % 9.39 C
1141 18-10-2016 23:00:00 11.2 C 88 % 9.29 C
1142 18-10-2016 23:05:00 11.1 C 88 % 9.19 C
1143 18-10-2016 23:10:00 11 C 88 % 9.09 C
1144 18-10-2016 23:15:00 10.9 C 88 % 8.99 C
1145 18-10-2016 23:20:00 10.9 C 88 % 8.99 C
1146 18-10-2016 23:25:00 10.9 C 88 % 8.99 C
1147 18-10-2016 23:30:00 10.8 C 83 % 8.03 C
1148 18-10-2016 23:35:00 10.8 C 82 % 7.85 C
1149 18-10-2016 23:40:00 10.7 C 82 % 7.76 C
1150 18-10-2016 23:45:00 10.7 C 83 % 7.93 C
Sensor: Nr:Datum:Temp:Feuchte:Taupunkt:
Aussen-T/F 1151 18-10-2016 23:50:00 10.8 C 85 % 8.38 C
1152 18-10-2016 23:55:00 10.7 C 86 % 8.46 C
1153 19-10-2016 00:00:00 10.7 C 87 % 8.63 C
1154 19-10-2016 00:05:00 10.6 C 86 % 8.36 C
1155 19-10-2016 00:10:00 10.4 C 86 % 8.16 C
1156 19-10-2016 00:15:00 10.3 C 86 % 8.06 C
1157 19-10-2016 00:20:00 10.3 C 87 % 8.23 C
1158 19-10-2016 00:25:00 10.3 C 87 % 8.23 C
1159 19-10-2016 00:30:00 10.2 C 87 % 8.14 C
1160 19-10-2016 00:35:00 10.2 C 87 % 8.14 C
1161 19-10-2016 00:40:00 10.1 C 86 % 7.87 C
1162 19-10-2016 00:45:00 10 C 85 % 7.6 C
1163 19-10-2016 00:50:00 9.9 C 85 % 7.5 C
1164 19-10-2016 00:55:00 9.9 C 86 % 7.67 C
1165 19-10-2016 01:00:00 9.8 C 86 % 7.57 C
1166 19-10-2016 01:05:00 9.8 C 86 % 7.57 C
1167 19-10-2016 01:10:00 9.7 C 86 % 7.47 C
1168 19-10-2016 01:15:00 9.7 C 86 % 7.47 C
1169 19-10-2016 01:20:00 9.6 C 87 % 7.55 C
1170 19-10-2016 01:25:00 9.6 C 87 % 7.55 C
1171 19-10-2016 01:30:00 9.4 C 86 % 7.18 C
1172 19-10-2016 01:35:00 9.4 C 86 % 7.18 C
1173 19-10-2016 01:40:00 9.3 C 87 % 7.25 C
1174 19-10-2016 01:45:00 9.3 C 87 % 7.25 C
1175 19-10-2016 01:50:00 9.2 C 87 % 7.15 C
Sensor: Nr:Datum:Temp:Feuchte:Taupunkt:
Aussen-T/F 1176 19-10-2016 01:55:00 9.2 C 88 % 7.32 C
1177 19-10-2016 02:00:00 9.2 C 88 % 7.32 C
1178 19-10-2016 02:05:00 9.1 C 88 % 7.22 C
1179 19-10-2016 02:10:00 9.1 C 88 % 7.22 C
1180 19-10-2016 02:15:00 8.9 C 88 % 7.02 C
1181 19-10-2016 02:20:00 8.8 C 89 % 7.09 C
1182 19-10-2016 02:25:00 8.7 C 89 % 6.99 C
1183 19-10-2016 02:30:00 8.6 C 88 % 6.73 C
1184 19-10-2016 02:35:00 8.4 C 89 % 6.7 C
1185 19-10-2016 02:40:00 8.3 C 89 % 6.6 C
1186 19-10-2016 02:45:00 8.2 C 89 % 6.5 C
1187 19-10-2016 02:50:00 8.1 C 89 % 6.4 C
1188 19-10-2016 02:55:00 7.9 C 90 % 6.36 C
1189 19-10-2016 03:00:00 7.8 C 90 % 6.27 C
1190 19-10-2016 03:05:00 7.8 C 91 % 6.43 C
1191 19-10-2016 03:10:00 7.7 C 91 % 6.33 C
1192 19-10-2016 03:15:00 7.7 C 92 % 6.48 C
1193 19-10-2016 03:20:00 7.6 C 92 % 6.39 C
1194 19-10-2016 03:25:00 7.6 C 92 % 6.39 C
1195 19-10-2016 03:30:00 7.6 C 92 % 6.39 C
1196 19-10-2016 03:35:00 7.5 C 92 % 6.29 C
1197 19-10-2016 03:40:00 7.4 C 93 % 6.34 C
1198 19-10-2016 03:45:00 7.4 C 93 % 6.34 C
1199 19-10-2016 03:50:00 7.4 C 93 % 6.34 C
1200 19-10-2016 03:55:00 7.5 C 93 % 6.44 C
Sensor: Nr:Datum:Temp:Feuchte:Taupunkt:
Aussen-T/F 1201 19-10-2016 04:00:00 7.6 C 93 % 6.54 C
1202 19-10-2016 04:05:00 7.6 C 94 % 6.7 C
1203 19-10-2016 04:10:00 7.6 C 94 % 6.7 C
1204 19-10-2016 04:15:00 7.7 C 94 % 6.8 C
1205 19-10-2016 04:20:00 7.7 C 94 % 6.8 C
1206 19-10-2016 04:25:00 7.7 C 94 % 6.8 C
1207 19-10-2016 04:30:00 7.8 C 94 % 6.9 C
1208 19-10-2016 04:35:00 7.8 C 94 % 6.9 C
1209 19-10-2016 04:40:00 8 C 94 % 7.09 C
1210 19-10-2016 04:45:00 8.2 C 94 % 7.29 C
1211 19-10-2016 04:50:00 8.3 C 94 % 7.39 C
1212 19-10-2016 04:55:00 8.4 C 93 % 7.34 C
1213 19-10-2016 05:00:00 8.4 C 93 % 7.34 C
1214 19-10-2016 05:05:00 8.6 C 92 % 7.38 C
1215 19-10-2016 05:10:00 8.6 C 92 % 7.38 C
1216 19-10-2016 05:15:00 8.7 C 91 % 7.32 C
1217 19-10-2016 05:20:00 8.7 C 90 % 7.15 C
1218 19-10-2016 05:25:00 8.8 C 90 % 7.25 C
1219 19-10-2016 05:30:00 8.9 C 90 % 7.35 C
1220 19-10-2016 05:35:00 8.9 C 90 % 7.35 C
1221 19-10-2016 05:40:00 9 C 90 % 7.45 C
1222 19-10-2016 05:45:00 9 C 91 % 7.61 C
1223 19-10-2016 05:50:00 8.9 C 91 % 7.51 C
1224 19-10-2016 05:55:00 8.9 C 91 % 7.51 C
1225 19-10-2016 06:00:00 8.8 C 92 % 7.57 C
Sensor: Nr:Datum:Temp:Feuchte:Taupunkt:
Aussen-T/F 1226 19-10-2016 06:05:00 8.8 C 92 % 7.57 C
1227 19-10-2016 06:10:00 8.7 C 92 % 7.47 C
1228 19-10-2016 06:15:00 8.7 C 92 % 7.47 C
1229 19-10-2016 06:20:00 8.7 C 92 % 7.47 C
1230 19-10-2016 06:25:00 8.7 C 93 % 7.63 C
1231 19-10-2016 06:30:00 8.6 C 93 % 7.53 C
1232 19-10-2016 06:35:00 8.6 C 93 % 7.53 C
1233 19-10-2016 06:40:00 8.6 C 93 % 7.53 C
1234 19-10-2016 06:45:00 8.6 C 93 % 7.53 C
1235 19-10-2016 06:50:00 8.6 C 93 % 7.53 C
1236 19-10-2016 06:55:00 8.6 C 93 % 7.53 C
1237 19-10-2016 07:00:00 8.6 C 93 % 7.53 C
1238 19-10-2016 07:05:00 8.6 C 93 % 7.53 C
1239 19-10-2016 07:10:00 8.6 C 93 % 7.53 C
1240 19-10-2016 07:15:00 8.5 C 93 % 7.43 C
1241 19-10-2016 07:20:00 8.6 C 93 % 7.53 C
1242 19-10-2016 07:25:00 8.6 C 93 % 7.53 C
1243 19-10-2016 07:30:00 8.6 C 92 % 7.38 C
1244 19-10-2016 07:35:00 8.7 C 92 % 7.47 C
1245 19-10-2016 07:40:00 8.7 C 92 % 7.47 C
1246 19-10-2016 07:45:00 8.6 C 92 % 7.38 C
1247 19-10-2016 07:50:00 8.5 C 92 % 7.28 C
1248 19-10-2016 07:55:00 8.4 C 92 % 7.18 C
1249 19-10-2016 08:00:00 8.3 C 92 % 7.08 C
1250 19-10-2016 08:05:00 8.2 C 92 % 6.98 C
Sensor: Nr:Datum:Temp:Feuchte:Taupunkt:
Aussen-T/F 1251 19-10-2016 08:10:00 8.2 C 93 % 7.14 C
1252 19-10-2016 08:15:00 8.2 C 93 % 7.14 C
1253 19-10-2016 08:20:00 8.3 C 93 % 7.24 C
1254 19-10-2016 08:25:00 8.3 C 93 % 7.24 C
1255 19-10-2016 08:30:00 8.3 C 93 % 7.24 C
1256 19-10-2016 08:35:00 8.3 C 93 % 7.24 C
1257 19-10-2016 08:40:00 8.4 C 93 % 7.34 C
1258 19-10-2016 08:45:00 8.4 C 93 % 7.34 C
1259 19-10-2016 08:50:00 8.5 C 93 % 7.43 C
1260 19-10-2016 08:55:00 8.5 C 92 % 7.28 C
1261 19-10-2016 09:00:00 8.6 C 92 % 7.38 C
1262 19-10-2016 09:05:00 8.7 C 92 % 7.47 C
1263 19-10-2016 09:10:00 8.7 C 92 % 7.47 C
1264 19-10-2016 09:15:00 8.8 C 91 % 7.41 C
1265 19-10-2016 09:20:00 9 C 91 % 7.61 C
1266 19-10-2016 09:25:00 9.1 C 91 % 7.71 C
1267 19-10-2016 09:30:00 9.2 C 90 % 7.65 C
1268 19-10-2016 09:35:00 9.2 C 90 % 7.65 C
1269 19-10-2016 09:40:00 9.2 C 90 % 7.65 C
1270 19-10-2016 09:45:00 9.3 C 90 % 7.75 C
1271 19-10-2016 09:50:00 9.2 C 90 % 7.65 C
1272 19-10-2016 09:55:00 9.3 C 89 % 7.58 C
1273 19-10-2016 10:00:00 9.3 C 89 % 7.58 C
1274 19-10-2016 10:05:00 9.4 C 90 % 7.85 C
1275 19-10-2016 10:10:00 9.4 C 89 % 7.68 C
Sensor: Nr:Datum:Temp:Feuchte:Taupunkt:
Aussen-T/F 1276 19-10-2016 10:15:00 9.5 C 89 % 7.78 C
1277 19-10-2016 10:20:00 9.6 C 89 % 7.88 C
1278 19-10-2016 10:25:00 9.7 C 89 % 7.98 C
1279 19-10-2016 10:30:00 9.8 C 88 % 7.91 C
1280 19-10-2016 10:35:00 9.8 C 88 % 7.91 C
1281 19-10-2016 10:40:00 9.9 C 87 % 7.84 C
1282 19-10-2016 10:45:00 9.9 C 89 % 8.17 C
1283 19-10-2016 10:50:00 9.9 C 89 % 8.17 C
1284 19-10-2016 10:55:00 9.9 C 89 % 8.17 C
1285 19-10-2016 11:00:00 9.9 C 90 % 8.34 C
1286 19-10-2016 11:05:00 9.9 C 89 % 8.17 C
1287 19-10-2016 11:10:00 10 C 89 % 8.27 C
1288 19-10-2016 11:15:00 10.1 C 88 % 8.21 C
1289 19-10-2016 11:20:00 10.2 C 87 % 8.14 C
1290 19-10-2016 11:25:00 10.3 C 86 % 8.06 C
1291 19-10-2016 11:30:00 10.4 C 85 % 7.99 C
1292 19-10-2016 11:35:00 10.5 C 85 % 8.09 C
1293 19-10-2016 11:40:00 10.6 C 85 % 8.19 C
1294 19-10-2016 11:45:00 10.6 C 84 % 8.01 C
1295 19-10-2016 11:50:00 10.6 C 84 % 8.01 C
1296 19-10-2016 11:55:00 10.7 C 83 % 7.93 C
1297 19-10-2016 12:00:00 10.7 C 84 % 8.11 C
1298 19-10-2016 12:05:00 10.7 C 83 % 7.93 C
1299 19-10-2016 12:10:00 10.8 C 84 % 8.21 C
1300 19-10-2016 12:15:00 10.9 C 82 % 7.95 C
Sensor: Nr:Datum:Temp:Feuchte:Taupunkt:
Aussen-T/F 1301 19-10-2016 12:20:00 11.1 C 82 % 8.15 C
1302 19-10-2016 12:25:00 11.2 C 82 % 8.25 C
1303 19-10-2016 12:30:00 11.3 C 81 % 8.16 C
1304 19-10-2016 12:35:00 11.4 C 80 % 8.08 C
1305 19-10-2016 12:40:00 11.4 C 79 % 7.89 C
1306 19-10-2016 12:45:00 11.5 C 79 % 7.99 C
1307 19-10-2016 12:50:00 11.4 C 80 % 8.08 C
1308 19-10-2016 12:55:00 11.5 C 79 % 7.99 C
1309 19-10-2016 13:00:00 11.6 C 79 % 8.09 C
1310 19-10-2016 13:05:00 11.6 C 78 % 7.9 C
1311 19-10-2016 13:10:00 11.6 C 78 % 7.9 C
1312 19-10-2016 13:15:00 11.6 C 78 % 7.9 C
1313 19-10-2016 13:20:00 11.6 C 78 % 7.9 C
1314 19-10-2016 13:25:00 11.7 C 78 % 8 C
1315 19-10-2016 13:30:00 11.8 C 78 % 8.09 C
1316 19-10-2016 13:35:00 11.9 C 79 % 8.38 C
1317 19-10-2016 13:40:00 11.9 C 77 % 8 C
1318 19-10-2016 13:45:00 12 C 77 % 8.1 C
1319 19-10-2016 13:50:00 12 C 77 % 8.1 C
1320 19-10-2016 13:55:00 12.1 C 78 % 8.38 C
1321 19-10-2016 14:00:00 12.2 C 78 % 8.48 C
1322 19-10-2016 14:05:00 12.2 C 77 % 8.29 C
1323 19-10-2016 14:10:00 12.1 C 76 % 8 C
1324 19-10-2016 14:15:00 11.9 C 77 % 8 C
1325 19-10-2016 14:20:00 12 C 78 % 8.29 C
Sensor: Nr:Datum:Temp:Feuchte:Taupunkt:
Aussen-T/F 1326 19-10-2016 14:25:00 12 C 77 % 8.1 C
1327 19-10-2016 14:30:00 12.1 C 77 % 8.2 C
1328 19-10-2016 14:35:00 12.1 C 77 % 8.2 C
1329 19-10-2016 14:40:00 12 C 76 % 7.91 C
1330 19-10-2016 14:45:00 12 C 76 % 7.91 C
1331 19-10-2016 14:50:00 12 C 77 % 8.1 C
1332 19-10-2016 14:55:00 11.9 C 78 % 8.19 C
1333 19-10-2016 15:00:00 11.9 C 77 % 8 C
1334 19-10-2016 15:05:00 11.8 C 77 % 7.9 C
1335 19-10-2016 15:10:00 11.8 C 78 % 8.09 C
1336 19-10-2016 15:15:00 11.8 C 78 % 8.09 C
1337 19-10-2016 15:20:00 11.7 C 79 % 8.18 C
1338 19-10-2016 15:25:00 11.7 C 79 % 8.18 C
1339 19-10-2016 15:30:00 11.7 C 79 % 8.18 C
1340 19-10-2016 15:35:00 11.7 C 79 % 8.18 C
1341 19-10-2016 15:40:00 11.7 C 79 % 8.18 C
1342 19-10-2016 15:45:00 11.6 C 80 % 8.27 C
1343 19-10-2016 15:50:00 11.5 C 80 % 8.17 C
1344 19-10-2016 15:55:00 11.6 C 80 % 8.27 C
1345 19-10-2016 16:00:00 11.6 C 80 % 8.27 C
1346 19-10-2016 16:05:00 11.7 C 80 % 8.37 C
1347 19-10-2016 16:10:00 11.6 C 82 % 8.64 C
1348 19-10-2016 16:15:00 11.5 C 81 % 8.36 C
1349 19-10-2016 16:20:00 11.3 C 83 % 8.52 C
1350 19-10-2016 16:25:00 11.2 C 84 % 8.6 C
Sensor: Nr:Datum:Temp:Feuchte:Taupunkt:
Aussen-T/F 1351 19-10-2016 16:30:00 11.1 C 84 % 8.5 C
1352 19-10-2016 16:35:00 11 C 85 % 8.58 C
1353 19-10-2016 16:40:00 10.8 C 86 % 8.56 C
1354 19-10-2016 16:45:00 10.7 C 88 % 8.8 C
1355 19-10-2016 16:50:00 10.4 C 89 % 8.67 C
1356 19-10-2016 16:55:00 10.3 C 90 % 8.73 C
1357 19-10-2016 17:00:00 10.2 C 91 % 8.8 C
1358 19-10-2016 17:05:00 10.1 C 91 % 8.7 C
1359 19-10-2016 17:10:00 9.9 C 91 % 8.5 C
1360 19-10-2016 17:15:00 9.8 C 91 % 8.4 C
1361 19-10-2016 17:20:00 9.6 C 91 % 8.21 C
1362 19-10-2016 17:25:00 9.6 C 91 % 8.21 C
1363 19-10-2016 17:30:00 9.4 C 92 % 8.17 C
1364 19-10-2016 17:35:00 9.4 C 93 % 8.33 C
1365 19-10-2016 17:40:00 9.3 C 93 % 8.23 C
1366 19-10-2016 17:45:00 9.2 C 93 % 8.13 C
1367 19-10-2016 17:50:00 9.2 C 93 % 8.13 C
1368 19-10-2016 17:55:00 9.2 C 94 % 8.29 C
1369 19-10-2016 18:00:00 9.1 C 94 % 8.19 C
1370 19-10-2016 18:05:00 9.1 C 94 % 8.19 C
1371 19-10-2016 18:10:00 9.1 C 94 % 8.19 C
1372 19-10-2016 18:15:00 9 C 94 % 8.09 C
1373 19-10-2016 18:20:00 8.9 C 94 % 7.99 C
1374 19-10-2016 18:25:00 8.9 C 93 % 7.83 C
1375 19-10-2016 18:30:00 8.8 C 93 % 7.73 C
Sensor: Nr:Datum:Temp:Feuchte:Taupunkt:
Aussen-T/F 1376 19-10-2016 18:35:00 8.8 C 93 % 7.73 C
1377 19-10-2016 18:40:00 8.7 C 93 % 7.63 C
1378 19-10-2016 18:45:00 8.7 C 92 % 7.47 C
1379 19-10-2016 18:50:00 8.7 C 92 % 7.47 C
1380 19-10-2016 18:55:00 8.7 C 93 % 7.63 C
1381 19-10-2016 19:00:00 8.6 C 92 % 7.38 C
1382 19-10-2016 19:05:00 8.6 C 92 % 7.38 C
1383 19-10-2016 19:10:00 8.5 C 93 % 7.43 C
1384 19-10-2016 19:15:00 8.4 C 93 % 7.34 C
1385 19-10-2016 19:20:00 8.4 C 93 % 7.34 C
1386 19-10-2016 19:25:00 8.3 C 92 % 7.08 C
1387 19-10-2016 19:30:00 8.4 C 93 % 7.34 C
1388 19-10-2016 19:35:00 8.3 C 93 % 7.24 C
1389 19-10-2016 19:40:00 8.3 C 93 % 7.24 C
1390 19-10-2016 19:45:00 8.3 C 94 % 7.39 C
1391 19-10-2016 19:50:00 8.2 C 94 % 7.29 C
1392 19-10-2016 19:55:00 8.2 C 94 % 7.29 C
1393 19-10-2016 20:00:00 8.1 C 94 % 7.19 C
1394 19-10-2016 20:05:00 8.1 C 94 % 7.19 C
1395 19-10-2016 20:10:00 8.1 C 94 % 7.19 C
1396 19-10-2016 20:15:00 8 C 94 % 7.09 C
1397 19-10-2016 20:20:00 7.9 C 94 % 7 C
1398 19-10-2016 20:25:00 7.9 C 94 % 7 C
1399 19-10-2016 20:30:00 7.8 C 94 % 6.9 C
1400 19-10-2016 20:35:00 7.7 C 94 % 6.8 C
Sensor: Nr:Datum:Temp:Feuchte:Taupunkt:
Aussen-T/F 1401 19-10-2016 20:40:00 7.6 C 94 % 6.7 C
1402 19-10-2016 20:45:00 7.4 C 94 % 6.5 C
1403 19-10-2016 20:50:00 7.4 C 94 % 6.5 C
1404 19-10-2016 20:55:00 7.3 C 95 % 6.55 C
1405 19-10-2016 21:00:00 7.3 C 95 % 6.55 C
1406 19-10-2016 21:05:00 7.3 C 95 % 6.55 C
1407 19-10-2016 21:10:00 7.4 C 95 % 6.65 C
1408 19-10-2016 21:15:00 7.4 C 95 % 6.65 C
1409 19-10-2016 21:20:00 7.5 C 95 % 6.75 C
1410 19-10-2016 21:25:00 7.5 C 95 % 6.75 C
1411 19-10-2016 21:30:00 7.6 C 95 % 6.85 C
1412 19-10-2016 21:35:00 7.6 C 95 % 6.85 C
1413 19-10-2016 21:40:00 7.6 C 95 % 6.85 C
1414 19-10-2016 21:45:00 7.6 C 95 % 6.85 C
1415 19-10-2016 21:50:00 7.6 C 95 % 6.85 C
1416 19-10-2016 21:55:00 7.6 C 95 % 6.85 C
1417 19-10-2016 22:00:00 7.6 C 95 % 6.85 C
1418 19-10-2016 22:05:00 7.6 C 95 % 6.85 C
1419 19-10-2016 22:10:00 7.6 C 95 % 6.85 C
1420 19-10-2016 22:15:00 7.6 C 95 % 6.85 C
1421 19-10-2016 22:20:00 7.6 C 95 % 6.85 C
1422 19-10-2016 22:25:00 7.6 C 95 % 6.85 C
1423 19-10-2016 22:30:00 7.7 C 96 % 7.1 C
1424 19-10-2016 22:35:00 7.7 C 96 % 7.1 C
1425 19-10-2016 22:40:00 7.7 C 96 % 7.1 C
Sensor: Nr:Datum:Temp:Feuchte:Taupunkt:
Aussen-T/F 1426 19-10-2016 22:45:00 7.7 C 96 % 7.1 C
1427 19-10-2016 22:50:00 7.7 C 96 % 7.1 C
1428 19-10-2016 22:55:00 7.7 C 96 % 7.1 C
1429 19-10-2016 23:00:00 7.7 C 96 % 7.1 C
1430 19-10-2016 23:05:00 7.6 C 96 % 7 C
1431 19-10-2016 23:10:00 7.6 C 96 % 7 C
1432 19-10-2016 23:15:00 7.6 C 96 % 7 C
1433 19-10-2016 23:20:00 7.6 C 96 % 7 C
1434 19-10-2016 23:25:00 7.6 C 96 % 7 C
1435 19-10-2016 23:30:00 7.6 C 96 % 7 C
1436 19-10-2016 23:35:00 7.6 C 96 % 7 C
1437 19-10-2016 23:40:00 7.6 C 96 % 7 C
1438 19-10-2016 23:45:00 7.6 C 96 % 7 C
1439 19-10-2016 23:50:00 7.7 C 96 % 7.1 C
1440 19-10-2016 23:55:00 7.6 C 96 % 7 C
1441 20-10-2016 00:00:00 7.7 C 96 % 7.1 C
1442 20-10-2016 00:05:00 7.7 C 96 % 7.1 C
1443 20-10-2016 00:10:00 7.6 C 96 % 7 C
1444 20-10-2016 00:15:00 7.6 C 96 % 7 C
1445 20-10-2016 00:20:00 7.6 C 96 % 7 C
1446 20-10-2016 00:25:00 7.6 C 96 % 7 C
1447 20-10-2016 00:30:00 7.6 C 96 % 7 C
1448 20-10-2016 00:35:00 7.6 C 96 % 7 C
1449 20-10-2016 00:40:00 7.6 C 96 % 7 C
1450 20-10-2016 00:45:00 7.6 C 96 % 7 C
Sensor: Nr:Datum:Temp:Feuchte:Taupunkt:
Aussen-T/F 1451 20-10-2016 00:50:00 7.6 C 96 % 7 C
1452 20-10-2016 00:55:00 7.6 C 96 % 7 C
1453 20-10-2016 01:00:00 7.6 C 96 % 7 C
1454 20-10-2016 01:05:00 7.6 C 96 % 7 C
1455 20-10-2016 01:10:00 7.6 C 96 % 7 C
1456 20-10-2016 01:15:00 7.6 C 96 % 7 C
1457 20-10-2016 01:20:00 7.5 C 96 % 6.9 C
1458 20-10-2016 01:25:00 7.5 C 96 % 6.9 C
1459 20-10-2016 01:30:00 7.6 C 96 % 7 C
1460 20-10-2016 01:35:00 7.6 C 96 % 7 C
1461 20-10-2016 01:40:00 7.6 C 96 % 7 C
1462 20-10-2016 01:45:00 7.6 C 96 % 7 C
1463 20-10-2016 01:50:00 7.6 C 96 % 7 C
1464 20-10-2016 01:55:00 7.6 C 96 % 7 C
1465 20-10-2016 02:00:00 7.6 C 96 % 7 C
1466 20-10-2016 02:05:00 7.6 C 96 % 7 C
1467 20-10-2016 02:10:00 7.6 C 96 % 7 C
1468 20-10-2016 02:15:00 7.6 C 96 % 7 C
1469 20-10-2016 02:20:00 7.6 C 96 % 7 C
1470 20-10-2016 02:25:00 7.6 C 96 % 7 C
1471 20-10-2016 02:30:00 7.6 C 96 % 7 C
1472 20-10-2016 02:35:00 7.6 C 96 % 7 C
1473 20-10-2016 02:40:00 7.7 C 96 % 7.1 C
1474 20-10-2016 02:45:00 7.7 C 96 % 7.1 C
1475 20-10-2016 02:50:00 7.7 C 96 % 7.1 C
Sensor: Nr:Datum:Temp:Feuchte:Taupunkt:
Aussen-T/F 1476 20-10-2016 02:55:00 7.7 C 96 % 7.1 C
1477 20-10-2016 03:00:00 7.7 C 96 % 7.1 C
1478 20-10-2016 03:05:00 7.6 C 96 % 7 C
1479 20-10-2016 03:10:00 7.6 C 96 % 7 C
1480 20-10-2016 03:15:00 7.6 C 96 % 7 C
1481 20-10-2016 03:20:00 7.6 C 96 % 7 C
1482 20-10-2016 03:25:00 7.6 C 96 % 7 C
1483 20-10-2016 03:30:00 7.6 C 96 % 7 C
1484 20-10-2016 03:35:00 7.6 C 96 % 7 C
1485 20-10-2016 03:40:00 7.6 C 96 % 7 C
1486 20-10-2016 03:45:00 7.6 C 96 % 7 C
1487 20-10-2016 03:50:00 7.6 C 96 % 7 C
1488 20-10-2016 03:55:00 7.6 C 97 % 7.16 C
1489 20-10-2016 04:00:00 7.6 C 96 % 7 C
1490 20-10-2016 04:05:00 7.6 C 96 % 7 C
1491 20-10-2016 04:10:00 7.6 C 96 % 7 C
1492 20-10-2016 04:15:00 7.6 C 96 % 7 C
1493 20-10-2016 04:20:00 7.6 C 96 % 7 C
1494 20-10-2016 04:25:00 7.6 C 96 % 7 C
1495 20-10-2016 04:30:00 7.6 C 96 % 7 C
1496 20-10-2016 04:35:00 7.6 C 96 % 7 C
1497 20-10-2016 04:40:00 7.6 C 96 % 7 C
1498 20-10-2016 04:45:00 7.6 C 96 % 7 C
1499 20-10-2016 04:50:00 7.6 C 96 % 7 C
1500 20-10-2016 04:55:00 7.6 C 96 % 7 C
Sensor: Nr:Datum:Temp:Feuchte:Taupunkt:
Aussen-T/F 1501 20-10-2016 05:00:00 7.6 C 96 % 7 C
1502 20-10-2016 05:05:00 7.6 C 96 % 7 C
1503 20-10-2016 05:10:00 7.6 C 96 % 7 C
1504 20-10-2016 05:15:00 7.6 C 96 % 7 C
1505 20-10-2016 05:20:00 7.6 C 96 % 7 C
1506 20-10-2016 05:25:00 7.6 C 96 % 7 C
1507 20-10-2016 05:30:00 7.6 C 96 % 7 C
1508 20-10-2016 05:35:00 7.6 C 96 % 7 C
1509 20-10-2016 05:40:00 7.6 C 96 % 7 C
1510 20-10-2016 05:45:00 7.6 C 96 % 7 C
1511 20-10-2016 05:50:00 7.5 C 96 % 6.9 C
1512 20-10-2016 05:55:00 7.6 C 96 % 7 C
1513 20-10-2016 06:00:00 7.5 C 97 % 7.06 C
1514 20-10-2016 06:05:00 7.5 C 97 % 7.06 C
1515 20-10-2016 06:10:00 7.5 C 97 % 7.06 C
1516 20-10-2016 06:15:00 7.5 C 97 % 7.06 C
1517 20-10-2016 06:20:00 7.5 C 96 % 6.9 C
1518 20-10-2016 06:25:00 7.4 C 97 % 6.96 C
1519 20-10-2016 06:30:00 7.4 C 97 % 6.96 C
1520 20-10-2016 06:35:00 7.4 C 97 % 6.96 C
1521 20-10-2016 06:40:00 7.4 C 97 % 6.96 C
1522 20-10-2016 06:45:00 7.4 C 97 % 6.96 C
1523 20-10-2016 06:50:00 7.4 C 97 % 6.96 C
1524 20-10-2016 06:55:00 7.4 C 97 % 6.96 C
1525 20-10-2016 07:00:00 7.4 C 97 % 6.96 C
Sensor: Nr:Datum:Temp:Feuchte:Taupunkt:
Aussen-T/F 1526 20-10-2016 07:05:00 7.4 C 97 % 6.96 C
1527 20-10-2016 07:10:00 7.4 C 97 % 6.96 C
1528 20-10-2016 07:15:00 7.4 C 97 % 6.96 C
1529 20-10-2016 07:20:00 7.4 C 97 % 6.96 C
1530 20-10-2016 07:25:00 7.5 C 97 % 7.06 C
1531 20-10-2016 07:30:00 7.5 C 97 % 7.06 C
1532 20-10-2016 07:35:00 7.5 C 97 % 7.06 C
1533 20-10-2016 07:40:00 7.5 C 97 % 7.06 C
1534 20-10-2016 07:45:00 7.5 C 97 % 7.06 C
1535 20-10-2016 07:50:00 7.5 C 97 % 7.06 C
1536 20-10-2016 07:55:00 7.5 C 97 % 7.06 C
1537 20-10-2016 08:00:00 7.5 C 97 % 7.06 C
1538 20-10-2016 08:05:00 7.5 C 97 % 7.06 C
1539 20-10-2016 08:10:00 7.5 C 97 % 7.06 C
1540 20-10-2016 08:15:00 7.6 C 97 % 7.16 C
1541 20-10-2016 08:20:00 7.6 C 97 % 7.16 C
1542 20-10-2016 08:25:00 7.6 C 97 % 7.16 C
1543 20-10-2016 08:30:00 7.6 C 97 % 7.16 C
1544 20-10-2016 08:35:00 7.6 C 97 % 7.16 C
1545 20-10-2016 08:40:00 7.6 C 97 % 7.16 C
1546 20-10-2016 08:45:00 7.7 C 97 % 7.25 C
1547 20-10-2016 08:50:00 7.7 C 97 % 7.25 C
1548 20-10-2016 08:55:00 7.7 C 97 % 7.25 C
1549 20-10-2016 09:00:00 7.7 C 97 % 7.25 C
1550 20-10-2016 09:05:00 7.7 C 97 % 7.25 C
Sensor: Nr:Datum:Temp:Feuchte:Taupunkt:
Aussen-T/F 1551 20-10-2016 09:10:00 7.7 C 97 % 7.25 C
1552 20-10-2016 09:15:00 7.8 C 97 % 7.35 C
1553 20-10-2016 09:20:00 7.8 C 97 % 7.35 C
1554 20-10-2016 09:25:00 7.8 C 97 % 7.35 C
1555 20-10-2016 09:30:00 7.8 C 97 % 7.35 C
1556 20-10-2016 09:35:00 7.9 C 97 % 7.45 C
1557 20-10-2016 09:40:00 7.9 C 97 % 7.45 C
1558 20-10-2016 09:45:00 7.9 C 97 % 7.45 C
1559 20-10-2016 09:50:00 8 C 97 % 7.55 C
1560 20-10-2016 09:55:00 8.1 C 97 % 7.65 C
1561 20-10-2016 10:00:00 8.1 C 97 % 7.65 C
1562 20-10-2016 10:05:00 8.2 C 97 % 7.75 C
1563 20-10-2016 10:10:00 8.2 C 97 % 7.75 C
1564 20-10-2016 10:15:00 8.3 C 97 % 7.85 C
1565 20-10-2016 10:20:00 8.3 C 97 % 7.85 C
1566 20-10-2016 10:25:00 8.3 C 97 % 7.85 C
1567 20-10-2016 10:30:00 8.4 C 97 % 7.95 C
1568 20-10-2016 10:35:00 8.5 C 97 % 8.05 C
1569 20-10-2016 10:40:00 8.6 C 97 % 8.15 C
1570 20-10-2016 10:45:00 8.7 C 97 % 8.25 C
1571 20-10-2016 10:50:00 8.7 C 97 % 8.25 C
1572 20-10-2016 10:55:00 8.7 C 97 % 8.25 C
1573 20-10-2016 11:00:00 8.8 C 97 % 8.35 C
1574 20-10-2016 11:05:00 8.7 C 97 % 8.25 C
1575 20-10-2016 11:10:00 8.7 C 97 % 8.25 C
Sensor: Nr:Datum:Temp:Feuchte:Taupunkt:
Aussen-T/F 1576 20-10-2016 11:15:00 8.6 C 97 % 8.15 C
1577 20-10-2016 11:20:00 8.6 C 97 % 8.15 C
1578 20-10-2016 11:25:00 8.7 C 97 % 8.25 C
1579 20-10-2016 11:30:00 8.7 C 97 % 8.25 C
1580 20-10-2016 11:35:00 8.8 C 97 % 8.35 C
1581 20-10-2016 11:40:00 8.7 C 97 % 8.25 C
1582 20-10-2016 11:45:00 8.6 C 97 % 8.15 C
1583 20-10-2016 11:50:00 8.6 C 97 % 8.15 C
1584 20-10-2016 11:55:00 8.7 C 97 % 8.25 C
1585 20-10-2016 12:00:00 8.8 C 97 % 8.35 C
1586 20-10-2016 12:05:00 8.8 C 97 % 8.35 C
1587 20-10-2016 12:10:00 8.9 C 97 % 8.45 C
1588 20-10-2016 12:15:00 9.1 C 97 % 8.65 C
1589 20-10-2016 12:20:00 9.1 C 97 % 8.65 C
1590 20-10-2016 12:25:00 9 C 96 % 8.4 C
1591 20-10-2016 12:30:00 9.1 C 96 % 8.5 C
1592 20-10-2016 12:35:00 9 C 96 % 8.4 C
1593 20-10-2016 12:40:00 8.9 C 95 % 8.14 C
1594 20-10-2016 12:45:00 8.8 C 95 % 8.04 C
1595 20-10-2016 12:50:00 8.9 C 95 % 8.14 C
1596 20-10-2016 12:55:00 9 C 95 % 8.24 C
1597 20-10-2016 13:00:00 8.9 C 94 % 7.99 C
1598 20-10-2016 13:05:00 8.9 C 93 % 7.83 C
1599 20-10-2016 13:10:00 9 C 94 % 8.09 C
1600 20-10-2016 13:15:00 9 C 93 % 7.93 C
Sensor: Nr:Datum:Temp:Feuchte:Taupunkt:
Aussen-T/F 1601 20-10-2016 13:20:00 9.1 C 94 % 8.19 C
1602 20-10-2016 13:25:00 9.1 C 94 % 8.19 C
1603 20-10-2016 13:30:00 9 C 93 % 7.93 C
1604 20-10-2016 13:35:00 9 C 94 % 8.09 C
1605 20-10-2016 13:40:00 9.1 C 94 % 8.19 C
1606 20-10-2016 13:45:00 9.2 C 94 % 8.29 C
1607 20-10-2016 13:50:00 9.2 C 95 % 8.44 C
1608 20-10-2016 13:55:00 9.3 C 95 % 8.54 C
1609 20-10-2016 14:00:00 9.3 C 95 % 8.54 C
1610 20-10-2016 14:05:00 9.2 C 94 % 8.29 C
1611 20-10-2016 14:10:00 9.1 C 94 % 8.19 C
1612 20-10-2016 14:15:00 9 C 93 % 7.93 C
1613 20-10-2016 14:20:00 8.9 C 93 % 7.83 C
1614 20-10-2016 14:25:00 8.9 C 93 % 7.83 C
1615 20-10-2016 14:30:00 9 C 94 % 8.09 C
1616 20-10-2016 14:35:00 9 C 94 % 8.09 C
1617 20-10-2016 14:40:00 9 C 94 % 8.09 C
1618 20-10-2016 14:45:00 9.1 C 94 % 8.19 C
1619 20-10-2016 14:50:00 9.1 C 94 % 8.19 C
1620 20-10-2016 14:55:00 9.2 C 94 % 8.29 C
1621 20-10-2016 15:00:00 9.1 C 94 % 8.19 C
1622 20-10-2016 15:05:00 9.1 C 94 % 8.19 C
1623 20-10-2016 15:10:00 9.1 C 94 % 8.19 C
1624 20-10-2016 15:15:00 9.1 C 94 % 8.19 C
1625 20-10-2016 15:20:00 9.2 C 94 % 8.29 C
Sensor: Nr:Datum:Temp:Feuchte:Taupunkt:
Aussen-T/F 1626 20-10-2016 15:25:00 9.2 C 95 % 8.44 C
1627 20-10-2016 15:30:00 9.2 C 95 % 8.44 C
1628 20-10-2016 15:35:00 9.2 C 94 % 8.29 C
1629 20-10-2016 15:40:00 9.1 C 94 % 8.19 C
1630 20-10-2016 15:45:00 9 C 94 % 8.09 C
1631 20-10-2016 15:50:00 8.9 C 95 % 8.14 C
1632 20-10-2016 15:55:00 9 C 95 % 8.24 C
1633 20-10-2016 16:00:00 9 C 95 % 8.24 C
1634 20-10-2016 16:05:00 9.1 C 95 % 8.34 C
1635 20-10-2016 16:10:00 9.1 C 95 % 8.34 C
1636 20-10-2016 16:15:00 9.1 C 95 % 8.34 C
1637 20-10-2016 16:20:00 9.1 C 95 % 8.34 C
1638 20-10-2016 16:25:00 9 C 95 % 8.24 C
1639 20-10-2016 16:30:00 8.9 C 95 % 8.14 C
1640 20-10-2016 16:35:00 8.9 C 95 % 8.14 C
1641 20-10-2016 16:40:00 8.9 C 95 % 8.14 C
1642 20-10-2016 16:45:00 8.9 C 95 % 8.14 C
1643 20-10-2016 16:50:00 8.9 C 95 % 8.14 C
1644 20-10-2016 16:55:00 8.9 C 95 % 8.14 C
1645 20-10-2016 17:00:00 8.9 C 95 % 8.14 C
1646 20-10-2016 17:05:00 8.9 C 95 % 8.14 C
1647 20-10-2016 17:10:00 8.8 C 95 % 8.04 C
1648 20-10-2016 17:15:00 8.8 C 95 % 8.04 C
1649 20-10-2016 17:20:00 8.7 C 95 % 7.94 C
1650 20-10-2016 17:25:00 8.7 C 95 % 7.94 C
Sensor: Nr:Datum:Temp:Feuchte:Taupunkt:
Aussen-T/F 1651 20-10-2016 17:30:00 8.7 C 95 % 7.94 C
1652 20-10-2016 17:35:00 8.6 C 95 % 7.85 C
1653 20-10-2016 17:40:00 8.6 C 95 % 7.85 C
1654 20-10-2016 17:45:00 8.4 C 95 % 7.65 C
1655 20-10-2016 17:50:00 8.4 C 95 % 7.65 C
1656 20-10-2016 17:55:00 8.4 C 95 % 7.65 C
1657 20-10-2016 18:00:00 8.3 C 95 % 7.55 C
1658 20-10-2016 18:05:00 8.3 C 95 % 7.55 C
1659 20-10-2016 18:10:00 8.2 C 95 % 7.45 C
1660 20-10-2016 18:15:00 8.2 C 95 % 7.45 C
1661 20-10-2016 18:20:00 8.2 C 95 % 7.45 C
1662 20-10-2016 18:25:00 8.2 C 95 % 7.45 C
1663 20-10-2016 18:30:00 8.1 C 95 % 7.35 C
1664 20-10-2016 18:35:00 8.1 C 95 % 7.35 C
1665 20-10-2016 18:40:00 8 C 95 % 7.25 C
1666 20-10-2016 18:45:00 8 C 95 % 7.25 C
1667 20-10-2016 18:50:00 8 C 95 % 7.25 C
1668 20-10-2016 18:55:00 8 C 96 % 7.4 C
1669 20-10-2016 19:00:00 8 C 96 % 7.4 C
1670 20-10-2016 19:05:00 8 C 96 % 7.4 C
1671 20-10-2016 19:10:00 7.9 C 96 % 7.3 C
1672 20-10-2016 19:15:00 7.9 C 96 % 7.3 C
1673 20-10-2016 19:20:00 7.8 C 96 % 7.2 C
1674 20-10-2016 19:25:00 7.8 C 96 % 7.2 C
1675 20-10-2016 19:30:00 7.8 C 96 % 7.2 C
Sensor: Nr:Datum:Temp:Feuchte:Taupunkt:
Aussen-T/F 1676 20-10-2016 19:35:00 7.8 C 96 % 7.2 C
1677 20-10-2016 19:40:00 7.8 C 96 % 7.2 C
1678 20-10-2016 19:45:00 7.7 C 96 % 7.1 C
1679 20-10-2016 19:50:00 7.8 C 96 % 7.2 C
1680 20-10-2016 19:55:00 7.8 C 96 % 7.2 C
1681 20-10-2016 20:00:00 7.8 C 96 % 7.2 C
1682 20-10-2016 20:05:00 7.9 C 96 % 7.3 C
1683 20-10-2016 20:10:00 7.8 C 96 % 7.2 C
1684 20-10-2016 20:15:00 7.8 C 96 % 7.2 C
1685 20-10-2016 20:20:00 7.8 C 96 % 7.2 C
1686 20-10-2016 20:25:00 7.8 C 96 % 7.2 C
1687 20-10-2016 20:30:00 7.8 C 96 % 7.2 C
1688 20-10-2016 20:35:00 7.8 C 96 % 7.2 C
1689 20-10-2016 20:40:00 7.8 C 96 % 7.2 C
1690 20-10-2016 20:45:00 7.8 C 96 % 7.2 C
1691 20-10-2016 20:50:00 7.8 C 96 % 7.2 C
1692 20-10-2016 20:55:00 7.8 C 96 % 7.2 C
1693 20-10-2016 21:00:00 7.7 C 96 % 7.1 C
1694 20-10-2016 21:05:00 7.7 C 96 % 7.1 C
1695 20-10-2016 21:10:00 7.6 C 96 % 7 C
1696 20-10-2016 21:15:00 7.6 C 96 % 7 C
1697 20-10-2016 21:20:00 7.6 C 96 % 7 C
1698 20-10-2016 21:25:00 7.6 C 96 % 7 C
1699 20-10-2016 21:30:00 7.6 C 96 % 7 C
1700 20-10-2016 21:35:00 7.6 C 96 % 7 C
Sensor: Nr:Datum:Temp:Feuchte:Taupunkt:
Aussen-T/F 1701 20-10-2016 21:40:00 7.6 C 96 % 7 C
1702 20-10-2016 21:45:00 7.5 C 96 % 6.9 C
1703 20-10-2016 21:50:00 7.4 C 96 % 6.8 C
1704 20-10-2016 21:55:00 7.3 C 96 % 6.71 C
1705 20-10-2016 22:00:00 7.3 C 96 % 6.71 C
1706 20-10-2016 22:05:00 7.3 C 96 % 6.71 C
1707 20-10-2016 22:10:00 7.2 C 96 % 6.61 C
1708 20-10-2016 22:15:00 7.2 C 96 % 6.61 C
1709 20-10-2016 22:20:00 7.2 C 96 % 6.61 C
1710 20-10-2016 22:25:00 7.2 C 96 % 6.61 C
1711 20-10-2016 22:30:00 7.2 C 96 % 6.61 C
1712 20-10-2016 22:35:00 7.2 C 96 % 6.61 C
1713 20-10-2016 22:40:00 7.2 C 96 % 6.61 C
1714 20-10-2016 22:45:00 7.2 C 96 % 6.61 C
1715 20-10-2016 22:50:00 7.2 C 96 % 6.61 C
1716 20-10-2016 22:55:00 7.3 C 96 % 6.71 C
1717 20-10-2016 23:00:00 7.3 C 96 % 6.71 C
1718 20-10-2016 23:05:00 7.3 C 96 % 6.71 C
1719 20-10-2016 23:10:00 7.3 C 96 % 6.71 C
1720 20-10-2016 23:15:00 7.3 C 96 % 6.71 C
1721 20-10-2016 23:20:00 7.3 C 96 % 6.71 C
1722 20-10-2016 23:25:00 7.3 C 97 % 6.86 C
1723 20-10-2016 23:30:00 7.3 C 97 % 6.86 C
1724 20-10-2016 23:35:00 7.3 C 97 % 6.86 C
1725 20-10-2016 23:40:00 7.4 C 97 % 6.96 C
Sensor: Nr:Datum:Temp:Feuchte:Taupunkt:
Aussen-T/F 1726 20-10-2016 23:45:00 7.4 C 97 % 6.96 C
1727 20-10-2016 23:50:00 7.4 C 97 % 6.96 C
1728 20-10-2016 23:55:00 7.4 C 97 % 6.96 C
1729 21-10-2016 00:00:00 7.4 C 97 % 6.96 C
1730 21-10-2016 00:05:00 7.4 C 97 % 6.96 C
1731 21-10-2016 00:10:00 7.5 C 97 % 7.06 C
1732 21-10-2016 00:15:00 7.5 C 97 % 7.06 C
1733 21-10-2016 00:20:00 7.6 C 97 % 7.16 C
1734 21-10-2016 00:25:00 7.6 C 97 % 7.16 C
1735 21-10-2016 00:30:00 7.6 C 97 % 7.16 C
1736 21-10-2016 00:35:00 7.6 C 97 % 7.16 C
1737 21-10-2016 00:40:00 7.6 C 97 % 7.16 C
1738 21-10-2016 00:45:00 7.6 C 97 % 7.16 C
1739 21-10-2016 00:50:00 7.6 C 97 % 7.16 C
1740 21-10-2016 00:55:00 7.6 C 97 % 7.16 C
1741 21-10-2016 01:00:00 7.5 C 97 % 7.06 C
1742 21-10-2016 01:05:00 7.5 C 97 % 7.06 C
1743 21-10-2016 01:10:00 7.4 C 97 % 6.96 C
1744 21-10-2016 01:15:00 7.4 C 97 % 6.96 C
1745 21-10-2016 01:20:00 7.4 C 97 % 6.96 C
1746 21-10-2016 01:25:00 7.4 C 97 % 6.96 C
1747 21-10-2016 01:30:00 7.4 C 97 % 6.96 C
1748 21-10-2016 01:35:00 7.4 C 97 % 6.96 C
1749 21-10-2016 01:40:00 7.4 C 97 % 6.96 C
1750 21-10-2016 01:45:00 7.4 C 97 % 6.96 C
Sensor: Nr:Datum:Temp:Feuchte:Taupunkt:
Aussen-T/F 1751 21-10-2016 01:50:00 7.4 C 97 % 6.96 C
1752 21-10-2016 01:55:00 7.4 C 97 % 6.96 C
1753 21-10-2016 02:00:00 7.4 C 97 % 6.96 C
1754 21-10-2016 02:05:00 7.4 C 97 % 6.96 C
1755 21-10-2016 02:10:00 7.5 C 97 % 7.06 C
1756 21-10-2016 02:15:00 7.6 C 97 % 7.16 C
1757 21-10-2016 02:20:00 7.6 C 97 % 7.16 C
1758 21-10-2016 02:25:00 7.5 C 97 % 7.06 C
1759 21-10-2016 02:30:00 7.5 C 97 % 7.06 C
1760 21-10-2016 02:35:00 7.4 C 97 % 6.96 C
1761 21-10-2016 02:40:00 7.4 C 97 % 6.96 C
1762 21-10-2016 02:45:00 7.4 C 97 % 6.96 C
1763 21-10-2016 02:50:00 7.3 C 97 % 6.86 C
1764 21-10-2016 02:55:00 7.3 C 97 % 6.86 C
1765 21-10-2016 03:00:00 7.2 C 97 % 6.76 C
1766 21-10-2016 03:05:00 7.2 C 97 % 6.76 C
1767 21-10-2016 03:10:00 7.2 C 97 % 6.76 C
1768 21-10-2016 03:15:00 7.2 C 97 % 6.76 C
1769 21-10-2016 03:20:00 7.1 C 97 % 6.66 C
1770 21-10-2016 03:25:00 7.1 C 97 % 6.66 C
1771 21-10-2016 03:30:00 7.1 C 97 % 6.66 C
1772 21-10-2016 03:35:00 7.1 C 97 % 6.66 C
1773 21-10-2016 03:40:00 7.1 C 97 % 6.66 C
1774 21-10-2016 03:45:00 7.1 C 97 % 6.66 C
1775 21-10-2016 03:50:00 7.1 C 97 % 6.66 C
Sensor: Nr:Datum:Temp:Feuchte:Taupunkt:
Aussen-T/F 1776 21-10-2016 03:55:00 7.1 C 97 % 6.66 C
1777 21-10-2016 04:00:00 7.1 C 97 % 6.66 C
1778 21-10-2016 04:05:00 7.1 C 97 % 6.66 C
1779 21-10-2016 04:10:00 7.1 C 97 % 6.66 C
1780 21-10-2016 04:15:00 7.1 C 97 % 6.66 C
1781 21-10-2016 04:20:00 7.1 C 97 % 6.66 C
1782 21-10-2016 04:25:00 7.1 C 97 % 6.66 C
1783 21-10-2016 04:30:00 7.1 C 97 % 6.66 C
1784 21-10-2016 04:35:00 7.1 C 97 % 6.66 C
1785 21-10-2016 04:40:00 7.1 C 97 % 6.66 C
1786 21-10-2016 04:45:00 7.1 C 97 % 6.66 C
1787 21-10-2016 04:50:00 7.1 C 97 % 6.66 C
1788 21-10-2016 04:55:00 7.1 C 97 % 6.66 C
1789 21-10-2016 05:00:00 7.1 C 97 % 6.66 C
1790 21-10-2016 05:05:00 7.1 C 97 % 6.66 C
1791 21-10-2016 05:10:00 7.1 C 97 % 6.66 C
1792 21-10-2016 05:15:00 7.1 C 97 % 6.66 C
1793 21-10-2016 05:20:00 7.1 C 97 % 6.66 C
1794 21-10-2016 05:25:00 7.1 C 97 % 6.66 C
1795 21-10-2016 05:30:00 7.1 C 97 % 6.66 C
1796 21-10-2016 05:35:00 7 C 97 % 6.56 C
1797 21-10-2016 05:40:00 7.1 C 97 % 6.66 C
1798 21-10-2016 05:45:00 7 C 97 % 6.56 C
1799 21-10-2016 05:50:00 7.1 C 97 % 6.66 C
1800 21-10-2016 05:55:00 7.1 C 97 % 6.66 C
Sensor: Nr:Datum:Temp:Feuchte:Taupunkt:
Aussen-T/F 1801 21-10-2016 06:00:00 7.1 C 97 % 6.66 C
1802 21-10-2016 06:05:00 7.1 C 97 % 6.66 C
1803 21-10-2016 06:10:00 7.1 C 97 % 6.66 C
1804 21-10-2016 06:15:00 7.1 C 97 % 6.66 C
1805 21-10-2016 06:20:00 7.1 C 97 % 6.66 C
1806 21-10-2016 06:25:00 7.1 C 97 % 6.66 C
1807 21-10-2016 06:30:00 7.1 C 97 % 6.66 C
1808 21-10-2016 06:35:00 7.2 C 97 % 6.76 C
1809 21-10-2016 06:40:00 7.2 C 97 % 6.76 C
1810 21-10-2016 06:45:00 7.2 C 97 % 6.76 C
1811 21-10-2016 06:50:00 7.2 C 97 % 6.76 C
1812 21-10-2016 06:55:00 7.2 C 97 % 6.76 C
1813 21-10-2016 07:00:00 7.2 C 97 % 6.76 C
1814 21-10-2016 07:05:00 7.2 C 97 % 6.76 C
1815 21-10-2016 07:10:00 7.2 C 97 % 6.76 C
1816 21-10-2016 07:15:00 7.2 C 97 % 6.76 C
1817 21-10-2016 07:20:00 7.2 C 97 % 6.76 C
1818 21-10-2016 07:25:00 7.1 C 97 % 6.66 C
1819 21-10-2016 07:30:00 7.1 C 97 % 6.66 C
1820 21-10-2016 07:35:00 7.1 C 97 % 6.66 C
1821 21-10-2016 07:40:00 7.1 C 97 % 6.66 C
1822 21-10-2016 07:45:00 7 C 97 % 6.56 C
1823 21-10-2016 07:50:00 7 C 97 % 6.56 C
1824 21-10-2016 07:55:00 7 C 97 % 6.56 C
1825 21-10-2016 08:00:00 7 C 97 % 6.56 C
Sensor: Nr:Datum:Temp:Feuchte:Taupunkt:
Aussen-T/F 1826 21-10-2016 08:05:00 7 C 97 % 6.56 C
1827 21-10-2016 08:10:00 7 C 97 % 6.56 C
1828 21-10-2016 08:15:00 7 C 97 % 6.56 C
1829 21-10-2016 08:20:00 7 C 97 % 6.56 C
1830 21-10-2016 08:25:00 7.1 C 97 % 6.66 C
1831 21-10-2016 08:30:00 7.1 C 97 % 6.66 C
1832 21-10-2016 08:35:00 7.1 C 97 % 6.66 C
1833 21-10-2016 08:40:00 7.1 C 97 % 6.66 C
1834 21-10-2016 08:45:00 7.1 C 97 % 6.66 C
1835 21-10-2016 08:50:00 7.1 C 97 % 6.66 C
1836 21-10-2016 08:55:00 7.2 C 97 % 6.76 C
1837 21-10-2016 09:00:00 7.2 C 97 % 6.76 C
1838 21-10-2016 09:05:00 7.2 C 97 % 6.76 C
1839 21-10-2016 09:10:00 7.2 C 97 % 6.76 C
1840 21-10-2016 09:15:00 7.2 C 97 % 6.76 C
1841 21-10-2016 09:20:00 7.2 C 97 % 6.76 C
1842 21-10-2016 09:25:00 7.3 C 97 % 6.86 C
1843 21-10-2016 09:30:00 7.3 C 97 % 6.86 C
1844 21-10-2016 09:35:00 7.3 C 97 % 6.86 C
1845 21-10-2016 09:40:00 7.3 C 97 % 6.86 C
1846 21-10-2016 09:45:00 7.3 C 97 % 6.86 C
1847 21-10-2016 09:50:00 7.4 C 97 % 6.96 C
1848 21-10-2016 09:55:00 7.4 C 97 % 6.96 C
1849 21-10-2016 10:00:00 7.4 C 97 % 6.96 C
1850 21-10-2016 10:05:00 7.4 C 97 % 6.96 C
Sensor: Nr:Datum:Temp:Feuchte:Taupunkt:
Aussen-T/F 1851 21-10-2016 10:10:00 7.5 C 97 % 7.06 C
1852 21-10-2016 10:15:00 7.5 C 97 % 7.06 C
1853 21-10-2016 10:20:00 7.5 C 97 % 7.06 C
1854 21-10-2016 10:25:00 7.5 C 97 % 7.06 C
1855 21-10-2016 10:30:00 7.5 C 97 % 7.06 C
1856 21-10-2016 10:35:00 7.6 C 97 % 7.16 C
1857 21-10-2016 10:40:00 7.7 C 97 % 7.25 C
1858 21-10-2016 10:45:00 7.7 C 97 % 7.25 C
1859 21-10-2016 10:50:00 7.8 C 97 % 7.35 C
1860 21-10-2016 10:55:00 7.9 C 97 % 7.45 C
1861 21-10-2016 11:00:00 8.1 C 97 % 7.65 C
1862 21-10-2016 11:05:00 8.1 C 97 % 7.65 C
1863 21-10-2016 11:10:00 8.1 C 97 % 7.65 C
1864 21-10-2016 11:15:00 8.2 C 97 % 7.75 C
1865 21-10-2016 11:20:00 8.2 C 97 % 7.75 C
1866 21-10-2016 11:25:00 8.3 C 97 % 7.85 C
1867 21-10-2016 11:30:00 8.3 C 97 % 7.85 C
1868 21-10-2016 11:35:00 8.4 C 97 % 7.95 C
1869 21-10-2016 11:40:00 8.4 C 97 % 7.95 C
1870 21-10-2016 11:45:00 8.4 C 97 % 7.95 C
1871 21-10-2016 11:50:00 8.6 C 97 % 8.15 C
1872 21-10-2016 11:55:00 8.6 C 97 % 8.15 C
1873 21-10-2016 12:00:00 8.6 C 97 % 8.15 C
1874 21-10-2016 12:05:00 8.6 C 97 % 8.15 C
1875 21-10-2016 12:10:00 8.6 C 97 % 8.15 C
Sensor: Nr:Datum:Temp:Feuchte:Taupunkt:
Aussen-T/F 1876 21-10-2016 12:15:00 8.6 C 97 % 8.15 C
1877 21-10-2016 12:20:00 8.6 C 97 % 8.15 C
1878 21-10-2016 12:25:00 8.6 C 97 % 8.15 C
1879 21-10-2016 12:30:00 8.7 C 97 % 8.25 C
1880 21-10-2016 12:35:00 8.8 C 97 % 8.35 C
1881 21-10-2016 12:40:00 8.8 C 97 % 8.35 C
1882 21-10-2016 12:45:00 8.8 C 97 % 8.35 C
1883 21-10-2016 12:50:00 8.9 C 97 % 8.45 C
1884 21-10-2016 12:55:00 8.9 C 96 % 8.3 C
1885 21-10-2016 13:00:00 8.9 C 96 % 8.3 C
1886 21-10-2016 13:05:00 8.9 C 96 % 8.3 C
1887 21-10-2016 13:10:00 8.9 C 96 % 8.3 C
1888 21-10-2016 13:15:00 8.9 C 96 % 8.3 C
1889 21-10-2016 13:20:00 8.9 C 96 % 8.3 C
1890 21-10-2016 13:25:00 8.8 C 96 % 8.2 C
1891 21-10-2016 13:30:00 8.6 C 96 % 8 C
1892 21-10-2016 13:35:00 8.5 C 96 % 7.9 C
1893 21-10-2016 13:40:00 8.4 C 96 % 7.8 C
1894 21-10-2016 13:45:00 8.4 C 95 % 7.65 C
1895 21-10-2016 13:50:00 8.6 C 96 % 8 C
1896 21-10-2016 13:55:00 8.7 C 95 % 7.94 C
1897 21-10-2016 14:00:00 8.7 C 95 % 7.94 C
1898 21-10-2016 14:05:00 8.7 C 95 % 7.94 C
1899 21-10-2016 14:10:00 8.6 C 94 % 7.69 C
1900 21-10-2016 14:15:00 8.4 C 93 % 7.34 C
Sensor: Nr:Datum:Temp:Feuchte:Taupunkt:
Aussen-T/F 1901 21-10-2016 14:20:00 8.4 C 93 % 7.34 C
1902 21-10-2016 14:25:00 8.4 C 93 % 7.34 C
1903 21-10-2016 14:30:00 8.5 C 93 % 7.43 C
1904 21-10-2016 14:35:00 8.6 C 93 % 7.53 C
1905 21-10-2016 14:40:00 8.4 C 91 % 7.02 C
1906 21-10-2016 14:45:00 8.4 C 90 % 6.86 C
1907 21-10-2016 14:50:00 8.4 C 91 % 7.02 C
1908 21-10-2016 14:55:00 8.5 C 91 % 7.12 C
1909 21-10-2016 15:00:00 8.6 C 93 % 7.53 C
1910 21-10-2016 15:05:00 8.8 C 93 % 7.73 C
1911 21-10-2016 15:10:00 8.8 C 93 % 7.73 C
1912 21-10-2016 15:15:00 8.7 C 91 % 7.32 C
1913 21-10-2016 15:20:00 8.5 C 89 % 6.79 C
1914 21-10-2016 15:25:00 8.4 C 89 % 6.7 C
1915 21-10-2016 15:30:00 8.5 C 90 % 6.96 C
1916 21-10-2016 15:35:00 8.5 C 89 % 6.79 C
1917 21-10-2016 15:40:00 8.6 C 91 % 7.22 C
1918 21-10-2016 15:45:00 8.7 C 92 % 7.47 C
1919 21-10-2016 15:50:00 8.7 C 92 % 7.47 C
1920 21-10-2016 15:55:00 8.8 C 92 % 7.57 C
1921 21-10-2016 16:00:00 8.8 C 92 % 7.57 C
1922 21-10-2016 16:05:00 8.7 C 90 % 7.15 C
1923 21-10-2016 16:10:00 8.8 C 91 % 7.41 C
1924 21-10-2016 16:15:00 8.9 C 92 % 7.67 C
1925 21-10-2016 16:20:00 8.9 C 91 % 7.51 C
Sensor: Nr:Datum:Temp:Feuchte:Taupunkt:
Aussen-T/F 1926 21-10-2016 16:25:00 8.9 C 90 % 7.35 C
1927 21-10-2016 16:30:00 8.9 C 89 % 7.19 C
1928 21-10-2016 16:35:00 8.8 C 87 % 6.76 C
1929 21-10-2016 16:40:00 8.7 C 86 % 6.49 C
1930 21-10-2016 16:45:00 8.7 C 86 % 6.49 C
1931 21-10-2016 22:35:00 6.5 C 96 % 5.91 C
1932 21-10-2016 22:40:00 6.6 C 96 % 6.01 C
1933 21-10-2016 22:45:00 6.6 C 96 % 6.01 C
1934 21-10-2016 22:50:00 6.6 C 96 % 6.01 C
1935 21-10-2016 22:55:00 6.7 C 96 % 6.11 C
1936 21-10-2016 23:00:00 6.7 C 96 % 6.11 C
1937 21-10-2016 23:05:00 6.8 C 96 % 6.21 C
1938 21-10-2016 23:10:00 6.8 C 96 % 6.21 C
1939 21-10-2016 23:15:00 6.9 C 96 % 6.31 C
1940 21-10-2016 23:20:00 6.9 C 96 % 6.31 C
1941 21-10-2016 23:25:00 6.9 C 96 % 6.31 C
1942 21-10-2016 23:30:00 6.9 C 96 % 6.31 C
1943 21-10-2016 23:35:00 7 C 96 % 6.41 C
1944 21-10-2016 23:40:00 7 C 96 % 6.41 C
1945 21-10-2016 23:45:00 7 C 96 % 6.41 C
1946 21-10-2016 23:50:00 7 C 96 % 6.41 C
1947 21-10-2016 23:55:00 7 C 96 % 6.41 C
1948 22-10-2016 00:00:00 7 C 96 % 6.41 C
1949 22-10-2016 00:05:00 6.9 C 96 % 6.31 C
1950 22-10-2016 00:10:00 6.9 C 96 % 6.31 C
Sensor: Nr:Datum:Temp:Feuchte:Taupunkt:
Aussen-T/F 1951 22-10-2016 00:15:00 7 C 96 % 6.41 C
1952 22-10-2016 00:20:00 7 C 96 % 6.41 C
1953 22-10-2016 00:25:00 7 C 96 % 6.41 C
1954 22-10-2016 00:30:00 7 C 96 % 6.41 C
1955 22-10-2016 00:35:00 7 C 96 % 6.41 C
1956 22-10-2016 00:40:00 7 C 96 % 6.41 C
1957 22-10-2016 00:45:00 6.9 C 96 % 6.31 C
1958 22-10-2016 00:50:00 6.9 C 96 % 6.31 C
1959 22-10-2016 00:55:00 6.9 C 96 % 6.31 C
1960 22-10-2016 01:00:00 6.9 C 96 % 6.31 C
1961 22-10-2016 01:05:00 6.9 C 96 % 6.31 C
1962 22-10-2016 01:10:00 6.9 C 96 % 6.31 C
1963 22-10-2016 01:15:00 6.9 C 96 % 6.31 C
1964 22-10-2016 01:20:00 6.9 C 96 % 6.31 C
1965 22-10-2016 01:25:00 6.9 C 96 % 6.31 C
1966 22-10-2016 01:30:00 6.9 C 96 % 6.31 C
1967 22-10-2016 01:35:00 6.9 C 96 % 6.31 C
1968 22-10-2016 01:40:00 6.9 C 97 % 6.46 C
1969 22-10-2016 01:45:00 6.9 C 96 % 6.31 C
1970 22-10-2016 01:50:00 6.9 C 97 % 6.46 C
1971 22-10-2016 01:55:00 6.9 C 97 % 6.46 C
1972 22-10-2016 02:00:00 6.9 C 97 % 6.46 C
1973 22-10-2016 02:05:00 6.9 C 97 % 6.46 C
1974 22-10-2016 02:10:00 7 C 97 % 6.56 C
1975 22-10-2016 02:15:00 7 C 97 % 6.56 C
Sensor: Nr:Datum:Temp:Feuchte:Taupunkt:
Aussen-T/F 1976 22-10-2016 02:20:00 7 C 97 % 6.56 C
1977 22-10-2016 02:25:00 6.9 C 97 % 6.46 C
1978 22-10-2016 02:30:00 6.9 C 96 % 6.31 C
1979 22-10-2016 02:35:00 6.9 C 96 % 6.31 C
1980 22-10-2016 02:40:00 6.9 C 96 % 6.31 C
1981 22-10-2016 02:45:00 6.9 C 96 % 6.31 C
1982 22-10-2016 02:50:00 6.9 C 96 % 6.31 C
1983 22-10-2016 02:55:00 6.8 C 96 % 6.21 C
1984 22-10-2016 03:00:00 6.9 C 96 % 6.31 C
1985 22-10-2016 03:05:00 6.8 C 96 % 6.21 C
1986 22-10-2016 03:10:00 6.9 C 96 % 6.31 C
1987 22-10-2016 03:15:00 6.9 C 96 % 6.31 C
1988 22-10-2016 03:20:00 6.9 C 96 % 6.31 C
1989 22-10-2016 03:25:00 6.8 C 96 % 6.21 C
1990 22-10-2016 03:30:00 6.8 C 96 % 6.21 C
1991 22-10-2016 03:35:00 6.8 C 96 % 6.21 C
1992 22-10-2016 03:40:00 6.8 C 96 % 6.21 C
1993 22-10-2016 03:45:00 6.8 C 96 % 6.21 C
1994 22-10-2016 03:50:00 6.8 C 96 % 6.21 C
1995 22-10-2016 03:55:00 6.8 C 96 % 6.21 C
1996 22-10-2016 04:00:00 6.9 C 96 % 6.31 C
1997 22-10-2016 04:05:00 6.9 C 96 % 6.31 C
1998 22-10-2016 04:10:00 6.9 C 96 % 6.31 C
1999 22-10-2016 04:15:00 6.9 C 96 % 6.31 C
2000 22-10-2016 04:20:00 6.9 C 97 % 6.46 C
Sensor: Nr:Datum:Temp:Feuchte:Taupunkt:
Aussen-T/F 2001 22-10-2016 04:25:00 7 C 97 % 6.56 C
2002 22-10-2016 04:30:00 7 C 97 % 6.56 C
2003 22-10-2016 04:35:00 7 C 97 % 6.56 C
2004 22-10-2016 04:40:00 7 C 97 % 6.56 C
2005 22-10-2016 04:45:00 7 C 97 % 6.56 C
2006 22-10-2016 04:50:00 7 C 97 % 6.56 C
2007 22-10-2016 04:55:00 7.1 C 97 % 6.66 C
2008 22-10-2016 05:00:00 7.1 C 97 % 6.66 C
2009 22-10-2016 05:05:00 7.1 C 97 % 6.66 C
2010 22-10-2016 05:10:00 7.1 C 97 % 6.66 C
2011 22-10-2016 05:15:00 7.1 C 97 % 6.66 C
2012 22-10-2016 05:20:00 7.1 C 97 % 6.66 C
2013 22-10-2016 05:25:00 7.1 C 97 % 6.66 C
2014 22-10-2016 05:30:00 7.2 C 96 % 6.61 C
2015 22-10-2016 05:35:00 7.2 C 96 % 6.61 C
2016 22-10-2016 05:40:00 7.2 C 96 % 6.61 C
2017 22-10-2016 05:45:00 7.2 C 96 % 6.61 C
2018 22-10-2016 05:50:00 7.2 C 96 % 6.61 C
2019 22-10-2016 05:55:00 7.2 C 96 % 6.61 C
2020 22-10-2016 06:00:00 7.2 C 96 % 6.61 C
2021 22-10-2016 06:05:00 7.2 C 96 % 6.61 C
2022 22-10-2016 06:10:00 7.2 C 96 % 6.61 C
2023 22-10-2016 06:15:00 7.2 C 96 % 6.61 C
2024 22-10-2016 06:20:00 7.2 C 96 % 6.61 C
2025 22-10-2016 06:25:00 7.2 C 96 % 6.61 C
Sensor: Nr:Datum:Temp:Feuchte:Taupunkt:
Aussen-T/F 2026 22-10-2016 06:30:00 7.3 C 96 % 6.71 C
2027 22-10-2016 06:35:00 7.3 C 96 % 6.71 C
2028 22-10-2016 06:40:00 7.3 C 96 % 6.71 C
2029 22-10-2016 06:45:00 7.3 C 96 % 6.71 C
2030 22-10-2016 06:50:00 7.3 C 96 % 6.71 C
2031 22-10-2016 06:55:00 7.3 C 96 % 6.71 C
2032 22-10-2016 07:00:00 7.3 C 96 % 6.71 C
2033 22-10-2016 07:05:00 7.3 C 96 % 6.71 C
2034 22-10-2016 07:10:00 7.2 C 96 % 6.61 C
2035 22-10-2016 07:15:00 7.2 C 96 % 6.61 C
2036 22-10-2016 07:20:00 7.2 C 96 % 6.61 C
2037 22-10-2016 07:25:00 7.2 C 96 % 6.61 C
2038 22-10-2016 07:30:00 7.2 C 96 % 6.61 C
2039 22-10-2016 07:35:00 7.3 C 96 % 6.71 C
2040 22-10-2016 07:40:00 7.3 C 97 % 6.86 C
2041 22-10-2016 07:45:00 7.3 C 97 % 6.86 C
2042 22-10-2016 07:50:00 7.3 C 97 % 6.86 C
2043 22-10-2016 07:55:00 7.3 C 97 % 6.86 C
2044 22-10-2016 08:00:00 7.3 C 97 % 6.86 C
2045 22-10-2016 08:05:00 7.3 C 97 % 6.86 C
2046 22-10-2016 08:10:00 7.3 C 97 % 6.86 C
2047 22-10-2016 08:15:00 7.3 C 96 % 6.71 C
2048 22-10-2016 08:20:00 7.3 C 96 % 6.71 C
2049 22-10-2016 08:25:00 7.3 C 96 % 6.71 C
2050 22-10-2016 08:30:00 7.3 C 97 % 6.86 C
Sensor: Nr:Datum:Temp:Feuchte:Taupunkt:
Aussen-T/F 2051 22-10-2016 08:35:00 7.3 C 96 % 6.71 C
2052 22-10-2016 08:40:00 7.3 C 97 % 6.86 C
2053 22-10-2016 08:45:00 7.3 C 97 % 6.86 C
2054 22-10-2016 08:50:00 7.3 C 97 % 6.86 C
2055 22-10-2016 08:55:00 7.4 C 97 % 6.96 C
2056 22-10-2016 09:00:00 7.4 C 97 % 6.96 C
2057 22-10-2016 09:05:00 7.4 C 97 % 6.96 C
2058 22-10-2016 09:10:00 7.5 C 97 % 7.06 C
2059 22-10-2016 09:15:00 7.6 C 97 % 7.16 C
2060 22-10-2016 09:20:00 7.6 C 97 % 7.16 C
2061 22-10-2016 09:25:00 7.6 C 97 % 7.16 C
2062 22-10-2016 09:30:00 7.6 C 97 % 7.16 C
2063 22-10-2016 09:35:00 7.6 C 97 % 7.16 C
2064 22-10-2016 09:40:00 7.6 C 97 % 7.16 C
2065 22-10-2016 09:45:00 7.7 C 97 % 7.25 C
2066 22-10-2016 09:50:00 7.7 C 97 % 7.25 C
2067 22-10-2016 09:55:00 7.7 C 97 % 7.25 C
2068 22-10-2016 10:00:00 7.7 C 97 % 7.25 C
2069 22-10-2016 10:05:00 7.8 C 97 % 7.35 C
2070 22-10-2016 10:10:00 7.8 C 97 % 7.35 C
2071 22-10-2016 10:15:00 7.9 C 97 % 7.45 C
2072 22-10-2016 10:20:00 7.9 C 97 % 7.45 C
2073 22-10-2016 10:25:00 8.1 C 97 % 7.65 C
2074 22-10-2016 10:30:00 8.2 C 97 % 7.75 C
2075 22-10-2016 10:35:00 8.2 C 97 % 7.75 C
Sensor: Nr:Datum:Temp:Feuchte:Taupunkt:
Aussen-T/F 2076 22-10-2016 10:40:00 8.3 C 97 % 7.85 C
2077 22-10-2016 10:45:00 8.3 C 97 % 7.85 C
2078 22-10-2016 10:50:00 8.3 C 97 % 7.85 C
2079 22-10-2016 10:55:00 8.4 C 97 % 7.95 C
2080 22-10-2016 11:00:00 8.4 C 97 % 7.95 C
2081 22-10-2016 11:05:00 8.5 C 97 % 8.05 C
2082 22-10-2016 11:10:00 8.6 C 97 % 8.15 C
2083 22-10-2016 11:15:00 8.6 C 97 % 8.15 C
2084 22-10-2016 11:20:00 8.7 C 97 % 8.25 C
2085 22-10-2016 11:25:00 8.8 C 97 % 8.35 C
2086 22-10-2016 11:30:00 8.9 C 97 % 8.45 C
2087 22-10-2016 11:35:00 9.1 C 97 % 8.65 C
2088 22-10-2016 11:40:00 9.1 C 97 % 8.65 C
2089 22-10-2016 11:45:00 9.2 C 97 % 8.75 C
2090 22-10-2016 11:50:00 9.2 C 97 % 8.75 C
2091 22-10-2016 11:55:00 9.2 C 96 % 8.6 C
2092 22-10-2016 12:00:00 9.3 C 96 % 8.7 C
2093 22-10-2016 12:05:00 9.4 C 97 % 8.95 C
2094 22-10-2016 12:10:00 9.5 C 97 % 9.05 C
2095 22-10-2016 12:15:00 9.6 C 97 % 9.15 C
2096 22-10-2016 12:20:00 9.6 C 96 % 8.99 C
2097 22-10-2016 12:25:00 9.6 C 96 % 8.99 C
2098 22-10-2016 12:30:00 9.6 C 96 % 8.99 C
2099 22-10-2016 12:35:00 9.4 C 95 % 8.64 C
2100 22-10-2016 12:40:00 9.3 C 95 % 8.54 C
Sensor: Nr:Datum:Temp:Feuchte:Taupunkt:
Aussen-T/F 2101 22-10-2016 12:45:00 9.2 C 95 % 8.44 C
2102 22-10-2016 12:50:00 9.2 C 96 % 8.6 C
2103 22-10-2016 12:55:00 9.2 C 96 % 8.6 C
2104 22-10-2016 13:00:00 9.3 C 96 % 8.7 C
2105 22-10-2016 13:05:00 9.4 C 96 % 8.8 C
2106 22-10-2016 13:10:00 9.6 C 96 % 8.99 C
2107 22-10-2016 13:15:00 9.8 C 96 % 9.19 C
2108 22-10-2016 13:20:00 9.8 C 96 % 9.19 C
2109 22-10-2016 13:25:00 9.8 C 96 % 9.19 C
2110 22-10-2016 13:30:00 9.7 C 96 % 9.09 C
2111 22-10-2016 13:35:00 9.7 C 96 % 9.09 C
2112 22-10-2016 13:40:00 9.6 C 96 % 8.99 C
2113 22-10-2016 13:45:00 9.5 C 95 % 8.74 C
2114 22-10-2016 13:50:00 9.5 C 95 % 8.74 C
2115 22-10-2016 13:55:00 9.5 C 95 % 8.74 C
2116 22-10-2016 14:00:00 9.5 C 95 % 8.74 C
2117 22-10-2016 14:05:00 9.4 C 95 % 8.64 C
2118 22-10-2016 14:10:00 9.4 C 95 % 8.64 C
2119 22-10-2016 14:15:00 9.6 C 95 % 8.84 C
2120 22-10-2016 14:20:00 9.7 C 95 % 8.94 C
2121 22-10-2016 14:25:00 9.8 C 96 % 9.19 C
2122 22-10-2016 14:30:00 10 C 96 % 9.39 C
2123 22-10-2016 14:35:00 10 C 95 % 9.24 C
2124 22-10-2016 14:40:00 9.8 C 94 % 8.88 C
2125 22-10-2016 14:45:00 9.7 C 94 % 8.78 C
Sensor: Nr:Datum:Temp:Feuchte:Taupunkt:
Aussen-T/F 2126 22-10-2016 14:50:00 9.8 C 94 % 8.88 C
2127 22-10-2016 14:55:00 9.8 C 95 % 9.04 C
2128 22-10-2016 15:00:00 9.8 C 95 % 9.04 C
2129 22-10-2016 15:05:00 9.9 C 95 % 9.14 C
2130 22-10-2016 15:10:00 10 C 95 % 9.24 C
2131 22-10-2016 15:15:00 10.1 C 95 % 9.34 C
2132 22-10-2016 15:20:00 10.1 C 95 % 9.34 C
2133 22-10-2016 15:25:00 10.1 C 95 % 9.34 C
2134 22-10-2016 15:30:00 10 C 95 % 9.24 C
2135 22-10-2016 15:35:00 9.9 C 95 % 9.14 C
2136 22-10-2016 15:40:00 9.8 C 94 % 8.88 C
2137 22-10-2016 15:45:00 9.8 C 94 % 8.88 C
2138 22-10-2016 15:50:00 9.7 C 95 % 8.94 C
2139 22-10-2016 15:55:00 9.7 C 95 % 8.94 C
2140 22-10-2016 16:00:00 9.7 C 95 % 8.94 C
2141 22-10-2016 16:05:00 9.7 C 95 % 8.94 C
2142 22-10-2016 16:10:00 9.7 C 95 % 8.94 C
2143 22-10-2016 16:15:00 9.6 C 94 % 8.68 C
2144 22-10-2016 16:20:00 9.5 C 95 % 8.74 C
2145 22-10-2016 16:25:00 9.5 C 95 % 8.74 C
2146 22-10-2016 16:30:00 9.5 C 95 % 8.74 C
2147 22-10-2016 16:35:00 9.4 C 94 % 8.48 C
2148 22-10-2016 16:40:00 9.5 C 94 % 8.58 C
2149 22-10-2016 16:45:00 9.6 C 94 % 8.68 C
2150 22-10-2016 16:50:00 9.5 C 94 % 8.58 C
Sensor: Nr:Datum:Temp:Feuchte:Taupunkt:
Aussen-T/F 2151 22-10-2016 16:55:00 9.5 C 94 % 8.58 C
2152 22-10-2016 17:00:00 9.4 C 94 % 8.48 C
2153 22-10-2016 17:05:00 9.3 C 94 % 8.39 C
2154 22-10-2016 17:10:00 9.2 C 94 % 8.29 C
2155 22-10-2016 17:15:00 9.1 C 94 % 8.19 C
2156 22-10-2016 17:20:00 9 C 94 % 8.09 C
2157 22-10-2016 17:25:00 8.9 C 95 % 8.14 C
2158 22-10-2016 17:30:00 8.9 C 95 % 8.14 C
2159 22-10-2016 17:35:00 8.9 C 95 % 8.14 C
2160 22-10-2016 17:40:00 8.9 C 95 % 8.14 C
2161 22-10-2016 17:45:00 8.9 C 95 % 8.14 C
2162 22-10-2016 17:50:00 8.9 C 95 % 8.14 C
2163 22-10-2016 17:55:00 8.8 C 95 % 8.04 C
2164 22-10-2016 18:00:00 8.8 C 95 % 8.04 C
2165 22-10-2016 18:05:00 8.8 C 95 % 8.04 C
2166 22-10-2016 18:10:00 8.7 C 95 % 7.94 C
2167 22-10-2016 18:15:00 8.7 C 95 % 7.94 C
2168 22-10-2016 18:20:00 8.6 C 95 % 7.85 C
2169 22-10-2016 18:25:00 8.5 C 95 % 7.75 C
2170 22-10-2016 18:30:00 8.4 C 95 % 7.65 C
2171 22-10-2016 18:35:00 8.4 C 95 % 7.65 C
2172 22-10-2016 18:40:00 8.3 C 95 % 7.55 C
2173 22-10-2016 18:45:00 8.3 C 96 % 7.7 C
2174 22-10-2016 18:50:00 8.3 C 96 % 7.7 C
2175 22-10-2016 18:55:00 8.3 C 96 % 7.7 C
Sensor: Nr:Datum:Temp:Feuchte:Taupunkt:
Aussen-T/F 2176 22-10-2016 19:00:00 8.3 C 96 % 7.7 C
2177 22-10-2016 19:05:00 8.2 C 96 % 7.6 C
2178 22-10-2016 19:10:00 8.2 C 96 % 7.6 C
2179 22-10-2016 19:15:00 8.1 C 96 % 7.5 C
2180 22-10-2016 19:20:00 8.1 C 96 % 7.5 C
2181 22-10-2016 19:25:00 8 C 96 % 7.4 C
2182 22-10-2016 19:30:00 7.9 C 96 % 7.3 C
2183 22-10-2016 19:35:00 7.9 C 96 % 7.3 C
2184 22-10-2016 19:40:00 7.8 C 96 % 7.2 C
2185 22-10-2016 19:45:00 7.7 C 96 % 7.1 C
2186 22-10-2016 19:50:00 7.6 C 96 % 7 C
2187 22-10-2016 19:55:00 7.5 C 96 % 6.9 C
2188 22-10-2016 20:00:00 7.4 C 96 % 6.8 C
2189 22-10-2016 20:05:00 7.3 C 96 % 6.71 C
2190 22-10-2016 20:10:00 7.3 C 96 % 6.71 C
2191 22-10-2016 20:15:00 7.2 C 96 % 6.61 C
2192 22-10-2016 20:20:00 7.2 C 96 % 6.61 C
2193 22-10-2016 20:25:00 7.1 C 96 % 6.51 C
2194 22-10-2016 20:30:00 7.1 C 96 % 6.51 C
2195 22-10-2016 20:35:00 7.1 C 96 % 6.51 C
2196 22-10-2016 20:40:00 7 C 96 % 6.41 C
2197 22-10-2016 20:45:00 6.9 C 96 % 6.31 C
2198 22-10-2016 20:50:00 6.9 C 96 % 6.31 C
2199 22-10-2016 20:55:00 6.9 C 96 % 6.31 C
2200 22-10-2016 21:00:00 6.9 C 96 % 6.31 C
Sensor: Nr:Datum:Temp:Feuchte:Taupunkt:
Aussen-T/F 2201 22-10-2016 21:05:00 6.9 C 96 % 6.31 C
2202 22-10-2016 21:10:00 6.9 C 96 % 6.31 C
2203 22-10-2016 21:15:00 6.8 C 96 % 6.21 C
2204 22-10-2016 21:20:00 6.8 C 96 % 6.21 C
2205 22-10-2016 21:25:00 6.8 C 96 % 6.21 C
2206 22-10-2016 21:30:00 6.8 C 96 % 6.21 C
2207 22-10-2016 21:35:00 6.8 C 96 % 6.21 C
2208 22-10-2016 21:40:00 6.7 C 96 % 6.11 C
2209 22-10-2016 21:45:00 6.7 C 96 % 6.11 C
2210 22-10-2016 21:50:00 6.7 C 96 % 6.11 C
2211 22-10-2016 21:55:00 6.7 C 96 % 6.11 C
2212 22-10-2016 22:00:00 6.7 C 96 % 6.11 C
2213 22-10-2016 22:05:00 6.7 C 96 % 6.11 C
2214 22-10-2016 22:10:00 6.7 C 96 % 6.11 C
2215 22-10-2016 22:15:00 6.6 C 96 % 6.01 C
2216 22-10-2016 22:20:00 6.4 C 96 % 5.81 C
2217 22-10-2016 22:25:00 6.3 C 96 % 5.71 C
2218 22-10-2016 22:30:00 6.2 C 96 % 5.61 C
2219 22-10-2016 22:35:00 6 C 96 % 5.41 C
2220 22-10-2016 22:40:00 5.9 C 96 % 5.31 C
2221 22-10-2016 22:45:00 5.8 C 96 % 5.21 C
2222 22-10-2016 22:50:00 5.7 C 96 % 5.11 C
2223 22-10-2016 22:55:00 5.6 C 96 % 5.01 C
2224 22-10-2016 23:00:00 5.6 C 96 % 5.01 C
2225 22-10-2016 23:05:00 5.5 C 96 % 4.91 C
Sensor: Nr:Datum:Temp:Feuchte:Taupunkt:
Aussen-T/F 2226 22-10-2016 23:10:00 5.4 C 96 % 4.81 C
2227 22-10-2016 23:15:00 5.3 C 96 % 4.72 C
2228 22-10-2016 23:20:00 5.3 C 96 % 4.72 C
2229 22-10-2016 23:25:00 5.3 C 96 % 4.72 C
2230 22-10-2016 23:30:00 5.4 C 96 % 4.81 C
2231 22-10-2016 23:35:00 5.6 C 96 % 5.01 C
2232 22-10-2016 23:40:00 5.7 C 97 % 5.26 C
2233 22-10-2016 23:45:00 5.7 C 97 % 5.26 C
2234 22-10-2016 23:50:00 5.8 C 97 % 5.36 C
2235 22-10-2016 23:55:00 5.9 C 97 % 5.46 C
2236 23-10-2016 00:00:00 5.9 C 97 % 5.46 C
2237 23-10-2016 00:05:00 5.9 C 97 % 5.46 C
2238 23-10-2016 00:10:00 6 C 97 % 5.56 C
2239 23-10-2016 00:15:00 5.9 C 97 % 5.46 C
2240 23-10-2016 00:20:00 5.9 C 97 % 5.46 C
2241 23-10-2016 00:25:00 6 C 97 % 5.56 C
2242 23-10-2016 00:30:00 6 C 97 % 5.56 C
2243 23-10-2016 00:35:00 6.1 C 97 % 5.66 C
2244 23-10-2016 00:40:00 6.1 C 97 % 5.66 C
2245 23-10-2016 00:45:00 6.1 C 97 % 5.66 C
2246 23-10-2016 00:50:00 6.1 C 97 % 5.66 C
2247 23-10-2016 00:55:00 6.1 C 97 % 5.66 C
2248 23-10-2016 01:00:00 6.2 C 97 % 5.76 C
2249 23-10-2016 01:05:00 6.2 C 97 % 5.76 C
2250 23-10-2016 01:10:00 6.2 C 97 % 5.76 C
Sensor: Nr:Datum:Temp:Feuchte:Taupunkt:
Aussen-T/F 2251 23-10-2016 01:15:00 6.2 C 97 % 5.76 C
2252 23-10-2016 01:20:00 6.2 C 97 % 5.76 C
2253 23-10-2016 01:25:00 6.2 C 97 % 5.76 C
2254 23-10-2016 01:30:00 6.2 C 97 % 5.76 C
2255 23-10-2016 01:35:00 6.2 C 97 % 5.76 C
2256 23-10-2016 01:40:00 6.2 C 97 % 5.76 C
2257 23-10-2016 01:45:00 6.2 C 97 % 5.76 C
2258 23-10-2016 01:50:00 6.3 C 97 % 5.86 C
2259 23-10-2016 01:55:00 6.3 C 97 % 5.86 C
2260 23-10-2016 02:00:00 6.3 C 97 % 5.86 C
2261 23-10-2016 02:05:00 6.3 C 97 % 5.86 C
2262 23-10-2016 02:10:00 6.3 C 97 % 5.86 C
2263 23-10-2016 02:15:00 6.3 C 97 % 5.86 C
2264 23-10-2016 02:20:00 6.3 C 97 % 5.86 C
2265 23-10-2016 02:25:00 6.3 C 97 % 5.86 C
2266 23-10-2016 02:30:00 6.3 C 97 % 5.86 C
2267 23-10-2016 02:35:00 6.3 C 97 % 5.86 C
2268 23-10-2016 02:40:00 6.3 C 97 % 5.86 C
2269 23-10-2016 02:45:00 6.3 C 97 % 5.86 C
2270 23-10-2016 02:50:00 6.3 C 97 % 5.86 C
2271 23-10-2016 02:55:00 6.3 C 97 % 5.86 C
2272 23-10-2016 03:00:00 6.3 C 97 % 5.86 C
2273 23-10-2016 03:05:00 6.3 C 97 % 5.86 C
2274 23-10-2016 03:10:00 6.3 C 97 % 5.86 C
2275 23-10-2016 03:15:00 6.4 C 97 % 5.96 C
Sensor: Nr:Datum:Temp:Feuchte:Taupunkt:
Aussen-T/F 2276 23-10-2016 03:20:00 6.4 C 97 % 5.96 C
2277 23-10-2016 03:25:00 6.4 C 97 % 5.96 C
2278 23-10-2016 03:30:00 6.4 C 97 % 5.96 C
2279 23-10-2016 03:35:00 6.5 C 97 % 6.06 C
2280 23-10-2016 03:40:00 6.5 C 97 % 6.06 C
2281 23-10-2016 03:45:00 6.5 C 97 % 6.06 C
2282 23-10-2016 03:50:00 6.6 C 97 % 6.16 C
2283 23-10-2016 03:55:00 6.6 C 97 % 6.16 C
2284 23-10-2016 04:00:00 6.6 C 97 % 6.16 C
2285 23-10-2016 04:05:00 6.6 C 97 % 6.16 C
2286 23-10-2016 04:10:00 6.6 C 97 % 6.16 C
2287 23-10-2016 04:15:00 6.6 C 97 % 6.16 C
2288 23-10-2016 04:20:00 6.7 C 97 % 6.26 C
2289 23-10-2016 04:25:00 6.7 C 97 % 6.26 C
2290 23-10-2016 04:30:00 6.7 C 97 % 6.26 C
2291 23-10-2016 04:35:00 6.7 C 97 % 6.26 C
2292 23-10-2016 04:40:00 6.7 C 97 % 6.26 C
2293 23-10-2016 04:45:00 6.7 C 97 % 6.26 C
2294 23-10-2016 04:50:00 6.7 C 97 % 6.26 C
2295 23-10-2016 04:55:00 6.7 C 97 % 6.26 C
2296 23-10-2016 05:00:00 6.7 C 97 % 6.26 C
2297 23-10-2016 05:05:00 6.7 C 97 % 6.26 C
2298 23-10-2016 05:10:00 6.7 C 97 % 6.26 C
2299 23-10-2016 05:15:00 6.7 C 97 % 6.26 C
2300 23-10-2016 05:20:00 6.7 C 97 % 6.26 C
Sensor: Nr:Datum:Temp:Feuchte:Taupunkt:
Aussen-T/F 2301 23-10-2016 05:25:00 6.7 C 97 % 6.26 C
2302 23-10-2016 05:30:00 6.7 C 97 % 6.26 C
2303 23-10-2016 05:35:00 6.7 C 97 % 6.26 C
2304 23-10-2016 05:40:00 6.6 C 97 % 6.16 C
2305 23-10-2016 05:45:00 6.6 C 97 % 6.16 C
2306 23-10-2016 05:50:00 6.5 C 97 % 6.06 C
2307 23-10-2016 05:55:00 6.4 C 97 % 5.96 C
2308 23-10-2016 06:00:00 6.4 C 97 % 5.96 C
2309 23-10-2016 06:05:00 6.3 C 97 % 5.86 C
2310 23-10-2016 06:10:00 6.3 C 97 % 5.86 C
2311 23-10-2016 06:15:00 6.3 C 97 % 5.86 C
2312 23-10-2016 06:20:00 6.2 C 97 % 5.76 C
2313 23-10-2016 06:25:00 6.2 C 97 % 5.76 C
2314 23-10-2016 06:30:00 6.2 C 97 % 5.76 C
2315 23-10-2016 06:35:00 6.2 C 97 % 5.76 C
2316 23-10-2016 06:40:00 6.2 C 97 % 5.76 C
2317 23-10-2016 06:45:00 6.2 C 97 % 5.76 C
2318 23-10-2016 06:50:00 6.2 C 97 % 5.76 C
2319 23-10-2016 06:55:00 6.2 C 97 % 5.76 C
2320 23-10-2016 07:00:00 6.2 C 97 % 5.76 C
2321 23-10-2016 07:05:00 6.2 C 97 % 5.76 C
2322 23-10-2016 07:10:00 6.1 C 97 % 5.66 C
2323 23-10-2016 07:15:00 6.1 C 97 % 5.66 C
2324 23-10-2016 07:20:00 5.9 C 97 % 5.46 C
2325 23-10-2016 07:25:00 5.9 C 97 % 5.46 C
Sensor: Nr:Datum:Temp:Feuchte:Taupunkt:
Aussen-T/F 2326 23-10-2016 07:30:00 5.8 C 97 % 5.36 C
2327 23-10-2016 07:35:00 5.8 C 97 % 5.36 C
2328 23-10-2016 07:40:00 5.8 C 97 % 5.36 C
2329 23-10-2016 07:45:00 5.8 C 97 % 5.36 C
2330 23-10-2016 07:50:00 5.8 C 97 % 5.36 C
2331 23-10-2016 07:55:00 5.8 C 97 % 5.36 C
2332 23-10-2016 08:00:00 5.8 C 97 % 5.36 C
2333 23-10-2016 08:05:00 5.8 C 97 % 5.36 C
2334 23-10-2016 08:10:00 5.8 C 97 % 5.36 C
2335 23-10-2016 08:15:00 5.8 C 97 % 5.36 C
2336 23-10-2016 08:20:00 5.8 C 97 % 5.36 C
2337 23-10-2016 08:25:00 5.7 C 97 % 5.26 C
2338 23-10-2016 08:30:00 5.7 C 97 % 5.26 C
2339 23-10-2016 08:35:00 5.7 C 97 % 5.26 C
2340 23-10-2016 08:40:00 5.7 C 97 % 5.26 C
2341 23-10-2016 08:45:00 5.6 C 97 % 5.16 C
2342 23-10-2016 08:50:00 5.6 C 97 % 5.16 C
2343 23-10-2016 08:55:00 5.6 C 97 % 5.16 C
2344 23-10-2016 09:00:00 5.6 C 97 % 5.16 C
2345 23-10-2016 09:05:00 5.6 C 97 % 5.16 C
2346 23-10-2016 09:10:00 5.6 C 97 % 5.16 C
2347 23-10-2016 09:15:00 5.6 C 97 % 5.16 C
2348 23-10-2016 09:20:00 5.6 C 97 % 5.16 C
2349 23-10-2016 09:25:00 5.6 C 97 % 5.16 C
2350 23-10-2016 09:30:00 5.6 C 97 % 5.16 C
Sensor: Nr:Datum:Temp:Feuchte:Taupunkt:
Aussen-T/F 2351 23-10-2016 09:35:00 5.6 C 97 % 5.16 C
2352 23-10-2016 09:40:00 5.6 C 97 % 5.16 C
2353 23-10-2016 09:45:00 5.7 C 97 % 5.26 C
2354 23-10-2016 09:50:00 5.7 C 96 % 5.11 C
2355 23-10-2016 09:55:00 5.7 C 96 % 5.11 C
2356 23-10-2016 10:00:00 5.7 C 96 % 5.11 C
2357 23-10-2016 10:05:00 5.7 C 97 % 5.26 C
2358 23-10-2016 10:10:00 5.7 C 97 % 5.26 C
2359 23-10-2016 10:15:00 5.7 C 96 % 5.11 C
2360 23-10-2016 10:20:00 5.8 C 96 % 5.21 C
2361 23-10-2016 10:25:00 5.8 C 96 % 5.21 C
2362 23-10-2016 10:30:00 5.8 C 96 % 5.21 C
2363 23-10-2016 10:35:00 5.8 C 96 % 5.21 C
2364 23-10-2016 10:40:00 5.8 C 96 % 5.21 C
2365 23-10-2016 10:45:00 5.9 C 96 % 5.31 C
2366 23-10-2016 10:50:00 5.9 C 96 % 5.31 C
2367 23-10-2016 10:55:00 6 C 96 % 5.41 C
2368 23-10-2016 11:00:00 6.1 C 96 % 5.51 C
2369 23-10-2016 11:05:00 6.1 C 96 % 5.51 C
2370 23-10-2016 11:10:00 6.2 C 96 % 5.61 C
2371 23-10-2016 11:15:00 6.3 C 96 % 5.71 C
2372 23-10-2016 11:20:00 6.3 C 95 % 5.56 C
2373 23-10-2016 11:25:00 6.3 C 95 % 5.56 C
2374 23-10-2016 11:30:00 6.4 C 95 % 5.66 C
2375 23-10-2016 11:35:00 6.4 C 95 % 5.66 C
Sensor: Nr:Datum:Temp:Feuchte:Taupunkt:
Aussen-T/F 2376 23-10-2016 11:40:00 6.4 C 95 % 5.66 C
2377 23-10-2016 11:45:00 6.4 C 95 % 5.66 C
2378 23-10-2016 11:50:00 6.5 C 95 % 5.76 C
2379 23-10-2016 11:55:00 6.5 C 95 % 5.76 C
2380 23-10-2016 12:00:00 6.6 C 95 % 5.86 C
2381 23-10-2016 12:05:00 6.7 C 95 % 5.96 C
2382 23-10-2016 12:10:00 6.7 C 95 % 5.96 C
2383 23-10-2016 12:15:00 6.7 C 95 % 5.96 C
2384 23-10-2016 12:20:00 6.8 C 95 % 6.06 C
2385 23-10-2016 12:25:00 6.8 C 95 % 6.06 C
2386 23-10-2016 12:30:00 6.8 C 95 % 6.06 C
2387 23-10-2016 12:35:00 6.8 C 95 % 6.06 C
2388 23-10-2016 12:40:00 6.8 C 94 % 5.9 C
2389 23-10-2016 12:45:00 6.9 C 94 % 6 C
2390 23-10-2016 12:50:00 6.9 C 94 % 6 C
2391 23-10-2016 12:55:00 6.9 C 94 % 6 C
2392 23-10-2016 13:00:00 6.9 C 94 % 6 C
2393 23-10-2016 13:05:00 6.9 C 94 % 6 C
2394 23-10-2016 13:10:00 6.8 C 93 % 5.75 C
2395 23-10-2016 13:15:00 6.8 C 93 % 5.75 C
2396 23-10-2016 13:20:00 6.8 C 94 % 5.9 C
2397 23-10-2016 13:25:00 6.8 C 93 % 5.75 C
2398 23-10-2016 13:30:00 6.9 C 94 % 6 C
2399 23-10-2016 13:35:00 6.9 C 94 % 6 C
2400 23-10-2016 13:40:00 7 C 94 % 6.1 C
Sensor: Nr:Datum:Temp:Feuchte:Taupunkt:
Aussen-T/F 2401 23-10-2016 13:45:00 7.1 C 93 % 6.05 C
2402 23-10-2016 13:50:00 7 C 93 % 5.95 C
2403 23-10-2016 13:55:00 7.1 C 94 % 6.2 C
2404 23-10-2016 14:00:00 7.2 C 93 % 6.15 C
2405 23-10-2016 14:05:00 7.3 C 94 % 6.4 C
2406 23-10-2016 14:10:00 7.4 C 93 % 6.34 C
2407 23-10-2016 14:15:00 7.4 C 93 % 6.34 C
2408 23-10-2016 14:20:00 7.5 C 92 % 6.29 C
2409 23-10-2016 14:25:00 7.5 C 92 % 6.29 C
2410 23-10-2016 14:30:00 7.6 C 92 % 6.39 C
2411 23-10-2016 14:35:00 7.6 C 92 % 6.39 C
2412 23-10-2016 14:40:00 7.6 C 92 % 6.39 C
2413 23-10-2016 14:45:00 7.6 C 92 % 6.39 C
2414 23-10-2016 14:50:00 7.7 C 92 % 6.48 C
2415 23-10-2016 14:55:00 7.7 C 92 % 6.48 C
2416 23-10-2016 15:00:00 7.7 C 91 % 6.33 C
2417 23-10-2016 15:05:00 7.8 C 92 % 6.58 C
2418 23-10-2016 15:10:00 7.8 C 92 % 6.58 C
2419 23-10-2016 15:15:00 7.9 C 91 % 6.52 C
2420 23-10-2016 15:20:00 7.9 C 91 % 6.52 C
2421 23-10-2016 15:25:00 8 C 92 % 6.78 C
2422 23-10-2016 15:30:00 8 C 91 % 6.62 C
2423 23-10-2016 15:35:00 8.1 C 91 % 6.72 C
2424 23-10-2016 15:40:00 8.1 C 91 % 6.72 C
2425 23-10-2016 15:45:00 8.1 C 91 % 6.72 C
Sensor: Nr:Datum:Temp:Feuchte:Taupunkt:
Aussen-T/F 2426 23-10-2016 15:50:00 8.2 C 92 % 6.98 C
2427 23-10-2016 15:55:00 8.2 C 91 % 6.82 C
2428 23-10-2016 16:00:00 8.3 C 91 % 6.92 C
2429 23-10-2016 16:05:00 8.3 C 91 % 6.92 C
2430 23-10-2016 16:10:00 8.2 C 91 % 6.82 C
2431 23-10-2016 16:15:00 8.3 C 91 % 6.92 C
2432 23-10-2016 16:20:00 8.3 C 92 % 7.08 C
2433 23-10-2016 16:25:00 8.4 C 91 % 7.02 C
2434 23-10-2016 16:30:00 8.5 C 91 % 7.12 C
2435 23-10-2016 16:35:00 8.6 C 91 % 7.22 C
2436 23-10-2016 16:40:00 8.6 C 91 % 7.22 C
2437 23-10-2016 16:45:00 8.7 C 91 % 7.32 C
2438 23-10-2016 16:50:00 8.7 C 92 % 7.47 C
2439 23-10-2016 16:55:00 8.7 C 91 % 7.32 C
2440 23-10-2016 17:00:00 8.7 C 91 % 7.32 C
2441 23-10-2016 17:05:00 8.7 C 92 % 7.47 C
2442 23-10-2016 17:10:00 8.8 C 92 % 7.57 C
2443 23-10-2016 17:15:00 8.8 C 92 % 7.57 C
2444 23-10-2016 17:20:00 8.8 C 92 % 7.57 C
2445 23-10-2016 17:25:00 8.8 C 93 % 7.73 C
2446 23-10-2016 17:30:00 8.8 C 92 % 7.57 C
2447 23-10-2016 17:35:00 8.7 C 93 % 7.63 C
2448 23-10-2016 17:40:00 8.7 C 93 % 7.63 C
2449 23-10-2016 17:45:00 8.7 C 93 % 7.63 C
2450 23-10-2016 17:50:00 8.7 C 93 % 7.63 C
Sensor: Nr:Datum:Temp:Feuchte:Taupunkt:
Aussen-T/F 2451 23-10-2016 17:55:00 8.6 C 93 % 7.53 C
2452 23-10-2016 18:00:00 8.6 C 93 % 7.53 C
2453 23-10-2016 18:05:00 8.6 C 94 % 7.69 C
2454 23-10-2016 18:10:00 8.5 C 94 % 7.59 C
2455 23-10-2016 18:15:00 8.5 C 94 % 7.59 C
2456 23-10-2016 18:20:00 8.4 C 94 % 7.49 C
2457 23-10-2016 18:25:00 8.4 C 94 % 7.49 C
2458 23-10-2016 18:30:00 8.3 C 94 % 7.39 C
2459 23-10-2016 18:35:00 8.2 C 94 % 7.29 C
2460 23-10-2016 18:40:00 8.2 C 94 % 7.29 C
2461 23-10-2016 18:45:00 8.1 C 94 % 7.19 C
2462 23-10-2016 18:50:00 8.1 C 94 % 7.19 C
2463 23-10-2016 18:55:00 8 C 94 % 7.09 C
2464 23-10-2016 19:00:00 7.9 C 94 % 7 C
2465 23-10-2016 19:05:00 7.9 C 94 % 7 C
2466 23-10-2016 19:10:00 7.9 C 94 % 7 C
2467 23-10-2016 19:15:00 7.8 C 94 % 6.9 C
2468 23-10-2016 19:20:00 7.8 C 94 % 6.9 C
2469 23-10-2016 19:25:00 7.8 C 95 % 7.05 C
2470 23-10-2016 19:30:00 7.7 C 95 % 6.95 C
2471 23-10-2016 19:35:00 7.7 C 95 % 6.95 C
2472 23-10-2016 19:40:00 7.6 C 95 % 6.85 C
2473 23-10-2016 19:45:00 7.5 C 94 % 6.6 C
2474 23-10-2016 19:50:00 7.4 C 94 % 6.5 C
2475 23-10-2016 19:55:00 7.3 C 95 % 6.55 C
Sensor: Nr:Datum:Temp:Feuchte:Taupunkt:
Aussen-T/F 2476 23-10-2016 20:00:00 7.2 C 95 % 6.45 C
2477 23-10-2016 20:05:00 7.2 C 95 % 6.45 C
2478 23-10-2016 20:10:00 7.1 C 95 % 6.35 C
2479 23-10-2016 20:15:00 7.1 C 95 % 6.35 C
2480 23-10-2016 20:20:00 7.1 C 95 % 6.35 C
2481 23-10-2016 20:25:00 7.1 C 95 % 6.35 C
2482 23-10-2016 20:30:00 7 C 95 % 6.26 C
2483 23-10-2016 20:35:00 7 C 95 % 6.26 C
2484 23-10-2016 20:40:00 6.9 C 95 % 6.16 C
2485 23-10-2016 20:45:00 6.9 C 95 % 6.16 C
2486 23-10-2016 20:50:00 6.9 C 95 % 6.16 C
2487 23-10-2016 20:55:00 6.9 C 95 % 6.16 C
2488 23-10-2016 21:00:00 6.9 C 95 % 6.16 C
2489 23-10-2016 21:05:00 6.9 C 95 % 6.16 C
2490 23-10-2016 21:10:00 6.9 C 96 % 6.31 C
2491 23-10-2016 21:15:00 6.9 C 96 % 6.31 C
2492 23-10-2016 21:20:00 6.8 C 96 % 6.21 C
2493 23-10-2016 21:25:00 6.8 C 96 % 6.21 C
2494 23-10-2016 21:30:00 6.8 C 96 % 6.21 C
2495 23-10-2016 21:35:00 6.8 C 96 % 6.21 C
2496 23-10-2016 21:40:00 6.8 C 96 % 6.21 C
2497 23-10-2016 21:45:00 6.8 C 96 % 6.21 C
2498 23-10-2016 21:50:00 6.8 C 96 % 6.21 C
2499 23-10-2016 21:55:00 6.8 C 96 % 6.21 C
2500 23-10-2016 22:00:00 6.8 C 96 % 6.21 C
Sensor: Nr:Datum:Temp:Feuchte:Taupunkt:
Aussen-T/F 2501 23-10-2016 22:05:00 6.8 C 96 % 6.21 C
2502 23-10-2016 22:10:00 6.9 C 96 % 6.31 C
2503 23-10-2016 22:15:00 6.9 C 96 % 6.31 C
2504 23-10-2016 22:20:00 6.9 C 96 % 6.31 C
2505 23-10-2016 22:25:00 6.9 C 96 % 6.31 C
2506 23-10-2016 22:30:00 6.9 C 96 % 6.31 C
2507 23-10-2016 22:35:00 6.9 C 96 % 6.31 C
2508 23-10-2016 22:40:00 6.9 C 96 % 6.31 C
2509 23-10-2016 22:45:00 6.9 C 96 % 6.31 C
2510 23-10-2016 22:50:00 6.9 C 96 % 6.31 C
2511 23-10-2016 22:55:00 7 C 96 % 6.41 C
2512 23-10-2016 23:00:00 7 C 96 % 6.41 C
2513 23-10-2016 23:05:00 7.1 C 96 % 6.51 C
2514 23-10-2016 23:10:00 7.1 C 96 % 6.51 C
2515 23-10-2016 23:15:00 7.1 C 96 % 6.51 C
2516 23-10-2016 23:20:00 7.1 C 96 % 6.51 C
2517 23-10-2016 23:25:00 7.1 C 96 % 6.51 C
2518 23-10-2016 23:30:00 7.1 C 96 % 6.51 C
2519 23-10-2016 23:35:00 7.2 C 96 % 6.61 C
2520 23-10-2016 23:40:00 7.2 C 96 % 6.61 C
2521 23-10-2016 23:45:00 7.2 C 96 % 6.61 C
2522 23-10-2016 23:50:00 7.2 C 96 % 6.61 C
2523 23-10-2016 23:55:00 7.3 C 96 % 6.71 C
2524 24-10-2016 00:00:00 7.3 C 96 % 6.71 C
2525 24-10-2016 00:05:00 7.3 C 96 % 6.71 C
Sensor: Nr:Datum:Temp:Feuchte:Taupunkt:
Aussen-T/F 2526 24-10-2016 00:10:00 7.3 C 96 % 6.71 C
2527 24-10-2016 00:15:00 7.3 C 97 % 6.86 C
2528 24-10-2016 00:20:00 7.4 C 97 % 6.96 C
2529 24-10-2016 00:25:00 7.4 C 97 % 6.96 C
2530 24-10-2016 00:30:00 7.4 C 97 % 6.96 C
2531 24-10-2016 00:35:00 7.4 C 97 % 6.96 C
2532 24-10-2016 00:40:00 7.4 C 97 % 6.96 C
2533 24-10-2016 00:45:00 7.4 C 97 % 6.96 C
2534 24-10-2016 00:50:00 7.4 C 97 % 6.96 C
2535 24-10-2016 00:55:00 7.4 C 97 % 6.96 C
2536 24-10-2016 01:00:00 7.4 C 97 % 6.96 C
2537 24-10-2016 01:05:00 7.5 C 97 % 7.06 C
2538 24-10-2016 01:10:00 7.6 C 97 % 7.16 C
2539 24-10-2016 01:15:00 7.6 C 97 % 7.16 C
2540 24-10-2016 01:20:00 7.6 C 97 % 7.16 C
2541 24-10-2016 01:25:00 7.6 C 97 % 7.16 C
2542 24-10-2016 01:30:00 7.6 C 97 % 7.16 C
2543 24-10-2016 01:35:00 7.6 C 97 % 7.16 C
2544 24-10-2016 01:40:00 7.6 C 97 % 7.16 C
2545 24-10-2016 01:45:00 7.5 C 97 % 7.06 C
2546 24-10-2016 01:50:00 7.6 C 97 % 7.16 C
2547 24-10-2016 01:55:00 7.6 C 97 % 7.16 C
2548 24-10-2016 02:00:00 7.6 C 97 % 7.16 C
2549 24-10-2016 02:05:00 7.6 C 97 % 7.16 C
2550 24-10-2016 02:10:00 7.6 C 97 % 7.16 C
Sensor: Nr:Datum:Temp:Feuchte:Taupunkt:
Aussen-T/F 2551 24-10-2016 02:15:00 7.6 C 97 % 7.16 C
2552 24-10-2016 02:20:00 7.6 C 97 % 7.16 C
2553 24-10-2016 02:25:00 7.6 C 97 % 7.16 C
2554 24-10-2016 02:30:00 7.6 C 97 % 7.16 C
2555 24-10-2016 02:35:00 7.6 C 97 % 7.16 C
2556 24-10-2016 02:40:00 7.6 C 97 % 7.16 C
2557 24-10-2016 02:45:00 7.6 C 97 % 7.16 C
2558 24-10-2016 02:50:00 7.6 C 97 % 7.16 C
2559 24-10-2016 02:55:00 7.6 C 97 % 7.16 C
2560 24-10-2016 03:00:00 7.6 C 97 % 7.16 C
2561 24-10-2016 03:05:00 7.6 C 97 % 7.16 C
2562 24-10-2016 03:10:00 7.6 C 97 % 7.16 C
2563 24-10-2016 03:15:00 7.7 C 97 % 7.25 C
2564 24-10-2016 03:20:00 7.7 C 97 % 7.25 C
2565 24-10-2016 03:25:00 7.7 C 97 % 7.25 C
2566 24-10-2016 03:30:00 7.7 C 97 % 7.25 C
2567 24-10-2016 03:35:00 7.7 C 97 % 7.25 C
2568 24-10-2016 03:40:00 7.8 C 97 % 7.35 C
2569 24-10-2016 03:45:00 7.8 C 97 % 7.35 C
2570 24-10-2016 03:50:00 7.8 C 97 % 7.35 C
2571 24-10-2016 03:55:00 7.8 C 97 % 7.35 C
2572 24-10-2016 04:00:00 7.8 C 97 % 7.35 C
2573 24-10-2016 04:05:00 7.8 C 97 % 7.35 C
2574 24-10-2016 04:10:00 7.8 C 97 % 7.35 C
2575 24-10-2016 04:15:00 7.8 C 97 % 7.35 C
Sensor: Nr:Datum:Temp:Feuchte:Taupunkt:
Aussen-T/F 2576 24-10-2016 04:20:00 7.8 C 97 % 7.35 C
2577 24-10-2016 04:25:00 7.9 C 97 % 7.45 C
2578 24-10-2016 04:30:00 7.9 C 97 % 7.45 C
2579 24-10-2016 04:35:00 7.9 C 97 % 7.45 C
2580 24-10-2016 04:40:00 7.9 C 97 % 7.45 C
2581 24-10-2016 04:45:00 7.9 C 97 % 7.45 C
2582 24-10-2016 04:50:00 8 C 97 % 7.55 C
2583 24-10-2016 04:55:00 8.1 C 97 % 7.65 C
2584 24-10-2016 05:00:00 8.1 C 97 % 7.65 C
2585 24-10-2016 05:05:00 8.1 C 97 % 7.65 C
2586 24-10-2016 05:10:00 8.1 C 97 % 7.65 C
2587 24-10-2016 05:15:00 8.1 C 97 % 7.65 C
2588 24-10-2016 05:20:00 8.1 C 97 % 7.65 C
2589 24-10-2016 05:25:00 8.1 C 97 % 7.65 C
2590 24-10-2016 05:30:00 8.1 C 97 % 7.65 C
2591 24-10-2016 05:35:00 8.1 C 97 % 7.65 C
2592 24-10-2016 05:40:00 8.1 C 97 % 7.65 C
2593 24-10-2016 05:45:00 8.1 C 97 % 7.65 C
2594 24-10-2016 05:50:00 8.1 C 97 % 7.65 C
2595 24-10-2016 05:55:00 8.1 C 97 % 7.65 C
2596 24-10-2016 06:00:00 8.2 C 97 % 7.75 C
2597 24-10-2016 06:05:00 8.2 C 97 % 7.75 C
2598 24-10-2016 06:10:00 8.2 C 97 % 7.75 C
2599 24-10-2016 06:15:00 8.2 C 97 % 7.75 C
2600 24-10-2016 06:20:00 8.2 C 97 % 7.75 C
Sensor: Nr:Datum:Temp:Feuchte:Taupunkt:
Aussen-T/F 2601 24-10-2016 06:25:00 8.2 C 97 % 7.75 C
2602 24-10-2016 06:30:00 8.2 C 97 % 7.75 C
2603 24-10-2016 06:35:00 8.2 C 97 % 7.75 C
2604 24-10-2016 06:40:00 8.2 C 97 % 7.75 C
2605 24-10-2016 06:45:00 8.2 C 97 % 7.75 C
2606 24-10-2016 06:50:00 8.2 C 97 % 7.75 C
2607 24-10-2016 06:55:00 8.2 C 97 % 7.75 C
2608 24-10-2016 07:00:00 8.3 C 97 % 7.85 C
2609 24-10-2016 07:05:00 8.3 C 97 % 7.85 C
2610 24-10-2016 07:10:00 8.3 C 97 % 7.85 C
2611 24-10-2016 07:15:00 8.3 C 97 % 7.85 C
2612 24-10-2016 07:20:00 8.3 C 97 % 7.85 C
2613 24-10-2016 07:25:00 8.3 C 97 % 7.85 C
2614 24-10-2016 07:30:00 8.3 C 97 % 7.85 C
2615 24-10-2016 07:35:00 8.3 C 97 % 7.85 C
2616 24-10-2016 07:40:00 8.3 C 97 % 7.85 C
2617 24-10-2016 07:45:00 8.3 C 97 % 7.85 C
2618 24-10-2016 07:50:00 8.3 C 97 % 7.85 C
2619 24-10-2016 07:55:00 8.3 C 97 % 7.85 C
2620 24-10-2016 08:00:00 8.3 C 97 % 7.85 C
2621 24-10-2016 08:05:00 8.3 C 97 % 7.85 C
2622 24-10-2016 08:10:00 8.3 C 97 % 7.85 C
2623 24-10-2016 08:15:00 8.3 C 97 % 7.85 C
2624 24-10-2016 08:20:00 8.3 C 97 % 7.85 C
2625 24-10-2016 08:25:00 8.3 C 97 % 7.85 C
Sensor: Nr:Datum:Temp:Feuchte:Taupunkt:
Aussen-T/F 2626 24-10-2016 08:30:00 8.3 C 97 % 7.85 C
2627 24-10-2016 08:35:00 8.3 C 97 % 7.85 C
2628 24-10-2016 08:40:00 8.4 C 97 % 7.95 C
2629 24-10-2016 08:45:00 8.4 C 97 % 7.95 C
2630 24-10-2016 08:50:00 8.4 C 97 % 7.95 C
2631 24-10-2016 08:55:00 8.4 C 97 % 7.95 C
2632 24-10-2016 09:00:00 8.5 C 97 % 8.05 C
2633 24-10-2016 09:05:00 8.5 C 97 % 8.05 C
2634 24-10-2016 09:10:00 8.6 C 97 % 8.15 C
2635 24-10-2016 09:15:00 8.6 C 97 % 8.15 C
2636 24-10-2016 09:20:00 8.6 C 97 % 8.15 C
2637 24-10-2016 09:25:00 8.6 C 97 % 8.15 C
2638 24-10-2016 09:30:00 8.6 C 97 % 8.15 C
2639 24-10-2016 09:35:00 8.7 C 97 % 8.25 C
2640 24-10-2016 09:40:00 8.7 C 97 % 8.25 C
2641 24-10-2016 09:45:00 8.7 C 97 % 8.25 C
2642 24-10-2016 09:50:00 8.7 C 97 % 8.25 C
2643 24-10-2016 09:55:00 8.8 C 97 % 8.35 C
2644 24-10-2016 10:00:00 8.8 C 97 % 8.35 C
2645 24-10-2016 10:05:00 8.8 C 97 % 8.35 C
2646 24-10-2016 10:10:00 8.9 C 97 % 8.45 C
2647 24-10-2016 10:15:00 8.9 C 97 % 8.45 C
2648 24-10-2016 10:20:00 9.1 C 97 % 8.65 C
2649 24-10-2016 10:25:00 9.1 C 97 % 8.65 C
2650 24-10-2016 10:30:00 9.2 C 97 % 8.75 C
Sensor: Nr:Datum:Temp:Feuchte:Taupunkt:
Aussen-T/F 2651 24-10-2016 10:35:00 9.2 C 97 % 8.75 C
2652 24-10-2016 10:40:00 9.2 C 97 % 8.75 C
2653 24-10-2016 10:45:00 9.3 C 97 % 8.85 C
2654 24-10-2016 10:50:00 9.3 C 97 % 8.85 C
2655 24-10-2016 10:55:00 9.3 C 97 % 8.85 C
2656 24-10-2016 11:00:00 9.4 C 97 % 8.95 C
2657 24-10-2016 11:05:00 9.5 C 97 % 9.05 C
2658 24-10-2016 11:10:00 9.6 C 98 % 9.3 C
2659 24-10-2016 11:15:00 9.6 C 97 % 9.15 C
2660 24-10-2016 11:20:00 9.6 C 97 % 9.15 C
2661 24-10-2016 11:25:00 9.6 C 97 % 9.15 C
2662 24-10-2016 11:30:00 9.6 C 97 % 9.15 C
2663 24-10-2016 11:35:00 9.6 C 97 % 9.15 C
2664 24-10-2016 11:40:00 9.6 C 97 % 9.15 C
2665 24-10-2016 11:45:00 9.6 C 97 % 9.15 C
2666 24-10-2016 11:50:00 9.7 C 97 % 9.25 C
2667 24-10-2016 11:55:00 9.7 C 97 % 9.25 C
2668 24-10-2016 12:00:00 9.7 C 97 % 9.25 C
2669 24-10-2016 12:05:00 9.7 C 97 % 9.25 C
2670 24-10-2016 12:10:00 9.7 C 97 % 9.25 C
2671 24-10-2016 12:15:00 9.8 C 97 % 9.35 C
2672 24-10-2016 12:20:00 9.9 C 97 % 9.45 C
2673 24-10-2016 12:25:00 9.9 C 97 % 9.45 C
2674 24-10-2016 12:30:00 9.9 C 97 % 9.45 C
2675 24-10-2016 12:35:00 9.9 C 97 % 9.45 C
Sensor: Nr:Datum:Temp:Feuchte:Taupunkt:
Aussen-T/F 2676 24-10-2016 12:40:00 10 C 97 % 9.55 C
2677 24-10-2016 12:45:00 10 C 97 % 9.55 C
2678 24-10-2016 12:50:00 10.1 C 97 % 9.65 C
2679 24-10-2016 12:55:00 10.1 C 97 % 9.65 C
2680 24-10-2016 13:00:00 10.1 C 97 % 9.65 C
2681 24-10-2016 13:05:00 10.1 C 97 % 9.65 C
2682 24-10-2016 13:10:00 10.1 C 97 % 9.65 C
2683 24-10-2016 13:15:00 10.1 C 97 % 9.65 C
2684 24-10-2016 13:20:00 10.2 C 97 % 9.75 C
2685 24-10-2016 13:25:00 10.2 C 97 % 9.75 C
2686 24-10-2016 13:30:00 10.2 C 97 % 9.75 C
2687 24-10-2016 13:35:00 10.3 C 97 % 9.85 C
2688 24-10-2016 13:40:00 10.3 C 97 % 9.85 C
2689 24-10-2016 13:45:00 10.3 C 97 % 9.85 C
2690 24-10-2016 13:50:00 10.3 C 97 % 9.85 C
2691 24-10-2016 13:55:00 10.3 C 97 % 9.85 C
2692 24-10-2016 14:00:00 10.4 C 97 % 9.94 C
2693 24-10-2016 14:05:00 10.4 C 97 % 9.94 C
2694 24-10-2016 14:10:00 10.4 C 97 % 9.94 C
2695 24-10-2016 14:15:00 10.4 C 97 % 9.94 C
2696 24-10-2016 14:20:00 10.4 C 97 % 9.94 C
2697 24-10-2016 14:25:00 10.5 C 97 % 10.04 C
2698 24-10-2016 14:30:00 10.5 C 97 % 10.04 C
2699 24-10-2016 14:35:00 10.6 C 97 % 10.14 C
2700 24-10-2016 14:40:00 10.6 C 97 % 10.14 C
Sensor: Nr:Datum:Temp:Feuchte:Taupunkt:
Aussen-T/F 2701 24-10-2016 14:45:00 10.5 C 97 % 10.04 C
2702 24-10-2016 14:50:00 10.6 C 97 % 10.14 C
2703 24-10-2016 14:55:00 10.6 C 97 % 10.14 C
2704 24-10-2016 15:00:00 10.6 C 97 % 10.14 C
2705 24-10-2016 15:05:00 10.6 C 97 % 10.14 C
2706 24-10-2016 15:10:00 10.7 C 97 % 10.24 C
2707 24-10-2016 15:15:00 10.7 C 97 % 10.24 C
2708 24-10-2016 15:20:00 10.7 C 97 % 10.24 C
2709 24-10-2016 15:25:00 10.7 C 97 % 10.24 C
2710 24-10-2016 15:30:00 10.7 C 97 % 10.24 C
2711 24-10-2016 15:35:00 10.7 C 97 % 10.24 C
2712 24-10-2016 15:40:00 10.8 C 97 % 10.34 C
2713 24-10-2016 15:45:00 10.8 C 97 % 10.34 C
2714 24-10-2016 15:50:00 10.8 C 97 % 10.34 C
2715 24-10-2016 15:55:00 10.8 C 97 % 10.34 C
2716 24-10-2016 16:00:00 10.9 C 97 % 10.44 C
2717 24-10-2016 16:05:00 11 C 97 % 10.54 C
2718 24-10-2016 16:10:00 11 C 97 % 10.54 C
2719 24-10-2016 16:15:00 11 C 97 % 10.54 C
2720 24-10-2016 16:20:00 11 C 97 % 10.54 C
2721 24-10-2016 16:25:00 11.1 C 97 % 10.64 C
2722 24-10-2016 16:30:00 11.1 C 97 % 10.64 C
2723 24-10-2016 16:35:00 11.1 C 97 % 10.64 C
2724 24-10-2016 16:40:00 11.1 C 97 % 10.64 C
2725 24-10-2016 16:45:00 11.1 C 97 % 10.64 C
Sensor: Nr:Datum:Temp:Feuchte:Taupunkt:
Aussen-T/F 2726 24-10-2016 16:50:00 11.1 C 97 % 10.64 C
2727 24-10-2016 16:55:00 11.1 C 97 % 10.64 C
2728 24-10-2016 17:00:00 11.1 C 97 % 10.64 C
2729 24-10-2016 17:05:00 11 C 97 % 10.54 C
2730 24-10-2016 17:10:00 11 C 97 % 10.54 C
2731 24-10-2016 17:15:00 10.9 C 97 % 10.44 C
2732 24-10-2016 17:20:00 10.9 C 97 % 10.44 C
2733 24-10-2016 17:25:00 10.9 C 97 % 10.44 C
2734 24-10-2016 17:30:00 10.9 C 97 % 10.44 C
2735 24-10-2016 17:35:00 10.9 C 97 % 10.44 C
2736 24-10-2016 17:40:00 10.9 C 97 % 10.44 C
2737 24-10-2016 17:45:00 10.9 C 97 % 10.44 C
2738 24-10-2016 17:50:00 10.9 C 97 % 10.44 C
2739 24-10-2016 17:55:00 10.9 C 97 % 10.44 C
2740 24-10-2016 18:00:00 10.8 C 97 % 10.34 C
2741 24-10-2016 18:05:00 10.8 C 97 % 10.34 C
2742 24-10-2016 18:10:00 10.8 C 97 % 10.34 C
2743 24-10-2016 18:15:00 10.8 C 97 % 10.34 C
2744 24-10-2016 18:20:00 10.8 C 97 % 10.34 C
2745 24-10-2016 18:25:00 10.7 C 97 % 10.24 C
2746 24-10-2016 18:30:00 10.7 C 97 % 10.24 C
2747 24-10-2016 18:35:00 10.7 C 97 % 10.24 C
2748 24-10-2016 18:40:00 10.7 C 97 % 10.24 C
2749 24-10-2016 18:45:00 10.7 C 97 % 10.24 C
2750 24-10-2016 18:50:00 10.7 C 97 % 10.24 C
Sensor: Nr:Datum:Temp:Feuchte:Taupunkt:
Aussen-T/F 2751 24-10-2016 18:55:00 10.7 C 97 % 10.24 C
2752 24-10-2016 19:00:00 10.7 C 97 % 10.24 C
2753 24-10-2016 19:05:00 10.7 C 97 % 10.24 C
2754 24-10-2016 19:10:00 10.7 C 97 % 10.24 C
2755 24-10-2016 19:15:00 10.6 C 97 % 10.14 C
2756 24-10-2016 19:20:00 10.6 C 97 % 10.14 C
2757 24-10-2016 19:25:00 10.6 C 97 % 10.14 C
2758 24-10-2016 19:30:00 10.6 C 97 % 10.14 C
2759 24-10-2016 19:35:00 10.6 C 97 % 10.14 C
2760 24-10-2016 19:40:00 10.6 C 97 % 10.14 C
2761 24-10-2016 19:45:00 10.5 C 97 % 10.04 C
2762 24-10-2016 19:50:00 10.5 C 97 % 10.04 C
2763 24-10-2016 19:55:00 10.4 C 97 % 9.94 C
2764 24-10-2016 20:00:00 10.4 C 97 % 9.94 C
2765 24-10-2016 20:05:00 10.4 C 97 % 9.94 C
2766 24-10-2016 20:10:00 10.3 C 97 % 9.85 C
2767 24-10-2016 20:15:00 10.3 C 97 % 9.85 C
2768 24-10-2016 20:20:00 10.3 C 97 % 9.85 C
2769 24-10-2016 20:25:00 10.3 C 97 % 9.85 C
2770 24-10-2016 20:30:00 10.3 C 97 % 9.85 C
2771 24-10-2016 20:35:00 10.3 C 97 % 9.85 C
2772 24-10-2016 20:40:00 10.3 C 97 % 9.85 C
2773 24-10-2016 20:45:00 10.3 C 97 % 9.85 C
2774 24-10-2016 20:50:00 10.3 C 97 % 9.85 C
2775 24-10-2016 20:55:00 10.3 C 97 % 9.85 C
Sensor: Nr:Datum:Temp:Feuchte:Taupunkt:
Aussen-T/F 2776 24-10-2016 21:00:00 10.4 C 97 % 9.94 C
2777 24-10-2016 21:05:00 10.4 C 97 % 9.94 C
2778 24-10-2016 21:10:00 10.4 C 97 % 9.94 C
2779 24-10-2016 21:15:00 10.4 C 97 % 9.94 C
2780 24-10-2016 21:20:00 10.4 C 97 % 9.94 C
2781 24-10-2016 21:25:00 10.4 C 97 % 9.94 C
2782 24-10-2016 21:30:00 10.4 C 97 % 9.94 C
2783 24-10-2016 21:35:00 10.4 C 97 % 9.94 C
2784 24-10-2016 21:40:00 10.5 C 97 % 10.04 C
2785 24-10-2016 21:45:00 10.5 C 97 % 10.04 C
2786 24-10-2016 21:50:00 10.5 C 97 % 10.04 C
2787 24-10-2016 21:55:00 10.5 C 97 % 10.04 C
2788 24-10-2016 22:00:00 10.6 C 97 % 10.14 C
2789 24-10-2016 22:05:00 10.6 C 97 % 10.14 C
2790 24-10-2016 22:10:00 10.6 C 97 % 10.14 C
2791 24-10-2016 22:15:00 10.6 C 97 % 10.14 C
2792 24-10-2016 22:20:00 10.7 C 97 % 10.24 C
2793 24-10-2016 22:25:00 10.7 C 97 % 10.24 C
2794 24-10-2016 22:30:00 10.7 C 97 % 10.24 C
2795 24-10-2016 22:35:00 10.7 C 97 % 10.24 C
2796 24-10-2016 22:40:00 10.7 C 97 % 10.24 C
2797 24-10-2016 22:45:00 10.7 C 97 % 10.24 C
2798 24-10-2016 22:50:00 10.6 C 97 % 10.14 C
2799 24-10-2016 22:55:00 10.6 C 97 % 10.14 C
2800 24-10-2016 23:00:00 10.6 C 97 % 10.14 C
Sensor: Nr:Datum:Temp:Feuchte:Taupunkt:
Aussen-T/F 2801 24-10-2016 23:05:00 10.6 C 97 % 10.14 C
2802 24-10-2016 23:10:00 10.6 C 97 % 10.14 C
2803 24-10-2016 23:15:00 10.7 C 97 % 10.24 C
2804 24-10-2016 23:20:00 10.7 C 97 % 10.24 C
2805 24-10-2016 23:25:00 10.7 C 97 % 10.24 C
2806 24-10-2016 23:30:00 10.7 C 97 % 10.24 C
2807 24-10-2016 23:35:00 10.7 C 97 % 10.24 C
2808 24-10-2016 23:40:00 10.7 C 97 % 10.24 C
2809 24-10-2016 23:45:00 10.7 C 97 % 10.24 C
2810 24-10-2016 23:50:00 10.7 C 97 % 10.24 C
2811 24-10-2016 23:55:00 10.6 C 97 % 10.14 C
2812 25-10-2016 00:00:00 10.6 C 97 % 10.14 C
2813 25-10-2016 00:05:00 10.6 C 97 % 10.14 C
2814 25-10-2016 00:10:00 10.6 C 97 % 10.14 C
2815 25-10-2016 00:15:00 10.6 C 97 % 10.14 C
2816 25-10-2016 00:20:00 10.6 C 97 % 10.14 C
2817 25-10-2016 00:25:00 10.6 C 97 % 10.14 C
2818 25-10-2016 00:30:00 10.6 C 97 % 10.14 C
2819 25-10-2016 00:35:00 10.6 C 97 % 10.14 C
2820 25-10-2016 00:40:00 10.6 C 97 % 10.14 C
2821 25-10-2016 00:45:00 10.6 C 97 % 10.14 C
2822 25-10-2016 00:50:00 10.6 C 97 % 10.14 C
2823 25-10-2016 00:55:00 10.6 C 97 % 10.14 C
2824 25-10-2016 01:00:00 10.7 C 97 % 10.24 C
2825 25-10-2016 01:05:00 10.7 C 97 % 10.24 C
Sensor: Nr:Datum:Temp:Feuchte:Taupunkt:
Aussen-T/F 2826 25-10-2016 01:10:00 10.7 C 97 % 10.24 C
2827 25-10-2016 01:15:00 10.7 C 97 % 10.24 C
2828 25-10-2016 01:20:00 10.7 C 97 % 10.24 C
2829 25-10-2016 01:25:00 10.7 C 97 % 10.24 C
2830 25-10-2016 01:30:00 10.7 C 97 % 10.24 C
2831 25-10-2016 01:35:00 10.7 C 97 % 10.24 C
2832 25-10-2016 01:40:00 10.7 C 97 % 10.24 C
2833 25-10-2016 01:45:00 10.6 C 97 % 10.14 C
2834 25-10-2016 01:50:00 10.7 C 97 % 10.24 C
2835 25-10-2016 01:55:00 10.7 C 97 % 10.24 C
2836 25-10-2016 02:00:00 10.6 C 97 % 10.14 C
2837 25-10-2016 02:05:00 10.7 C 97 % 10.24 C
2838 25-10-2016 02:10:00 10.7 C 97 % 10.24 C
2839 25-10-2016 02:15:00 10.7 C 97 % 10.24 C
2840 25-10-2016 02:20:00 10.7 C 97 % 10.24 C
2841 25-10-2016 02:25:00 10.7 C 97 % 10.24 C
2842 25-10-2016 02:30:00 10.7 C 97 % 10.24 C
2843 25-10-2016 02:35:00 10.7 C 97 % 10.24 C
2844 25-10-2016 02:40:00 10.7 C 97 % 10.24 C
2845 25-10-2016 02:45:00 10.7 C 97 % 10.24 C
2846 25-10-2016 02:50:00 10.7 C 97 % 10.24 C
2847 25-10-2016 02:55:00 10.7 C 97 % 10.24 C
2848 25-10-2016 03:00:00 10.7 C 97 % 10.24 C
2849 25-10-2016 03:05:00 10.7 C 97 % 10.24 C
2850 25-10-2016 03:10:00 10.7 C 97 % 10.24 C
Sensor: Nr:Datum:Temp:Feuchte:Taupunkt:
Aussen-T/F 2851 25-10-2016 03:15:00 10.8 C 97 % 10.34 C
2852 25-10-2016 03:20:00 10.8 C 97 % 10.34 C
2853 25-10-2016 03:25:00 10.8 C 97 % 10.34 C
2854 25-10-2016 03:30:00 10.8 C 97 % 10.34 C
2855 25-10-2016 03:35:00 10.8 C 97 % 10.34 C
2856 25-10-2016 03:40:00 10.8 C 97 % 10.34 C
2857 25-10-2016 03:45:00 10.8 C 97 % 10.34 C
2858 25-10-2016 03:50:00 10.8 C 97 % 10.34 C
2859 25-10-2016 03:55:00 10.8 C 97 % 10.34 C
2860 25-10-2016 04:00:00 10.8 C 97 % 10.34 C
2861 25-10-2016 04:05:00 10.8 C 97 % 10.34 C
2862 25-10-2016 04:10:00 10.8 C 98 % 10.5 C
2863 25-10-2016 04:15:00 10.8 C 98 % 10.5 C
2864 25-10-2016 04:20:00 10.8 C 98 % 10.5 C
2865 25-10-2016 04:25:00 10.8 C 98 % 10.5 C
2866 25-10-2016 04:30:00 10.8 C 97 % 10.34 C
2867 25-10-2016 04:35:00 10.8 C 97 % 10.34 C
2868 25-10-2016 04:40:00 10.8 C 97 % 10.34 C
2869 25-10-2016 04:45:00 10.8 C 97 % 10.34 C
2870 25-10-2016 04:50:00 10.8 C 97 % 10.34 C
2871 25-10-2016 04:55:00 10.8 C 97 % 10.34 C
2872 25-10-2016 05:00:00 10.7 C 97 % 10.24 C
2873 25-10-2016 05:05:00 10.7 C 97 % 10.24 C
2874 25-10-2016 05:10:00 10.6 C 97 % 10.14 C
2875 25-10-2016 05:15:00 10.6 C 97 % 10.14 C
Sensor: Nr:Datum:Temp:Feuchte:Taupunkt:
Aussen-T/F 2876 25-10-2016 05:20:00 10.6 C 97 % 10.14 C
2877 25-10-2016 05:25:00 10.6 C 98 % 10.3 C
2878 25-10-2016 05:30:00 10.6 C 98 % 10.3 C
2879 25-10-2016 05:35:00 10.6 C 98 % 10.3 C
2880 25-10-2016 05:40:00 10.6 C 98 % 10.3 C
2881 25-10-2016 05:45:00 10.5 C 97 % 10.04 C
2882 25-10-2016 05:50:00 10.4 C 97 % 9.94 C
2883 25-10-2016 05:55:00 10.4 C 97 % 9.94 C
2884 25-10-2016 06:00:00 10.4 C 97 % 9.94 C
2885 25-10-2016 06:05:00 10.4 C 97 % 9.94 C
2886 25-10-2016 06:10:00 10.5 C 97 % 10.04 C
2887 25-10-2016 06:15:00 10.6 C 98 % 10.3 C
2888 25-10-2016 06:20:00 10.6 C 98 % 10.3 C
2889 25-10-2016 06:25:00 10.7 C 98 % 10.4 C
2890 25-10-2016 06:30:00 10.7 C 98 % 10.4 C
2891 25-10-2016 06:35:00 10.7 C 98 % 10.4 C
2892 25-10-2016 06:40:00 10.8 C 98 % 10.5 C
2893 25-10-2016 06:45:00 10.8 C 98 % 10.5 C
2894 25-10-2016 06:50:00 10.8 C 98 % 10.5 C
2895 25-10-2016 06:55:00 10.8 C 98 % 10.5 C
2896 25-10-2016 07:00:00 10.8 C 98 % 10.5 C
2897 25-10-2016 07:05:00 10.8 C 98 % 10.5 C
2898 25-10-2016 07:10:00 10.8 C 98 % 10.5 C
2899 25-10-2016 07:15:00 10.8 C 98 % 10.5 C
2900 25-10-2016 07:20:00 10.8 C 98 % 10.5 C
Sensor: Nr:Datum:Temp:Feuchte:Taupunkt:
Aussen-T/F 2901 25-10-2016 07:25:00 10.8 C 98 % 10.5 C
2902 25-10-2016 07:30:00 10.8 C 98 % 10.5 C
2903 25-10-2016 07:35:00 10.9 C 98 % 10.6 C
2904 25-10-2016 07:40:00 10.9 C 98 % 10.6 C
2905 25-10-2016 07:45:00 10.9 C 98 % 10.6 C
2906 25-10-2016 07:50:00 10.9 C 98 % 10.6 C
2907 25-10-2016 07:55:00 10.9 C 98 % 10.6 C
2908 25-10-2016 08:00:00 11 C 98 % 10.7 C
2909 25-10-2016 08:05:00 11.1 C 98 % 10.8 C
2910 25-10-2016 08:10:00 11.1 C 98 % 10.8 C
2911 25-10-2016 08:15:00 11.1 C 98 % 10.8 C
2912 25-10-2016 08:20:00 11.1 C 98 % 10.8 C
2913 25-10-2016 08:25:00 11.2 C 98 % 10.9 C
2914 25-10-2016 08:30:00 11.2 C 98 % 10.9 C
2915 25-10-2016 08:35:00 11.2 C 98 % 10.9 C
2916 25-10-2016 08:40:00 11.2 C 98 % 10.9 C
2917 25-10-2016 08:45:00 11.2 C 98 % 10.9 C
2918 25-10-2016 08:50:00 11.2 C 98 % 10.9 C
2919 25-10-2016 08:55:00 11.2 C 98 % 10.9 C
2920 25-10-2016 09:00:00 11.2 C 98 % 10.9 C
2921 25-10-2016 09:05:00 11.2 C 98 % 10.9 C
2922 25-10-2016 09:10:00 11.2 C 98 % 10.9 C
2923 25-10-2016 09:15:00 11.2 C 98 % 10.9 C
2924 25-10-2016 09:20:00 11.3 C 98 % 11 C
2925 25-10-2016 09:25:00 11.3 C 98 % 11 C
Sensor: Nr:Datum:Temp:Feuchte:Taupunkt:
Aussen-T/F 2926 25-10-2016 09:30:00 11.3 C 98 % 11 C
2927 25-10-2016 09:35:00 11.3 C 98 % 11 C
2928 25-10-2016 09:40:00 11.3 C 98 % 11 C
2929 25-10-2016 09:45:00 11.4 C 98 % 11.1 C
2930 25-10-2016 09:50:00 11.4 C 98 % 11.1 C
2931 25-10-2016 09:55:00 11.5 C 98 % 11.2 C
2932 25-10-2016 10:00:00 11.6 C 98 % 11.29 C
2933 25-10-2016 10:05:00 11.6 C 98 % 11.29 C
2934 25-10-2016 10:10:00 11.6 C 98 % 11.29 C
2935 25-10-2016 10:15:00 11.6 C 98 % 11.29 C
2936 25-10-2016 10:20:00 11.6 C 98 % 11.29 C
2937 25-10-2016 10:25:00 11.6 C 98 % 11.29 C
2938 25-10-2016 10:30:00 11.6 C 98 % 11.29 C
2939 25-10-2016 10:35:00 11.7 C 98 % 11.39 C
2940 25-10-2016 10:40:00 11.7 C 98 % 11.39 C
2941 25-10-2016 10:45:00 11.7 C 98 % 11.39 C
2942 25-10-2016 10:50:00 11.7 C 98 % 11.39 C
2943 25-10-2016 10:55:00 11.7 C 98 % 11.39 C
2944 25-10-2016 11:00:00 11.8 C 98 % 11.49 C
2945 25-10-2016 11:05:00 11.8 C 98 % 11.49 C
2946 25-10-2016 11:10:00 11.8 C 98 % 11.49 C
2947 25-10-2016 11:15:00 11.9 C 98 % 11.59 C
2948 25-10-2016 11:20:00 11.9 C 98 % 11.59 C
2949 25-10-2016 11:25:00 12.1 C 98 % 11.79 C
2950 25-10-2016 11:30:00 12.2 C 98 % 11.89 C
Sensor: Nr:Datum:Temp:Feuchte:Taupunkt:
Aussen-T/F 2951 25-10-2016 11:35:00 12.2 C 98 % 11.89 C
2952 25-10-2016 11:40:00 12.2 C 98 % 11.89 C
2953 25-10-2016 11:45:00 12.2 C 98 % 11.89 C
2954 25-10-2016 11:50:00 12.1 C 98 % 11.79 C
2955 25-10-2016 11:55:00 12.1 C 98 % 11.79 C
2956 25-10-2016 12:00:00 12.2 C 98 % 11.89 C
2957 25-10-2016 12:05:00 12.3 C 98 % 11.99 C
2958 25-10-2016 12:10:00 12.3 C 98 % 11.99 C
2959 25-10-2016 12:15:00 12.3 C 98 % 11.99 C
2960 25-10-2016 12:20:00 12.3 C 98 % 11.99 C
2961 25-10-2016 12:25:00 12.3 C 98 % 11.99 C
2962 25-10-2016 12:30:00 12.4 C 98 % 12.09 C
2963 25-10-2016 12:35:00 12.4 C 97 % 11.94 C
2964 25-10-2016 12:40:00 12.4 C 97 % 11.94 C
2965 25-10-2016 12:45:00 12.4 C 97 % 11.94 C
2966 25-10-2016 12:50:00 12.4 C 97 % 11.94 C
2967 25-10-2016 12:55:00 12.3 C 97 % 11.84 C
2968 25-10-2016 13:00:00 12.3 C 97 % 11.84 C
2969 25-10-2016 13:05:00 12.3 C 97 % 11.84 C
2970 25-10-2016 13:10:00 12.4 C 97 % 11.94 C
2971 25-10-2016 13:15:00 12.5 C 97 % 12.04 C
2972 25-10-2016 13:20:00 12.6 C 97 % 12.14 C
2973 25-10-2016 13:25:00 12.5 C 97 % 12.04 C
2974 25-10-2016 13:30:00 12.5 C 97 % 12.04 C
2975 25-10-2016 13:35:00 12.5 C 97 % 12.04 C
Sensor: Nr:Datum:Temp:Feuchte:Taupunkt:
Aussen-T/F 2976 25-10-2016 13:40:00 12.6 C 97 % 12.14 C
2977 25-10-2016 13:45:00 12.6 C 97 % 12.14 C
2978 25-10-2016 13:50:00 12.7 C 97 % 12.24 C
2979 25-10-2016 13:55:00 12.7 C 97 % 12.24 C
2980 25-10-2016 14:00:00 12.7 C 96 % 12.08 C
2981 25-10-2016 14:05:00 12.7 C 96 % 12.08 C
2982 25-10-2016 14:10:00 12.7 C 96 % 12.08 C
2983 25-10-2016 14:15:00 12.8 C 95 % 12.02 C
2984 25-10-2016 14:20:00 12.8 C 95 % 12.02 C
2985 25-10-2016 14:25:00 12.8 C 94 % 11.86 C
2986 25-10-2016 14:30:00 12.8 C 94 % 11.86 C
2987 25-10-2016 14:35:00 12.8 C 93 % 11.7 C
2988 25-10-2016 14:40:00 12.7 C 93 % 11.6 C
2989 25-10-2016 14:45:00 12.7 C 92 % 11.43 C
2990 25-10-2016 14:50:00 12.7 C 92 % 11.43 C
2991 25-10-2016 14:55:00 12.7 C 92 % 11.43 C
2992 25-10-2016 15:00:00 12.7 C 92 % 11.43 C
2993 25-10-2016 15:05:00 12.7 C 91 % 11.27 C
2994 25-10-2016 15:10:00 12.7 C 91 % 11.27 C
2995 25-10-2016 15:15:00 12.7 C 91 % 11.27 C
2996 25-10-2016 15:20:00 12.7 C 91 % 11.27 C
2997 25-10-2016 15:25:00 12.8 C 90 % 11.2 C
2998 25-10-2016 15:30:00 12.7 C 90 % 11.1 C
2999 25-10-2016 15:35:00 12.8 C 91 % 11.37 C
3000 25-10-2016 15:40:00 12.8 C 92 % 11.53 C
Sensor: Nr:Datum:Temp:Feuchte:Taupunkt:
Aussen-T/F 3001 25-10-2016 15:45:00 12.8 C 91 % 11.37 C
3002 25-10-2016 15:50:00 12.8 C 91 % 11.37 C
3003 25-10-2016 15:55:00 12.7 C 90 % 11.1 C
3004 25-10-2016 16:00:00 12.7 C 91 % 11.27 C
3005 25-10-2016 16:05:00 12.7 C 91 % 11.27 C
3006 25-10-2016 16:10:00 12.7 C 91 % 11.27 C
3007 25-10-2016 16:15:00 12.6 C 91 % 11.17 C
3008 25-10-2016 16:20:00 12.6 C 90 % 11 C
3009 25-10-2016 16:25:00 12.4 C 90 % 10.81 C
3010 25-10-2016 16:30:00 12.4 C 90 % 10.81 C
3011 25-10-2016 16:35:00 12.4 C 90 % 10.81 C
3012 25-10-2016 16:40:00 12.3 C 90 % 10.71 C
3013 25-10-2016 16:45:00 12.3 C 90 % 10.71 C
3014 25-10-2016 16:50:00 12.2 C 91 % 10.78 C
3015 25-10-2016 16:55:00 12.2 C 91 % 10.78 C
3016 25-10-2016 17:00:00 12.1 C 91 % 10.68 C
3017 25-10-2016 17:05:00 12.1 C 91 % 10.68 C
3018 25-10-2016 17:10:00 12 C 91 % 10.58 C
3019 25-10-2016 17:15:00 11.9 C 91 % 10.48 C
3020 25-10-2016 17:20:00 11.9 C 92 % 10.64 C
3021 25-10-2016 17:25:00 11.8 C 92 % 10.54 C
3022 25-10-2016 17:30:00 11.8 C 92 % 10.54 C
3023 25-10-2016 17:35:00 11.8 C 92 % 10.54 C
3024 25-10-2016 17:40:00 11.8 C 92 % 10.54 C
3025 25-10-2016 17:45:00 11.7 C 93 % 10.61 C
Sensor: Nr:Datum:Temp:Feuchte:Taupunkt:
Aussen-T/F 3026 25-10-2016 17:50:00 11.7 C 93 % 10.61 C
3027 25-10-2016 17:55:00 11.7 C 93 % 10.61 C
3028 25-10-2016 18:00:00 11.7 C 93 % 10.61 C
3029 25-10-2016 18:05:00 11.7 C 93 % 10.61 C
3030 25-10-2016 18:10:00 11.6 C 93 % 10.51 C
3031 25-10-2016 18:15:00 11.4 C 93 % 10.31 C
3032 25-10-2016 18:20:00 11.4 C 93 % 10.31 C
3033 25-10-2016 18:25:00 11.4 C 93 % 10.31 C
3034 25-10-2016 18:30:00 11.4 C 93 % 10.31 C
3035 25-10-2016 18:35:00 11.3 C 93 % 10.21 C
3036 25-10-2016 18:40:00 11.3 C 93 % 10.21 C
3037 25-10-2016 18:45:00 11.2 C 93 % 10.11 C
3038 25-10-2016 18:50:00 11.2 C 93 % 10.11 C
3039 25-10-2016 18:55:00 11.1 C 93 % 10.01 C
3040 25-10-2016 19:00:00 11.1 C 93 % 10.01 C
3041 25-10-2016 19:05:00 11.1 C 93 % 10.01 C
3042 25-10-2016 19:10:00 11 C 93 % 9.91 C
3043 25-10-2016 19:15:00 11 C 93 % 9.91 C
3044 25-10-2016 19:20:00 10.9 C 94 % 9.97 C
3045 25-10-2016 19:25:00 10.9 C 94 % 9.97 C
3046 25-10-2016 19:30:00 10.9 C 94 % 9.97 C
3047 25-10-2016 19:35:00 10.9 C 94 % 9.97 C
3048 25-10-2016 19:40:00 10.8 C 94 % 9.87 C
3049 25-10-2016 19:45:00 10.8 C 94 % 9.87 C
3050 25-10-2016 19:50:00 10.8 C 94 % 9.87 C
Sensor: Nr:Datum:Temp:Feuchte:Taupunkt:
Aussen-T/F 3051 25-10-2016 19:55:00 10.8 C 94 % 9.87 C
3052 25-10-2016 20:00:00 10.8 C 94 % 9.87 C
3053 25-10-2016 20:05:00 10.8 C 94 % 9.87 C
3054 25-10-2016 20:10:00 10.7 C 95 % 9.93 C
3055 25-10-2016 20:15:00 10.7 C 95 % 9.93 C
3056 25-10-2016 20:20:00 10.6 C 94 % 9.68 C
3057 25-10-2016 20:25:00 10.6 C 94 % 9.68 C
3058 25-10-2016 20:30:00 10.5 C 94 % 9.58 C
3059 25-10-2016 20:35:00 10.4 C 95 % 9.63 C
3060 25-10-2016 20:40:00 10.4 C 95 % 9.63 C
3061 25-10-2016 20:45:00 10.4 C 95 % 9.63 C
3062 25-10-2016 20:50:00 10.4 C 95 % 9.63 C
3063 25-10-2016 20:55:00 10.3 C 95 % 9.54 C
3064 25-10-2016 21:00:00 10.3 C 95 % 9.54 C
3065 25-10-2016 21:05:00 10.3 C 95 % 9.54 C
3066 25-10-2016 21:10:00 10.2 C 95 % 9.44 C
3067 25-10-2016 21:15:00 10.2 C 95 % 9.44 C
3068 25-10-2016 21:20:00 10.1 C 95 % 9.34 C
3069 25-10-2016 21:25:00 10.1 C 95 % 9.34 C
3070 25-10-2016 21:30:00 10.1 C 95 % 9.34 C
3071 25-10-2016 21:35:00 10.1 C 95 % 9.34 C
3072 25-10-2016 21:40:00 10.1 C 95 % 9.34 C
3073 25-10-2016 21:45:00 10.1 C 95 % 9.34 C
3074 25-10-2016 21:50:00 10.1 C 95 % 9.34 C
3075 25-10-2016 21:55:00 10 C 95 % 9.24 C
Sensor: Nr:Datum:Temp:Feuchte:Taupunkt:
Aussen-T/F 3076 25-10-2016 22:00:00 9.9 C 95 % 9.14 C
3077 25-10-2016 22:05:00 9.9 C 95 % 9.14 C
3078 25-10-2016 22:10:00 9.9 C 96 % 9.29 C
3079 25-10-2016 22:15:00 9.8 C 96 % 9.19 C
3080 25-10-2016 22:20:00 9.8 C 96 % 9.19 C
3081 25-10-2016 22:25:00 9.8 C 96 % 9.19 C
3082 25-10-2016 22:30:00 9.8 C 96 % 9.19 C
3083 25-10-2016 22:35:00 9.8 C 96 % 9.19 C
3084 25-10-2016 22:40:00 9.8 C 96 % 9.19 C
3085 25-10-2016 22:45:00 9.8 C 96 % 9.19 C
3086 25-10-2016 22:50:00 9.9 C 96 % 9.29 C
3087 25-10-2016 22:55:00 9.9 C 96 % 9.29 C
3088 25-10-2016 23:00:00 9.9 C 96 % 9.29 C
3089 25-10-2016 23:05:00 9.9 C 96 % 9.29 C
3090 25-10-2016 23:10:00 10 C 96 % 9.39 C
3091 25-10-2016 23:15:00 9.9 C 96 % 9.29 C
3092 25-10-2016 23:20:00 9.9 C 96 % 9.29 C
3093 25-10-2016 23:25:00 9.9 C 96 % 9.29 C
3094 25-10-2016 23:30:00 9.9 C 96 % 9.29 C
3095 25-10-2016 23:35:00 9.9 C 96 % 9.29 C
3096 25-10-2016 23:40:00 9.9 C 96 % 9.29 C
3097 25-10-2016 23:45:00 9.9 C 96 % 9.29 C
3098 25-10-2016 23:50:00 9.9 C 96 % 9.29 C
3099 25-10-2016 23:55:00 9.9 C 96 % 9.29 C
3100 26-10-2016 00:00:00 9.9 C 96 % 9.29 C
Sensor: Nr:Datum:Temp:Feuchte:Taupunkt:
Aussen-T/F 3101 26-10-2016 00:05:00 9.9 C 96 % 9.29 C
3102 26-10-2016 00:10:00 9.9 C 96 % 9.29 C
3103 26-10-2016 00:15:00 9.9 C 96 % 9.29 C
3104 26-10-2016 00:20:00 9.9 C 96 % 9.29 C
3105 26-10-2016 00:25:00 9.8 C 96 % 9.19 C
3106 26-10-2016 00:30:00 9.8 C 96 % 9.19 C
3107 26-10-2016 00:35:00 9.8 C 96 % 9.19 C
3108 26-10-2016 00:40:00 9.8 C 96 % 9.19 C
3109 26-10-2016 00:45:00 9.8 C 96 % 9.19 C
3110 26-10-2016 00:50:00 9.8 C 96 % 9.19 C
3111 26-10-2016 00:55:00 9.8 C 96 % 9.19 C
3112 26-10-2016 01:00:00 9.8 C 96 % 9.19 C
3113 26-10-2016 01:05:00 9.8 C 96 % 9.19 C
3114 26-10-2016 01:10:00 9.8 C 96 % 9.19 C
3115 26-10-2016 01:15:00 9.8 C 96 % 9.19 C
3116 26-10-2016 01:20:00 9.8 C 96 % 9.19 C
3117 26-10-2016 01:25:00 9.8 C 96 % 9.19 C
3118 26-10-2016 01:30:00 9.7 C 96 % 9.09 C
3119 26-10-2016 01:35:00 9.7 C 96 % 9.09 C
3120 26-10-2016 01:40:00 9.7 C 96 % 9.09 C
3121 26-10-2016 01:45:00 9.7 C 96 % 9.09 C
3122 26-10-2016 01:50:00 9.7 C 97 % 9.25 C
3123 26-10-2016 01:55:00 9.7 C 97 % 9.25 C
3124 26-10-2016 02:00:00 9.7 C 97 % 9.25 C
3125 26-10-2016 02:05:00 9.7 C 97 % 9.25 C
Sensor: Nr:Datum:Temp:Feuchte:Taupunkt:
Aussen-T/F 3126 26-10-2016 02:10:00 9.7 C 97 % 9.25 C
3127 26-10-2016 02:15:00 9.7 C 97 % 9.25 C
3128 26-10-2016 02:20:00 9.7 C 97 % 9.25 C
3129 26-10-2016 02:25:00 9.7 C 97 % 9.25 C
3130 26-10-2016 02:30:00 9.7 C 96 % 9.09 C
3131 26-10-2016 02:35:00 9.6 C 96 % 8.99 C
3132 26-10-2016 02:40:00 9.6 C 96 % 8.99 C
3133 26-10-2016 02:45:00 9.6 C 96 % 8.99 C
3134 26-10-2016 02:50:00 9.6 C 96 % 8.99 C
3135 26-10-2016 02:55:00 9.7 C 96 % 9.09 C
3136 26-10-2016 03:00:00 9.7 C 96 % 9.09 C
3137 26-10-2016 03:05:00 9.7 C 96 % 9.09 C
3138 26-10-2016 03:10:00 9.7 C 96 % 9.09 C
3139 26-10-2016 03:15:00 9.7 C 96 % 9.09 C
3140 26-10-2016 03:20:00 9.7 C 96 % 9.09 C
3141 26-10-2016 03:25:00 9.6 C 96 % 8.99 C
3142 26-10-2016 03:30:00 9.6 C 96 % 8.99 C
3143 26-10-2016 03:35:00 9.6 C 96 % 8.99 C
3144 26-10-2016 03:40:00 9.6 C 96 % 8.99 C
3145 26-10-2016 03:45:00 9.6 C 96 % 8.99 C
3146 26-10-2016 03:50:00 9.5 C 96 % 8.89 C
3147 26-10-2016 03:55:00 9.4 C 96 % 8.8 C
3148 26-10-2016 04:00:00 9.3 C 96 % 8.7 C
3149 26-10-2016 04:05:00 9.2 C 96 % 8.6 C
3150 26-10-2016 04:10:00 9.2 C 96 % 8.6 C
Sensor: Nr:Datum:Temp:Feuchte:Taupunkt:
Aussen-T/F 3151 26-10-2016 04:15:00 9.1 C 96 % 8.5 C
3152 26-10-2016 04:20:00 9.1 C 96 % 8.5 C
3153 26-10-2016 04:25:00 9 C 96 % 8.4 C
3154 26-10-2016 04:30:00 8.9 C 96 % 8.3 C
3155 26-10-2016 04:35:00 8.9 C 96 % 8.3 C
3156 26-10-2016 04:40:00 8.8 C 96 % 8.2 C
3157 26-10-2016 04:45:00 8.7 C 96 % 8.1 C
3158 26-10-2016 04:50:00 8.6 C 96 % 8 C
3159 26-10-2016 04:55:00 8.4 C 96 % 7.8 C
3160 26-10-2016 05:00:00 8.4 C 96 % 7.8 C
3161 26-10-2016 05:05:00 8.3 C 96 % 7.7 C
3162 26-10-2016 05:10:00 8.2 C 96 % 7.6 C
3163 26-10-2016 05:15:00 8.2 C 96 % 7.6 C
3164 26-10-2016 05:20:00 8.1 C 96 % 7.5 C
3165 26-10-2016 05:25:00 8 C 96 % 7.4 C
3166 26-10-2016 05:30:00 7.9 C 96 % 7.3 C
3167 26-10-2016 05:35:00 7.9 C 96 % 7.3 C
3168 26-10-2016 05:40:00 7.9 C 96 % 7.3 C
3169 26-10-2016 05:45:00 8 C 97 % 7.55 C
3170 26-10-2016 05:50:00 8 C 97 % 7.55 C
3171 26-10-2016 05:55:00 8.1 C 97 % 7.65 C
3172 26-10-2016 06:00:00 8.1 C 97 % 7.65 C
3173 26-10-2016 06:05:00 8.1 C 97 % 7.65 C
3174 26-10-2016 06:10:00 7.9 C 97 % 7.45 C
3175 26-10-2016 06:15:00 7.8 C 96 % 7.2 C
Sensor: Nr:Datum:Temp:Feuchte:Taupunkt:
Aussen-T/F 3176 26-10-2016 06:20:00 7.7 C 96 % 7.1 C
3177 26-10-2016 06:25:00 7.6 C 96 % 7 C
3178 26-10-2016 06:30:00 7.4 C 96 % 6.8 C
3179 26-10-2016 06:35:00 7.3 C 96 % 6.71 C
3180 26-10-2016 06:40:00 7.3 C 96 % 6.71 C
3181 26-10-2016 06:45:00 7.4 C 97 % 6.96 C
3182 26-10-2016 06:50:00 7.4 C 97 % 6.96 C
3183 26-10-2016 06:55:00 7.5 C 97 % 7.06 C
3184 26-10-2016 07:00:00 7.6 C 97 % 7.16 C
3185 26-10-2016 07:05:00 7.7 C 97 % 7.25 C
3186 26-10-2016 07:10:00 7.8 C 97 % 7.35 C
3187 26-10-2016 07:15:00 7.9 C 97 % 7.45 C
3188 26-10-2016 07:20:00 7.9 C 97 % 7.45 C
3189 26-10-2016 07:25:00 8 C 97 % 7.55 C
3190 26-10-2016 07:30:00 8.1 C 97 % 7.65 C
3191 26-10-2016 07:35:00 8.1 C 97 % 7.65 C
3192 26-10-2016 07:40:00 8.1 C 97 % 7.65 C
3193 26-10-2016 07:45:00 8.1 C 97 % 7.65 C
3194 26-10-2016 07:50:00 8.1 C 97 % 7.65 C
3195 26-10-2016 07:55:00 8.1 C 97 % 7.65 C
3196 26-10-2016 08:00:00 8.2 C 97 % 7.75 C
3197 26-10-2016 08:05:00 8.2 C 97 % 7.75 C
3198 26-10-2016 08:10:00 8.2 C 97 % 7.75 C
3199 26-10-2016 08:15:00 8.2 C 97 % 7.75 C
3200 26-10-2016 08:20:00 8.3 C 97 % 7.85 C
Sensor: Nr:Datum:Temp:Feuchte:Taupunkt:
Aussen-T/F 3201 26-10-2016 08:25:00 8.3 C 97 % 7.85 C
3202 26-10-2016 08:30:00 8.3 C 97 % 7.85 C
3203 26-10-2016 08:35:00 8.3 C 97 % 7.85 C
3204 26-10-2016 08:40:00 8.3 C 97 % 7.85 C
3205 26-10-2016 08:45:00 8.4 C 97 % 7.95 C
3206 26-10-2016 08:50:00 8.4 C 97 % 7.95 C
3207 26-10-2016 08:55:00 8.4 C 97 % 7.95 C
3208 26-10-2016 09:00:00 8.5 C 97 % 8.05 C
3209 26-10-2016 09:05:00 8.6 C 97 % 8.15 C
3210 26-10-2016 09:10:00 8.6 C 97 % 8.15 C
3211 26-10-2016 09:15:00 8.7 C 97 % 8.25 C
3212 26-10-2016 09:20:00 8.7 C 97 % 8.25 C
3213 26-10-2016 09:25:00 8.7 C 97 % 8.25 C
3214 26-10-2016 09:30:00 8.8 C 97 % 8.35 C
3215 26-10-2016 09:35:00 8.8 C 97 % 8.35 C
3216 26-10-2016 09:40:00 8.9 C 97 % 8.45 C
3217 26-10-2016 09:45:00 8.9 C 97 % 8.45 C
3218 26-10-2016 09:50:00 8.9 C 97 % 8.45 C
3219 26-10-2016 09:55:00 8.9 C 97 % 8.45 C
3220 26-10-2016 10:00:00 9.1 C 97 % 8.65 C
3221 26-10-2016 10:05:00 9.1 C 97 % 8.65 C
3222 26-10-2016 10:10:00 9.1 C 97 % 8.65 C
3223 26-10-2016 10:15:00 9.2 C 97 % 8.75 C
3224 26-10-2016 10:20:00 9.2 C 97 % 8.75 C
3225 26-10-2016 10:25:00 9.3 C 97 % 8.85 C
Sensor: Nr:Datum:Temp:Feuchte:Taupunkt:
Aussen-T/F 3226 26-10-2016 10:30:00 9.3 C 97 % 8.85 C
3227 26-10-2016 10:35:00 9.3 C 97 % 8.85 C
3228 26-10-2016 10:40:00 9.4 C 97 % 8.95 C
3229 26-10-2016 10:45:00 9.5 C 97 % 9.05 C
3230 26-10-2016 10:50:00 9.5 C 97 % 9.05 C
3231 26-10-2016 10:55:00 9.6 C 97 % 9.15 C
3232 26-10-2016 11:00:00 9.6 C 97 % 9.15 C
3233 26-10-2016 11:05:00 9.6 C 97 % 9.15 C
3234 26-10-2016 11:10:00 9.8 C 97 % 9.35 C
3235 26-10-2016 11:15:00 9.9 C 97 % 9.45 C
3236 26-10-2016 11:20:00 9.9 C 97 % 9.45 C
3237 26-10-2016 11:25:00 9.9 C 97 % 9.45 C
3238 26-10-2016 11:30:00 9.9 C 96 % 9.29 C
3239 26-10-2016 11:35:00 10 C 96 % 9.39 C
3240 26-10-2016 11:40:00 10.1 C 96 % 9.49 C
3241 26-10-2016 11:45:00 10.1 C 96 % 9.49 C
3242 26-10-2016 11:50:00 10.3 C 96 % 9.69 C
3243 26-10-2016 11:55:00 10.4 C 97 % 9.94 C
3244 26-10-2016 12:00:00 10.6 C 96 % 9.99 C
3245 26-10-2016 12:05:00 10.6 C 96 % 9.99 C
3246 26-10-2016 12:10:00 10.7 C 95 % 9.93 C
3247 26-10-2016 12:15:00 10.7 C 95 % 9.93 C
3248 26-10-2016 12:20:00 10.8 C 95 % 10.03 C
3249 26-10-2016 12:25:00 10.9 C 94 % 9.97 C
3250 26-10-2016 12:30:00 10.9 C 94 % 9.97 C
Sensor: Nr:Datum:Temp:Feuchte:Taupunkt:
Aussen-T/F 3251 26-10-2016 12:35:00 11.1 C 94 % 10.17 C
3252 26-10-2016 12:40:00 11.1 C 94 % 10.17 C
3253 26-10-2016 12:45:00 11.1 C 94 % 10.17 C
3254 26-10-2016 12:50:00 11 C 91 % 9.59 C
3255 26-10-2016 12:55:00 11 C 89 % 9.26 C
3256 26-10-2016 13:00:00 11.1 C 92 % 9.85 C
3257 26-10-2016 13:05:00 11.2 C 92 % 9.95 C
3258 26-10-2016 13:10:00 11.1 C 91 % 9.69 C
3259 26-10-2016 13:15:00 11 C 91 % 9.59 C
3260 26-10-2016 13:20:00 10.8 C 91 % 9.39 C
3261 26-10-2016 13:25:00 10.8 C 91 % 9.39 C
3262 26-10-2016 13:30:00 10.7 C 91 % 9.29 C
3263 26-10-2016 13:35:00 10.7 C 92 % 9.45 C
3264 26-10-2016 13:40:00 10.7 C 92 % 9.45 C
3265 26-10-2016 13:45:00 10.8 C 93 % 9.71 C
3266 26-10-2016 13:50:00 10.9 C 93 % 9.81 C
3267 26-10-2016 13:55:00 11.1 C 91 % 9.69 C
3268 26-10-2016 14:00:00 11.3 C 87 % 9.22 C
3269 26-10-2016 14:05:00 11.5 C 89 % 9.75 C
3270 26-10-2016 14:10:00 11.6 C 85 % 9.17 C
3271 26-10-2016 14:15:00 11.8 C 88 % 9.88 C
3272 26-10-2016 14:20:00 12 C 83 % 9.21 C
3273 26-10-2016 14:25:00 12.2 C 81 % 9.04 C
3274 26-10-2016 14:30:00 12.3 C 83 % 9.5 C
3275 26-10-2016 14:35:00 12.3 C 83 % 9.5 C
Sensor: Nr:Datum:Temp:Feuchte:Taupunkt:
Aussen-T/F 3276 26-10-2016 14:40:00 12.4 C 85 % 9.95 C
3277 26-10-2016 14:45:00 12.4 C 86 % 10.13 C
3278 26-10-2016 14:50:00 12.3 C 87 % 10.2 C
3279 26-10-2016 14:55:00 12.2 C 87 % 10.1 C
3280 26-10-2016 15:00:00 11.9 C 88 % 9.98 C
3281 26-10-2016 15:05:00 11.8 C 89 % 10.05 C
3282 26-10-2016 15:10:00 11.6 C 89 % 9.85 C
3283 26-10-2016 15:15:00 11.5 C 90 % 9.92 C
3284 26-10-2016 15:20:00 11.4 C 90 % 9.82 C
3285 26-10-2016 15:25:00 11.3 C 91 % 9.89 C
3286 26-10-2016 15:30:00 11.2 C 91 % 9.79 C
3287 26-10-2016 15:35:00 11.1 C 91 % 9.69 C
3288 26-10-2016 15:40:00 11.1 C 91 % 9.69 C
3289 26-10-2016 15:45:00 11.2 C 92 % 9.95 C
3290 26-10-2016 15:50:00 11.2 C 92 % 9.95 C
3291 26-10-2016 15:55:00 11.3 C 93 % 10.21 C
3292 26-10-2016 16:00:00 11.4 C 93 % 10.31 C
3293 26-10-2016 16:05:00 11.5 C 93 % 10.41 C
3294 26-10-2016 16:10:00 11.5 C 92 % 10.25 C
3295 26-10-2016 16:15:00 11.4 C 92 % 10.15 C
3296 26-10-2016 16:20:00 11.4 C 92 % 10.15 C
3297 26-10-2016 16:25:00 11.4 C 92 % 10.15 C
3298 26-10-2016 16:30:00 11.4 C 92 % 10.15 C
3299 26-10-2016 16:35:00 11.4 C 93 % 10.31 C
3300 26-10-2016 16:40:00 11.4 C 93 % 10.31 C
Sensor: Nr:Datum:Temp:Feuchte:Taupunkt:
Aussen-T/F 3301 26-10-2016 16:45:00 11.4 C 92 % 10.15 C
3302 26-10-2016 16:50:00 11.3 C 92 % 10.05 C
3303 26-10-2016 16:55:00 11.3 C 92 % 10.05 C
3304 26-10-2016 17:00:00 11.3 C 93 % 10.21 C
3305 26-10-2016 17:05:00 11.3 C 93 % 10.21 C
3306 26-10-2016 17:10:00 11.4 C 93 % 10.31 C
3307 26-10-2016 17:15:00 11.4 C 93 % 10.31 C
3308 26-10-2016 17:20:00 11.4 C 93 % 10.31 C
3309 26-10-2016 17:25:00 11.4 C 93 % 10.31 C
3310 26-10-2016 17:30:00 11.4 C 93 % 10.31 C
3311 26-10-2016 17:35:00 11.4 C 93 % 10.31 C
3312 26-10-2016 17:40:00 11.3 C 93 % 10.21 C
3313 26-10-2016 17:45:00 11.3 C 93 % 10.21 C
3314 26-10-2016 17:50:00 11.2 C 92 % 9.95 C
3315 26-10-2016 17:55:00 11.2 C 93 % 10.11 C
3316 26-10-2016 18:00:00 11.2 C 93 % 10.11 C
3317 26-10-2016 18:05:00 11.2 C 93 % 10.11 C
3318 26-10-2016 18:10:00 11.1 C 93 % 10.01 C
3319 26-10-2016 18:15:00 11.1 C 93 % 10.01 C
3320 26-10-2016 18:20:00 11 C 92 % 9.75 C
3321 26-10-2016 18:25:00 11.1 C 90 % 9.52 C
3322 26-10-2016 18:30:00 11.2 C 88 % 9.29 C
3323 26-10-2016 18:35:00 11.2 C 88 % 9.29 C
3324 26-10-2016 18:40:00 11.2 C 88 % 9.29 C
3325 26-10-2016 18:45:00 11.2 C 86 % 8.95 C
Sensor: Nr:Datum:Temp:Feuchte:Taupunkt:
Aussen-T/F 3326 26-10-2016 18:50:00 11.2 C 87 % 9.12 C
3327 26-10-2016 18:55:00 11.2 C 87 % 9.12 C
3328 26-10-2016 19:00:00 11.1 C 88 % 9.19 C
3329 26-10-2016 19:05:00 10.9 C 86 % 8.65 C
3330 26-10-2016 19:10:00 10.9 C 86 % 8.65 C
3331 26-10-2016 19:15:00 10.9 C 88 % 8.99 C
3332 26-10-2016 19:20:00 10.8 C 88 % 8.89 C
3333 26-10-2016 19:25:00 10.7 C 89 % 8.96 C
3334 26-10-2016 19:30:00 10.5 C 89 % 8.77 C
3335 26-10-2016 19:35:00 10.3 C 90 % 8.73 C
3336 26-10-2016 19:40:00 10.2 C 90 % 8.64 C
3337 26-10-2016 19:45:00 10.1 C 90 % 8.54 C
3338 26-10-2016 19:50:00 9.8 C 90 % 8.24 C
3339 26-10-2016 19:55:00 9.6 C 91 % 8.21 C
3340 26-10-2016 20:00:00 9.4 C 91 % 8.01 C
3341 26-10-2016 20:05:00 9.3 C 91 % 7.91 C
3342 26-10-2016 20:10:00 9.2 C 92 % 7.97 C
3343 26-10-2016 20:15:00 9.1 C 92 % 7.87 C
3344 26-10-2016 20:20:00 8.9 C 92 % 7.67 C
3345 26-10-2016 20:25:00 8.8 C 92 % 7.57 C
3346 26-10-2016 20:30:00 8.8 C 93 % 7.73 C
3347 26-10-2016 20:35:00 8.7 C 93 % 7.63 C
3348 26-10-2016 20:40:00 8.6 C 93 % 7.53 C
3349 26-10-2016 20:45:00 8.5 C 93 % 7.43 C
3350 26-10-2016 20:50:00 8.5 C 93 % 7.43 C
Sensor: Nr:Datum:Temp:Feuchte:Taupunkt:
Aussen-T/F 3351 26-10-2016 20:55:00 8.4 C 94 % 7.49 C
3352 26-10-2016 21:00:00 8.4 C 94 % 7.49 C
3353 26-10-2016 21:05:00 8.3 C 93 % 7.24 C
3354 26-10-2016 21:10:00 8.2 C 93 % 7.14 C
3355 26-10-2016 21:15:00 8.1 C 94 % 7.19 C
3356 26-10-2016 21:20:00 8.1 C 94 % 7.19 C
3357 26-10-2016 21:25:00 8 C 94 % 7.09 C
3358 26-10-2016 21:30:00 7.9 C 93 % 6.84 C
3359 26-10-2016 21:35:00 7.8 C 94 % 6.9 C
3360 26-10-2016 21:40:00 7.7 C 94 % 6.8 C
3361 26-10-2016 21:45:00 7.6 C 94 % 6.7 C
3362 26-10-2016 21:50:00 7.5 C 94 % 6.6 C
3363 26-10-2016 21:55:00 7.3 C 94 % 6.4 C
3364 26-10-2016 22:00:00 7.3 C 94 % 6.4 C
3365 26-10-2016 22:05:00 7.2 C 94 % 6.3 C
3366 26-10-2016 22:10:00 7.2 C 95 % 6.45 C
3367 26-10-2016 22:15:00 7.2 C 95 % 6.45 C
3368 26-10-2016 22:20:00 7.1 C 95 % 6.35 C
3369 26-10-2016 22:25:00 6.9 C 95 % 6.16 C
3370 26-10-2016 22:30:00 6.9 C 95 % 6.16 C
3371 26-10-2016 22:35:00 6.8 C 95 % 6.06 C
3372 26-10-2016 22:40:00 6.7 C 95 % 5.96 C
3373 26-10-2016 22:45:00 6.7 C 95 % 5.96 C
3374 26-10-2016 22:50:00 6.6 C 95 % 5.86 C
3375 26-10-2016 22:55:00 6.5 C 95 % 5.76 C
Sensor: Nr:Datum:Temp:Feuchte:Taupunkt:
Aussen-T/F 3376 26-10-2016 23:00:00 6.4 C 95 % 5.66 C
3377 26-10-2016 23:05:00 6.4 C 95 % 5.66 C
3378 26-10-2016 23:10:00 6.4 C 95 % 5.66 C
3379 26-10-2016 23:15:00 6.3 C 95 % 5.56 C
3380 26-10-2016 23:20:00 6.2 C 95 % 5.46 C
3381 26-10-2016 23:25:00 6.2 C 95 % 5.46 C
3382 26-10-2016 23:30:00 6.2 C 96 % 5.61 C
3383 26-10-2016 23:35:00 6.2 C 96 % 5.61 C
3384 26-10-2016 23:40:00 6.3 C 96 % 5.71 C
3385 26-10-2016 23:45:00 6.2 C 96 % 5.61 C
3386 26-10-2016 23:50:00 6.2 C 96 % 5.61 C
3387 26-10-2016 23:55:00 6.2 C 96 % 5.61 C
3388 27-10-2016 00:00:00 6.2 C 96 % 5.61 C
3389 27-10-2016 00:05:00 6.3 C 96 % 5.71 C
3390 27-10-2016 00:10:00 6.4 C 96 % 5.81 C
3391 27-10-2016 00:15:00 6.4 C 96 % 5.81 C
3392 27-10-2016 00:20:00 6.5 C 96 % 5.91 C
3393 27-10-2016 00:25:00 6.5 C 96 % 5.91 C
3394 27-10-2016 00:30:00 6.5 C 96 % 5.91 C
3395 27-10-2016 00:35:00 6.4 C 96 % 5.81 C
3396 27-10-2016 00:40:00 6.4 C 96 % 5.81 C
3397 27-10-2016 00:45:00 6.4 C 96 % 5.81 C
3398 27-10-2016 00:50:00 6.4 C 96 % 5.81 C
3399 27-10-2016 00:55:00 6.3 C 96 % 5.71 C
3400 27-10-2016 01:00:00 6.2 C 96 % 5.61 C
Sensor: Nr:Datum:Temp:Feuchte:Taupunkt:
Aussen-T/F 3401 27-10-2016 01:05:00 6.1 C 96 % 5.51 C
3402 27-10-2016 01:10:00 6 C 96 % 5.41 C
3403 27-10-2016 01:15:00 5.9 C 96 % 5.31 C
3404 27-10-2016 01:20:00 5.9 C 96 % 5.31 C
3405 27-10-2016 01:25:00 6.1 C 96 % 5.51 C
3406 27-10-2016 01:30:00 6.2 C 96 % 5.61 C
3407 27-10-2016 01:35:00 6.2 C 96 % 5.61 C
3408 27-10-2016 01:40:00 6.3 C 96 % 5.71 C
3409 27-10-2016 01:45:00 6.3 C 96 % 5.71 C
3410 27-10-2016 01:50:00 6.3 C 96 % 5.71 C
3411 27-10-2016 01:55:00 6.3 C 96 % 5.71 C
3412 27-10-2016 02:00:00 6.3 C 96 % 5.71 C
3413 27-10-2016 02:05:00 6.3 C 96 % 5.71 C
3414 27-10-2016 02:10:00 6.4 C 97 % 5.96 C
3415 27-10-2016 02:15:00 6.6 C 97 % 6.16 C
3416 27-10-2016 02:20:00 6.7 C 97 % 6.26 C
3417 27-10-2016 02:25:00 6.8 C 97 % 6.36 C
3418 27-10-2016 02:30:00 6.8 C 97 % 6.36 C
3419 27-10-2016 02:35:00 6.7 C 97 % 6.26 C
3420 27-10-2016 02:40:00 6.6 C 96 % 6.01 C
3421 27-10-2016 02:45:00 6.5 C 96 % 5.91 C
3422 27-10-2016 02:50:00 6.5 C 96 % 5.91 C
3423 27-10-2016 02:55:00 6.5 C 97 % 6.06 C
3424 27-10-2016 03:00:00 6.6 C 97 % 6.16 C
3425 27-10-2016 03:05:00 6.6 C 97 % 6.16 C
Sensor: Nr:Datum:Temp:Feuchte:Taupunkt:
Aussen-T/F 3426 27-10-2016 03:10:00 6.6 C 97 % 6.16 C
3427 27-10-2016 03:15:00 6.6 C 97 % 6.16 C
3428 27-10-2016 03:20:00 6.6 C 97 % 6.16 C
3429 27-10-2016 03:25:00 6.6 C 97 % 6.16 C
3430 27-10-2016 03:30:00 6.6 C 97 % 6.16 C
3431 27-10-2016 03:35:00 6.6 C 97 % 6.16 C
3432 27-10-2016 03:40:00 6.5 C 97 % 6.06 C
3433 27-10-2016 03:45:00 6.4 C 97 % 5.96 C
3434 27-10-2016 03:50:00 6.4 C 97 % 5.96 C
3435 27-10-2016 03:55:00 6.4 C 97 % 5.96 C
3436 27-10-2016 04:00:00 6.4 C 97 % 5.96 C
3437 27-10-2016 04:05:00 6.4 C 97 % 5.96 C
3438 27-10-2016 04:10:00 6.4 C 97 % 5.96 C
3439 27-10-2016 04:15:00 6.4 C 97 % 5.96 C
3440 27-10-2016 04:20:00 6.4 C 97 % 5.96 C
3441 27-10-2016 04:25:00 6.5 C 97 % 6.06 C
3442 27-10-2016 04:30:00 6.5 C 97 % 6.06 C
3443 27-10-2016 04:35:00 6.5 C 97 % 6.06 C
3444 27-10-2016 04:40:00 6.5 C 97 % 6.06 C
3445 27-10-2016 04:45:00 6.5 C 97 % 6.06 C
3446 27-10-2016 04:50:00 6.5 C 97 % 6.06 C
3447 27-10-2016 04:55:00 6.5 C 97 % 6.06 C
3448 27-10-2016 05:00:00 6.6 C 97 % 6.16 C
3449 27-10-2016 05:05:00 6.6 C 97 % 6.16 C
3450 27-10-2016 05:10:00 6.6 C 97 % 6.16 C
Sensor: Nr:Datum:Temp:Feuchte:Taupunkt:
Aussen-T/F 3451 27-10-2016 05:15:00 6.6 C 97 % 6.16 C
3452 27-10-2016 05:20:00 6.6 C 97 % 6.16 C
3453 27-10-2016 05:25:00 6.6 C 97 % 6.16 C
3454 27-10-2016 05:30:00 6.6 C 97 % 6.16 C
3455 27-10-2016 05:35:00 6.6 C 97 % 6.16 C
3456 27-10-2016 05:40:00 6.6 C 97 % 6.16 C
3457 27-10-2016 05:45:00 6.6 C 97 % 6.16 C
3458 27-10-2016 05:50:00 6.7 C 97 % 6.26 C
3459 27-10-2016 05:55:00 6.7 C 97 % 6.26 C
3460 27-10-2016 06:00:00 6.7 C 97 % 6.26 C
3461 27-10-2016 06:05:00 6.7 C 97 % 6.26 C
3462 27-10-2016 06:10:00 6.7 C 97 % 6.26 C
3463 27-10-2016 06:15:00 6.7 C 97 % 6.26 C
3464 27-10-2016 06:20:00 6.7 C 97 % 6.26 C
3465 27-10-2016 06:25:00 6.7 C 97 % 6.26 C
3466 27-10-2016 06:30:00 6.7 C 97 % 6.26 C
3467 27-10-2016 06:35:00 6.7 C 97 % 6.26 C
3468 27-10-2016 06:40:00 6.7 C 97 % 6.26 C
3469 27-10-2016 06:45:00 6.7 C 97 % 6.26 C
3470 27-10-2016 06:50:00 6.8 C 97 % 6.36 C
3471 27-10-2016 06:55:00 6.8 C 97 % 6.36 C
3472 27-10-2016 07:00:00 6.8 C 97 % 6.36 C
3473 27-10-2016 07:05:00 6.8 C 97 % 6.36 C
3474 27-10-2016 07:10:00 6.8 C 97 % 6.36 C
3475 27-10-2016 07:15:00 6.8 C 97 % 6.36 C
Sensor: Nr:Datum:Temp:Feuchte:Taupunkt:
Aussen-T/F 3476 27-10-2016 07:20:00 6.9 C 97 % 6.46 C
3477 27-10-2016 07:25:00 6.9 C 97 % 6.46 C
3478 27-10-2016 07:30:00 7 C 97 % 6.56 C
3479 27-10-2016 07:35:00 7 C 97 % 6.56 C
3480 27-10-2016 07:40:00 7 C 97 % 6.56 C
3481 27-10-2016 07:45:00 7.1 C 97 % 6.66 C
3482 27-10-2016 07:50:00 7.1 C 97 % 6.66 C
3483 27-10-2016 07:55:00 7.1 C 97 % 6.66 C
3484 27-10-2016 08:00:00 7.1 C 97 % 6.66 C
3485 27-10-2016 08:05:00 7.1 C 97 % 6.66 C
3486 27-10-2016 08:10:00 7.1 C 97 % 6.66 C
3487 27-10-2016 08:15:00 7.1 C 97 % 6.66 C
3488 27-10-2016 08:20:00 7.2 C 97 % 6.76 C
3489 27-10-2016 08:25:00 7.1 C 97 % 6.66 C
3490 27-10-2016 08:30:00 7.1 C 97 % 6.66 C
3491 27-10-2016 08:35:00 7.2 C 97 % 6.76 C
3492 27-10-2016 08:40:00 7.2 C 97 % 6.76 C
3493 27-10-2016 08:45:00 7.2 C 97 % 6.76 C
3494 27-10-2016 08:50:00 7.3 C 97 % 6.86 C
3495 27-10-2016 08:55:00 7.3 C 97 % 6.86 C
3496 27-10-2016 09:00:00 7.4 C 97 % 6.96 C
3497 27-10-2016 09:05:00 7.4 C 97 % 6.96 C
3498 27-10-2016 09:10:00 7.4 C 97 % 6.96 C
3499 27-10-2016 09:15:00 7.4 C 97 % 6.96 C
3500 27-10-2016 09:20:00 7.4 C 97 % 6.96 C
Sensor: Nr:Datum:Temp:Feuchte:Taupunkt:
Aussen-T/F 3501 27-10-2016 09:25:00 7.5 C 97 % 7.06 C
3502 27-10-2016 09:30:00 7.6 C 97 % 7.16 C
3503 27-10-2016 09:35:00 7.6 C 97 % 7.16 C
3504 27-10-2016 09:40:00 7.7 C 97 % 7.25 C
3505 27-10-2016 09:45:00 7.7 C 97 % 7.25 C
3506 27-10-2016 09:50:00 7.7 C 97 % 7.25 C
3507 27-10-2016 09:55:00 7.7 C 97 % 7.25 C
3508 27-10-2016 10:00:00 7.7 C 97 % 7.25 C
3509 27-10-2016 10:05:00 7.8 C 97 % 7.35 C
3510 27-10-2016 10:10:00 7.9 C 97 % 7.45 C
3511 27-10-2016 10:15:00 8.1 C 97 % 7.65 C
3512 27-10-2016 10:20:00 8.2 C 97 % 7.75 C
3513 27-10-2016 10:25:00 8.3 C 97 % 7.85 C
3514 27-10-2016 10:30:00 8.3 C 97 % 7.85 C
3515 27-10-2016 10:35:00 8.4 C 97 % 7.95 C
3516 27-10-2016 10:40:00 8.6 C 97 % 8.15 C
3517 27-10-2016 10:45:00 8.6 C 97 % 8.15 C
3518 27-10-2016 10:50:00 8.7 C 96 % 8.1 C
3519 27-10-2016 10:55:00 8.7 C 96 % 8.1 C
3520 27-10-2016 11:00:00 8.8 C 96 % 8.2 C
3521 27-10-2016 11:05:00 8.9 C 96 % 8.3 C
3522 27-10-2016 11:10:00 9 C 96 % 8.4 C
3523 27-10-2016 11:15:00 9.1 C 95 % 8.34 C
3524 27-10-2016 11:20:00 9.2 C 95 % 8.44 C
3525 27-10-2016 11:25:00 9.2 C 94 % 8.29 C
Sensor: Nr:Datum:Temp:Feuchte:Taupunkt:
Aussen-T/F 3526 27-10-2016 11:30:00 9.2 C 94 % 8.29 C
3527 27-10-2016 11:35:00 9.2 C 94 % 8.29 C
3528 27-10-2016 11:40:00 9.2 C 94 % 8.29 C
3529 27-10-2016 11:45:00 9.2 C 94 % 8.29 C
3530 27-10-2016 11:50:00 9.3 C 94 % 8.39 C
3531 27-10-2016 11:55:00 9.3 C 94 % 8.39 C
3532 27-10-2016 12:00:00 9.3 C 94 % 8.39 C
3533 27-10-2016 12:05:00 9.3 C 94 % 8.39 C
3534 27-10-2016 12:10:00 9.4 C 94 % 8.48 C
3535 27-10-2016 12:15:00 9.4 C 94 % 8.48 C
3536 27-10-2016 12:20:00 9.4 C 94 % 8.48 C
3537 27-10-2016 12:25:00 9.5 C 94 % 8.58 C
3538 27-10-2016 12:30:00 9.6 C 94 % 8.68 C
3539 27-10-2016 12:35:00 9.6 C 95 % 8.84 C
3540 27-10-2016 12:40:00 9.7 C 95 % 8.94 C
3541 27-10-2016 12:45:00 9.8 C 95 % 9.04 C
3542 27-10-2016 12:50:00 9.8 C 95 % 9.04 C
3543 27-10-2016 12:55:00 9.9 C 95 % 9.14 C
3544 27-10-2016 13:00:00 9.9 C 95 % 9.14 C
3545 27-10-2016 13:05:00 10.1 C 95 % 9.34 C
3546 27-10-2016 13:10:00 10.1 C 94 % 9.18 C
3547 27-10-2016 13:15:00 10.2 C 94 % 9.28 C
3548 27-10-2016 13:20:00 10.3 C 94 % 9.38 C
3549 27-10-2016 13:25:00 10.4 C 94 % 9.48 C
3550 27-10-2016 13:30:00 10.5 C 94 % 9.58 C
Sensor: Nr:Datum:Temp:Feuchte:Taupunkt:
Aussen-T/F 3551 27-10-2016 13:35:00 10.6 C 94 % 9.68 C
3552 27-10-2016 13:40:00 10.7 C 94 % 9.77 C
3553 27-10-2016 13:45:00 10.7 C 94 % 9.77 C
3554 27-10-2016 13:50:00 10.8 C 94 % 9.87 C
3555 27-10-2016 13:55:00 10.8 C 94 % 9.87 C
3556 27-10-2016 14:00:00 10.9 C 94 % 9.97 C
3557 27-10-2016 14:05:00 11.1 C 93 % 10.01 C
3558 27-10-2016 14:10:00 11.2 C 93 % 10.11 C
3559 27-10-2016 14:15:00 11.3 C 93 % 10.21 C
3560 27-10-2016 14:20:00 11.4 C 93 % 10.31 C
3561 27-10-2016 14:25:00 11.5 C 93 % 10.41 C
3562 27-10-2016 14:30:00 11.6 C 92 % 10.35 C
3563 27-10-2016 14:35:00 11.6 C 92 % 10.35 C
3564 27-10-2016 14:40:00 11.6 C 92 % 10.35 C
3565 27-10-2016 14:45:00 11.6 C 92 % 10.35 C
3566 27-10-2016 14:50:00 11.6 C 92 % 10.35 C
3567 27-10-2016 14:55:00 11.6 C 92 % 10.35 C
3568 27-10-2016 15:00:00 11.6 C 93 % 10.51 C
3569 27-10-2016 15:05:00 11.6 C 93 % 10.51 C
3570 27-10-2016 15:10:00 11.6 C 93 % 10.51 C
3571 27-10-2016 15:15:00 11.6 C 93 % 10.51 C
3572 27-10-2016 15:20:00 11.6 C 93 % 10.51 C
3573 27-10-2016 15:25:00 11.7 C 93 % 10.61 C
3574 27-10-2016 15:30:00 11.7 C 93 % 10.61 C
3575 27-10-2016 15:35:00 11.7 C 93 % 10.61 C
Sensor: Nr:Datum:Temp:Feuchte:Taupunkt:
Aussen-T/F 3576 27-10-2016 15:40:00 11.7 C 93 % 10.61 C
3577 27-10-2016 15:45:00 11.7 C 93 % 10.61 C
3578 27-10-2016 15:50:00 11.8 C 93 % 10.71 C
3579 27-10-2016 15:55:00 11.8 C 93 % 10.71 C
3580 27-10-2016 16:00:00 11.8 C 93 % 10.71 C
3581 27-10-2016 16:05:00 11.8 C 93 % 10.71 C
3582 27-10-2016 16:10:00 11.9 C 94 % 10.97 C
3583 27-10-2016 16:15:00 11.9 C 94 % 10.97 C
3584 27-10-2016 16:20:00 12.1 C 94 % 11.16 C
3585 27-10-2016 16:25:00 12.2 C 94 % 11.26 C
3586 27-10-2016 16:30:00 12.3 C 94 % 11.36 C
3587 27-10-2016 16:35:00 12.3 C 94 % 11.36 C
3588 27-10-2016 16:40:00 12.4 C 94 % 11.46 C
3589 27-10-2016 16:45:00 12.4 C 94 % 11.46 C
3590 27-10-2016 16:50:00 12.5 C 94 % 11.56 C
3591 27-10-2016 16:55:00 12.5 C 94 % 11.56 C
3592 27-10-2016 17:00:00 12.5 C 93 % 11.4 C
3593 27-10-2016 17:05:00 12.5 C 93 % 11.4 C
3594 27-10-2016 17:10:00 12.4 C 93 % 11.3 C
3595 27-10-2016 17:15:00 12.4 C 93 % 11.3 C
3596 27-10-2016 17:20:00 12.4 C 93 % 11.3 C
3597 27-10-2016 17:25:00 12.3 C 93 % 11.2 C
3598 27-10-2016 17:30:00 12.3 C 93 % 11.2 C
3599 27-10-2016 17:35:00 12.2 C 93 % 11.1 C
3600 27-10-2016 17:40:00 12.2 C 93 % 11.1 C
Sensor: Nr:Datum:Temp:Feuchte:Taupunkt:
Aussen-T/F 3601 27-10-2016 17:45:00 12.1 C 93 % 11 C
3602 27-10-2016 17:50:00 12.1 C 93 % 11 C
3603 27-10-2016 17:55:00 12.1 C 93 % 11 C
3604 27-10-2016 18:00:00 11.9 C 93 % 10.81 C
3605 27-10-2016 18:05:00 11.9 C 93 % 10.81 C
3606 27-10-2016 18:10:00 11.9 C 93 % 10.81 C
3607 27-10-2016 18:15:00 11.8 C 93 % 10.71 C
3608 27-10-2016 18:20:00 11.8 C 93 % 10.71 C
3609 27-10-2016 18:25:00 11.7 C 93 % 10.61 C
3610 27-10-2016 18:30:00 11.7 C 93 % 10.61 C
3611 27-10-2016 18:35:00 11.6 C 94 % 10.67 C
3612 27-10-2016 18:40:00 11.6 C 94 % 10.67 C
3613 27-10-2016 18:45:00 11.4 C 94 % 10.47 C
3614 27-10-2016 18:50:00 11.4 C 93 % 10.31 C
3615 27-10-2016 18:55:00 11.3 C 94 % 10.37 C
3616 27-10-2016 19:00:00 11.3 C 94 % 10.37 C
3617 27-10-2016 19:05:00 11.3 C 94 % 10.37 C
3618 27-10-2016 19:10:00 11.3 C 94 % 10.37 C
3619 27-10-2016 19:15:00 11.2 C 94 % 10.27 C
3620 27-10-2016 19:20:00 11.2 C 94 % 10.27 C
3621 27-10-2016 19:25:00 11.2 C 94 % 10.27 C
3622 27-10-2016 19:30:00 11.1 C 94 % 10.17 C
3623 27-10-2016 19:35:00 11.1 C 94 % 10.17 C
3624 27-10-2016 19:40:00 11.1 C 94 % 10.17 C
3625 27-10-2016 19:45:00 11.1 C 94 % 10.17 C
Sensor: Nr:Datum:Temp:Feuchte:Taupunkt:
Aussen-T/F 3626 27-10-2016 19:50:00 11.1 C 94 % 10.17 C
3627 27-10-2016 19:55:00 11 C 94 % 10.07 C
3628 27-10-2016 20:00:00 10.9 C 94 % 9.97 C
3629 27-10-2016 20:05:00 10.9 C 94 % 9.97 C
3630 27-10-2016 20:10:00 10.8 C 95 % 10.03 C
3631 27-10-2016 20:15:00 10.8 C 95 % 10.03 C
3632 27-10-2016 20:20:00 10.8 C 95 % 10.03 C
3633 27-10-2016 20:25:00 10.7 C 95 % 9.93 C
3634 27-10-2016 20:30:00 10.6 C 95 % 9.83 C
3635 27-10-2016 20:35:00 10.6 C 95 % 9.83 C
3636 27-10-2016 20:40:00 10.4 C 95 % 9.63 C
3637 27-10-2016 20:45:00 10.4 C 95 % 9.63 C
3638 27-10-2016 20:50:00 10.3 C 95 % 9.54 C
3639 27-10-2016 20:55:00 10.3 C 95 % 9.54 C
3640 27-10-2016 21:00:00 10.3 C 95 % 9.54 C
3641 27-10-2016 21:05:00 10.2 C 95 % 9.44 C
3642 27-10-2016 21:10:00 10.2 C 95 % 9.44 C
3643 27-10-2016 21:15:00 10.2 C 95 % 9.44 C
3644 27-10-2016 21:20:00 10.1 C 95 % 9.34 C
3645 27-10-2016 21:25:00 10 C 95 % 9.24 C
3646 27-10-2016 21:30:00 9.9 C 95 % 9.14 C
3647 27-10-2016 21:35:00 9.8 C 95 % 9.04 C
3648 27-10-2016 21:40:00 9.8 C 95 % 9.04 C
3649 27-10-2016 21:45:00 9.7 C 95 % 8.94 C
3650 27-10-2016 21:50:00 9.6 C 95 % 8.84 C
Sensor: Nr:Datum:Temp:Feuchte:Taupunkt:
Aussen-T/F 3651 27-10-2016 21:55:00 9.6 C 95 % 8.84 C
3652 27-10-2016 22:00:00 9.6 C 95 % 8.84 C
3653 27-10-2016 22:05:00 9.6 C 95 % 8.84 C
3654 27-10-2016 22:10:00 9.5 C 96 % 8.89 C
3655 27-10-2016 22:15:00 9.5 C 96 % 8.89 C
3656 27-10-2016 22:20:00 9.4 C 96 % 8.8 C
3657 27-10-2016 22:25:00 9.4 C 95 % 8.64 C
3658 27-10-2016 22:30:00 9.4 C 96 % 8.8 C
3659 27-10-2016 22:35:00 9.4 C 96 % 8.8 C
3660 27-10-2016 22:40:00 9.4 C 96 % 8.8 C
3661 27-10-2016 22:45:00 9.3 C 96 % 8.7 C
3662 27-10-2016 22:50:00 9.3 C 96 % 8.7 C
3663 27-10-2016 22:55:00 9.3 C 96 % 8.7 C
3664 27-10-2016 23:00:00 9.3 C 96 % 8.7 C
3665 27-10-2016 23:05:00 9.3 C 96 % 8.7 C
3666 27-10-2016 23:10:00 9.4 C 96 % 8.8 C
3667 27-10-2016 23:15:00 9.4 C 96 % 8.8 C
3668 27-10-2016 23:20:00 9.5 C 96 % 8.89 C
3669 27-10-2016 23:25:00 9.6 C 96 % 8.99 C
3670 27-10-2016 23:30:00 9.5 C 96 % 8.89 C
3671 27-10-2016 23:35:00 9.6 C 96 % 8.99 C
3672 27-10-2016 23:40:00 9.5 C 96 % 8.89 C
3673 27-10-2016 23:45:00 9.5 C 96 % 8.89 C
3674 27-10-2016 23:50:00 9.5 C 96 % 8.89 C
3675 27-10-2016 23:55:00 9.6 C 96 % 8.99 C
Sensor: Nr:Datum:Temp:Feuchte:Taupunkt:
Aussen-T/F 3676 28-10-2016 00:00:00 9.6 C 96 % 8.99 C
3677 28-10-2016 00:05:00 9.6 C 96 % 8.99 C
3678 28-10-2016 00:10:00 9.7 C 97 % 9.25 C
3679 28-10-2016 00:15:00 9.7 C 97 % 9.25 C
3680 28-10-2016 00:20:00 9.8 C 97 % 9.35 C
3681 28-10-2016 00:25:00 9.7 C 96 % 9.09 C
3682 28-10-2016 00:30:00 9.7 C 96 % 9.09 C
3683 28-10-2016 00:35:00 9.7 C 96 % 9.09 C
3684 28-10-2016 00:40:00 9.7 C 96 % 9.09 C
3685 28-10-2016 00:45:00 9.6 C 96 % 8.99 C
3686 28-10-2016 00:50:00 9.6 C 96 % 8.99 C
3687 28-10-2016 00:55:00 9.5 C 96 % 8.89 C
3688 28-10-2016 01:00:00 9.4 C 96 % 8.8 C
3689 28-10-2016 01:05:00 9.4 C 96 % 8.8 C
3690 28-10-2016 01:10:00 9.4 C 96 % 8.8 C
3691 28-10-2016 01:15:00 9.4 C 96 % 8.8 C
3692 28-10-2016 01:20:00 9.3 C 96 % 8.7 C
3693 28-10-2016 01:25:00 9.2 C 96 % 8.6 C
3694 28-10-2016 01:30:00 9.1 C 96 % 8.5 C
3695 28-10-2016 01:35:00 9 C 96 % 8.4 C
3696 28-10-2016 01:40:00 9 C 96 % 8.4 C
3697 28-10-2016 01:45:00 9.1 C 96 % 8.5 C
3698 28-10-2016 01:50:00 9.2 C 96 % 8.6 C
3699 28-10-2016 01:55:00 9.3 C 96 % 8.7 C
3700 28-10-2016 02:00:00 9.3 C 96 % 8.7 C
Sensor: Nr:Datum:Temp:Feuchte:Taupunkt:
Aussen-T/F 3701 28-10-2016 02:05:00 9.3 C 96 % 8.7 C
3702 28-10-2016 02:10:00 9.3 C 96 % 8.7 C
3703 28-10-2016 02:15:00 9.3 C 96 % 8.7 C
3704 28-10-2016 02:20:00 9.3 C 96 % 8.7 C
3705 28-10-2016 02:25:00 9.3 C 96 % 8.7 C
3706 28-10-2016 02:30:00 9.4 C 96 % 8.8 C
3707 28-10-2016 02:35:00 9.4 C 96 % 8.8 C
3708 28-10-2016 02:40:00 9.4 C 96 % 8.8 C
3709 28-10-2016 02:45:00 9.4 C 96 % 8.8 C
3710 28-10-2016 02:50:00 9.4 C 96 % 8.8 C
3711 28-10-2016 02:55:00 9.5 C 96 % 8.89 C
3712 28-10-2016 03:00:00 9.6 C 96 % 8.99 C
3713 28-10-2016 03:05:00 9.5 C 96 % 8.89 C
3714 28-10-2016 03:10:00 9.5 C 96 % 8.89 C
3715 28-10-2016 03:15:00 9.5 C 96 % 8.89 C
3716 28-10-2016 03:20:00 9.5 C 96 % 8.89 C
3717 28-10-2016 03:25:00 9.4 C 96 % 8.8 C
3718 28-10-2016 03:30:00 9.4 C 96 % 8.8 C
3719 28-10-2016 03:35:00 9.5 C 96 % 8.89 C
3720 28-10-2016 03:40:00 9.6 C 96 % 8.99 C
3721 28-10-2016 03:45:00 9.6 C 96 % 8.99 C
3722 28-10-2016 03:50:00 9.6 C 96 % 8.99 C
3723 28-10-2016 03:55:00 9.6 C 96 % 8.99 C
3724 28-10-2016 04:00:00 9.6 C 96 % 8.99 C
3725 28-10-2016 04:05:00 9.6 C 96 % 8.99 C
Sensor: Nr:Datum:Temp:Feuchte:Taupunkt:
Aussen-T/F 3726 28-10-2016 04:10:00 9.6 C 96 % 8.99 C
3727 28-10-2016 04:15:00 9.6 C 96 % 8.99 C
3728 28-10-2016 04:20:00 9.6 C 96 % 8.99 C
3729 28-10-2016 04:25:00 9.6 C 96 % 8.99 C
3730 28-10-2016 04:30:00 9.6 C 96 % 8.99 C
3731 28-10-2016 04:35:00 9.7 C 96 % 9.09 C
3732 28-10-2016 04:40:00 9.7 C 96 % 9.09 C
3733 28-10-2016 04:45:00 9.7 C 96 % 9.09 C
3734 28-10-2016 04:50:00 9.7 C 96 % 9.09 C
3735 28-10-2016 04:55:00 9.7 C 96 % 9.09 C
3736 28-10-2016 05:00:00 9.7 C 96 % 9.09 C
3737 28-10-2016 05:05:00 9.7 C 96 % 9.09 C
3738 28-10-2016 05:10:00 9.8 C 95 % 9.04 C
3739 28-10-2016 05:15:00 9.8 C 95 % 9.04 C
3740 28-10-2016 05:20:00 9.8 C 96 % 9.19 C
3741 28-10-2016 05:25:00 9.8 C 96 % 9.19 C
3742 28-10-2016 05:30:00 9.8 C 95 % 9.04 C
3743 28-10-2016 05:35:00 9.8 C 96 % 9.19 C
3744 28-10-2016 05:40:00 9.7 C 96 % 9.09 C
3745 28-10-2016 05:45:00 9.7 C 95 % 8.94 C
3746 28-10-2016 05:50:00 9.7 C 95 % 8.94 C
3747 28-10-2016 05:55:00 9.7 C 95 % 8.94 C
3748 28-10-2016 06:00:00 9.6 C 95 % 8.84 C
3749 28-10-2016 06:05:00 9.4 C 95 % 8.64 C
3750 28-10-2016 06:10:00 9.4 C 95 % 8.64 C
Sensor: Nr:Datum:Temp:Feuchte:Taupunkt:
Aussen-T/F 3751 28-10-2016 06:15:00 9.3 C 95 % 8.54 C
3752 28-10-2016 06:20:00 9.4 C 96 % 8.8 C
3753 28-10-2016 06:25:00 9.4 C 96 % 8.8 C
3754 28-10-2016 06:30:00 9.4 C 96 % 8.8 C
3755 28-10-2016 06:35:00 9.5 C 96 % 8.89 C
3756 28-10-2016 06:40:00 9.5 C 96 % 8.89 C
3757 28-10-2016 06:45:00 9.6 C 96 % 8.99 C
3758 28-10-2016 06:50:00 9.6 C 96 % 8.99 C
3759 28-10-2016 06:55:00 9.6 C 95 % 8.84 C
3760 28-10-2016 07:00:00 9.6 C 95 % 8.84 C
3761 28-10-2016 07:05:00 9.6 C 95 % 8.84 C
3762 28-10-2016 07:10:00 9.6 C 95 % 8.84 C
3763 28-10-2016 07:15:00 9.5 C 95 % 8.74 C
3764 28-10-2016 07:20:00 9.4 C 95 % 8.64 C
3765 28-10-2016 07:25:00 9.4 C 95 % 8.64 C
3766 28-10-2016 07:30:00 9.4 C 95 % 8.64 C
3767 28-10-2016 07:35:00 9.4 C 96 % 8.8 C
3768 28-10-2016 07:40:00 9.5 C 96 % 8.89 C
3769 28-10-2016 07:45:00 9.6 C 96 % 8.99 C
3770 28-10-2016 07:50:00 9.6 C 96 % 8.99 C
3771 28-10-2016 07:55:00 9.6 C 95 % 8.84 C
3772 28-10-2016 08:00:00 9.6 C 95 % 8.84 C
3773 28-10-2016 08:05:00 9.6 C 95 % 8.84 C
3774 28-10-2016 08:10:00 9.7 C 95 % 8.94 C
3775 28-10-2016 08:15:00 9.8 C 95 % 9.04 C
Sensor: Nr:Datum:Temp:Feuchte:Taupunkt:
Aussen-T/F 3776 28-10-2016 08:20:00 9.8 C 95 % 9.04 C
3777 28-10-2016 08:25:00 9.8 C 95 % 9.04 C
3778 28-10-2016 08:30:00 9.8 C 95 % 9.04 C
3779 28-10-2016 08:35:00 9.9 C 95 % 9.14 C
3780 28-10-2016 08:40:00 10 C 95 % 9.24 C
3781 28-10-2016 08:45:00 10.1 C 95 % 9.34 C
3782 28-10-2016 08:50:00 10.1 C 94 % 9.18 C
3783 28-10-2016 08:55:00 10.1 C 94 % 9.18 C
3784 28-10-2016 09:00:00 10.2 C 94 % 9.28 C
3785 28-10-2016 09:05:00 10.2 C 94 % 9.28 C
3786 28-10-2016 09:10:00 10.2 C 94 % 9.28 C
3787 28-10-2016 09:15:00 10.2 C 94 % 9.28 C
3788 28-10-2016 09:20:00 10.2 C 94 % 9.28 C
3789 28-10-2016 09:25:00 10.2 C 94 % 9.28 C
3790 28-10-2016 09:30:00 10.3 C 94 % 9.38 C
3791 28-10-2016 09:35:00 10.3 C 93 % 9.22 C
3792 28-10-2016 09:40:00 10.3 C 93 % 9.22 C
3793 28-10-2016 09:45:00 10.4 C 93 % 9.32 C
3794 28-10-2016 09:50:00 10.4 C 93 % 9.32 C
3795 28-10-2016 09:55:00 10.4 C 94 % 9.48 C
3796 28-10-2016 10:00:00 10.6 C 93 % 9.52 C
3797 28-10-2016 10:05:00 10.6 C 93 % 9.52 C
3798 28-10-2016 10:10:00 10.7 C 93 % 9.62 C
3799 28-10-2016 10:15:00 10.7 C 93 % 9.62 C
3800 28-10-2016 10:20:00 10.7 C 93 % 9.62 C
Sensor: Nr:Datum:Temp:Feuchte:Taupunkt:
Aussen-T/F 3801 28-10-2016 10:25:00 10.8 C 93 % 9.71 C
3802 28-10-2016 10:30:00 10.8 C 92 % 9.55 C
3803 28-10-2016 10:35:00 10.8 C 92 % 9.55 C
3804 28-10-2016 10:40:00 10.9 C 92 % 9.65 C
3805 28-10-2016 10:45:00 10.9 C 92 % 9.65 C
3806 28-10-2016 10:50:00 11 C 92 % 9.75 C
3807 28-10-2016 10:55:00 11 C 92 % 9.75 C
3808 28-10-2016 11:00:00 11.1 C 92 % 9.85 C
3809 28-10-2016 11:05:00 11.1 C 92 % 9.85 C
3810 28-10-2016 11:10:00 11.1 C 92 % 9.85 C
3811 28-10-2016 11:15:00 11.1 C 91 % 9.69 C
3812 28-10-2016 11:20:00 11.1 C 91 % 9.69 C
3813 28-10-2016 11:25:00 11.1 C 91 % 9.69 C
3814 28-10-2016 11:30:00 11.2 C 91 % 9.79 C
3815 28-10-2016 11:35:00 11.2 C 91 % 9.79 C
3816 28-10-2016 11:40:00 11.2 C 91 % 9.79 C
3817 28-10-2016 11:45:00 11.3 C 91 % 9.89 C
3818 28-10-2016 11:50:00 11.4 C 91 % 9.98 C
3819 28-10-2016 11:55:00 11.5 C 91 % 10.08 C
3820 28-10-2016 12:00:00 11.6 C 91 % 10.18 C
3821 28-10-2016 12:05:00 11.7 C 91 % 10.28 C
3822 28-10-2016 12:10:00 11.8 C 91 % 10.38 C
3823 28-10-2016 12:15:00 12 C 91 % 10.58 C
3824 28-10-2016 12:20:00 12.3 C 89 % 10.54 C
3825 28-10-2016 12:25:00 12.6 C 87 % 10.5 C
Sensor: Nr:Datum:Temp:Feuchte:Taupunkt:
Aussen-T/F 3826 28-10-2016 12:30:00 12.8 C 86 % 10.52 C
3827 28-10-2016 12:35:00 13 C 86 % 10.72 C
3828 28-10-2016 12:40:00 13.2 C 85 % 10.74 C
3829 28-10-2016 12:45:00 13.4 C 85 % 10.93 C
3830 28-10-2016 12:50:00 13.6 C 84 % 10.95 C
3831 28-10-2016 12:55:00 13.7 C 84 % 11.05 C
3832 28-10-2016 13:00:00 13.8 C 84 % 11.15 C
3833 28-10-2016 13:05:00 13.9 C 82 % 10.88 C
3834 28-10-2016 13:10:00 14.1 C 82 % 11.08 C
3835 28-10-2016 13:15:00 14.1 C 81 % 10.89 C
3836 28-10-2016 13:20:00 14.2 C 81 % 10.99 C
3837 28-10-2016 13:25:00 14.1 C 79 % 10.52 C
3838 28-10-2016 13:30:00 14.1 C 81 % 10.89 C
3839 28-10-2016 13:35:00 13.9 C 81 % 10.7 C
3840 28-10-2016 13:40:00 13.9 C 82 % 10.88 C
3841 28-10-2016 13:45:00 13.9 C 81 % 10.7 C
3842 28-10-2016 13:50:00 13.9 C 81 % 10.7 C
3843 28-10-2016 13:55:00 13.9 C 82 % 10.88 C
3844 28-10-2016 14:00:00 13.9 C 82 % 10.88 C
3845 28-10-2016 14:05:00 13.9 C 82 % 10.88 C
3846 28-10-2016 14:10:00 14.1 C 82 % 11.08 C
3847 28-10-2016 14:15:00 14.2 C 82 % 11.17 C
3848 28-10-2016 14:20:00 14.3 C 82 % 11.27 C
3849 28-10-2016 14:25:00 14.3 C 80 % 10.9 C
3850 28-10-2016 14:30:00 14.3 C 81 % 11.09 C
Sensor: Nr:Datum:Temp:Feuchte:Taupunkt:
Aussen-T/F 3851 28-10-2016 14:35:00 14.3 C 80 % 10.9 C
3852 28-10-2016 14:40:00 14.3 C 81 % 11.09 C
3853 28-10-2016 14:45:00 14.3 C 80 % 10.9 C
3854 28-10-2016 14:50:00 14.2 C 80 % 10.8 C
3855 28-10-2016 14:55:00 14.2 C 81 % 10.99 C
3856 28-10-2016 15:00:00 14.2 C 82 % 11.17 C
3857 28-10-2016 15:05:00 14.2 C 81 % 10.99 C
3858 28-10-2016 15:10:00 14.2 C 82 % 11.17 C
3859 28-10-2016 15:15:00 14.3 C 81 % 11.09 C
3860 28-10-2016 15:20:00 14.3 C 81 % 11.09 C
3861 28-10-2016 15:25:00 14.3 C 81 % 11.09 C
3862 28-10-2016 15:30:00 14.3 C 81 % 11.09 C
3863 28-10-2016 15:35:00 14.3 C 81 % 11.09 C
3864 28-10-2016 15:40:00 14.3 C 81 % 11.09 C
3865 28-10-2016 15:45:00 14.3 C 81 % 11.09 C
3866 28-10-2016 15:50:00 14.3 C 82 % 11.27 C
3867 28-10-2016 15:55:00 14.3 C 81 % 11.09 C
3868 28-10-2016 16:00:00 14.3 C 80 % 10.9 C
3869 28-10-2016 16:05:00 14.3 C 82 % 11.27 C
3870 28-10-2016 16:10:00 14.4 C 83 % 11.55 C
3871 28-10-2016 16:15:00 14.4 C 83 % 11.55 C
3872 28-10-2016 16:20:00 14.4 C 84 % 11.73 C
3873 28-10-2016 16:25:00 14.3 C 82 % 11.27 C
3874 28-10-2016 16:30:00 14.3 C 82 % 11.27 C
3875 28-10-2016 16:35:00 14.3 C 82 % 11.27 C
Sensor: Nr:Datum:Temp:Feuchte:Taupunkt:
Aussen-T/F 3876 28-10-2016 16:40:00 14.2 C 83 % 11.36 C
3877 28-10-2016 16:45:00 14.2 C 84 % 11.54 C
3878 28-10-2016 16:50:00 14.2 C 85 % 11.72 C
3879 28-10-2016 16:55:00 14.1 C 86 % 11.8 C
3880 28-10-2016 17:00:00 13.9 C 86 % 11.6 C
3881 28-10-2016 17:05:00 13.8 C 87 % 11.68 C
3882 28-10-2016 17:10:00 13.7 C 87 % 11.58 C
3883 28-10-2016 17:15:00 13.6 C 87 % 11.48 C
3884 28-10-2016 17:20:00 13.5 C 88 % 11.55 C
3885 28-10-2016 17:25:00 13.4 C 88 % 11.45 C
3886 28-10-2016 17:30:00 13.3 C 88 % 11.36 C
3887 28-10-2016 17:35:00 13.2 C 89 % 11.43 C
3888 28-10-2016 17:40:00 13.2 C 89 % 11.43 C
3889 28-10-2016 17:45:00 13.1 C 89 % 11.33 C
3890 28-10-2016 17:50:00 13 C 89 % 11.23 C
3891 28-10-2016 17:55:00 12.9 C 90 % 11.3 C
3892 28-10-2016 18:00:00 12.8 C 90 % 11.2 C
3893 28-10-2016 18:05:00 12.8 C 90 % 11.2 C
3894 28-10-2016 18:10:00 12.7 C 90 % 11.1 C
3895 28-10-2016 18:15:00 12.7 C 90 % 11.1 C
3896 28-10-2016 18:20:00 12.6 C 91 % 11.17 C